<?xml version='1.0' encoding='UTF-8'?>
<gpx version="1.1" creator="https://www.komoot.de" xmlns="http://www.topografix.com/GPX/1/1" xmlns:xsi="http://www.w3.org/2001/XMLSchema-instance" xsi:schemaLocation="http://www.topografix.com/GPX/1/1 http://www.topografix.com/GPX/1/1/gpx.xsd">
  <metadata>
    <name>Sen2026/4 Zwischenrouten Radschmetterling</name>
    <author>
      <link href="https://www.komoot.de">
        <text>komoot</text>
        <type>text/html</type>
      </link>
    </author>
  </metadata>
  <wpt lat="49.347100" lon="10.093089">
    <name>Blick auf die Kirche Leuzendorf</name>
    <sym>Flag, Blue</sym>
  </wpt>
  <wpt lat="49.243355" lon="10.106152">
    <name>Jüdischer Friedhof, Michelbach an der Lücke</name>
    <sym>Flag, Blue</sym>
  </wpt>
  <wpt lat="49.265538" lon="10.330646">
    <name>Blick auf Weißenkirchberg</name>
    <sym>Flag, Blue</sym>
  </wpt>
  <trk>
    <name>Sen2026/4 Zwischenrouten Radschmetterling</name>
    <trkseg>
      <trkpt lat="49.379962" lon="10.185431">
        <ele>438.645211</ele>
        <time>2026-04-26T14:29:38.842Z</time>
      </trkpt>
      <trkpt lat="49.379942" lon="10.185334">
        <ele>438.645211</ele>
        <time>2026-04-26T14:29:40.157Z</time>
      </trkpt>
      <trkpt lat="49.379897" lon="10.185137">
        <ele>438.645211</ele>
        <time>2026-04-26T14:29:42.844Z</time>
      </trkpt>
      <trkpt lat="49.379886" lon="10.185097">
        <ele>438.645211</ele>
        <time>2026-04-26T14:29:43.400Z</time>
      </trkpt>
      <trkpt lat="49.379763" lon="10.184610">
        <ele>438.645211</ele>
        <time>2026-04-26T14:29:50.096Z</time>
      </trkpt>
      <trkpt lat="49.379703" lon="10.184505">
        <ele>438.645211</ele>
        <time>2026-04-26T14:29:51.946Z</time>
      </trkpt>
      <trkpt lat="49.379654" lon="10.184399">
        <ele>438.645211</ele>
        <time>2026-04-26T14:29:53.688Z</time>
      </trkpt>
      <trkpt lat="49.379517" lon="10.183993">
        <ele>438.499410</ele>
        <time>2026-04-26T14:29:59.755Z</time>
      </trkpt>
      <trkpt lat="49.379508" lon="10.183966">
        <ele>438.479484</ele>
        <time>2026-04-26T14:30:00.155Z</time>
      </trkpt>
      <trkpt lat="49.379476" lon="10.183869">
        <ele>438.408051</ele>
        <time>2026-04-26T14:30:01.575Z</time>
      </trkpt>
      <trkpt lat="49.379439" lon="10.183762">
        <ele>438.328463</ele>
        <time>2026-04-26T14:30:03.166Z</time>
      </trkpt>
      <trkpt lat="49.379434" lon="10.183748">
        <ele>438.317973</ele>
        <time>2026-04-26T14:30:03.367Z</time>
      </trkpt>
      <trkpt lat="49.379417" lon="10.183695">
        <ele>438.279161</ele>
        <time>2026-04-26T14:30:04.138Z</time>
      </trkpt>
      <trkpt lat="49.379156" lon="10.182918">
        <ele>437.704814</ele>
        <time>2026-04-26T14:30:15.724Z</time>
      </trkpt>
      <trkpt lat="49.379124" lon="10.182823">
        <ele>437.634550</ele>
        <time>2026-04-26T14:30:17.151Z</time>
      </trkpt>
      <trkpt lat="49.379088" lon="10.182722">
        <ele>437.558910</ele>
        <time>2026-04-26T14:30:18.686Z</time>
      </trkpt>
      <trkpt lat="49.379069" lon="10.182664">
        <ele>437.516258</ele>
        <time>2026-04-26T14:30:19.547Z</time>
      </trkpt>
      <trkpt lat="49.378971" lon="10.182394">
        <ele>437.313191</ele>
        <time>2026-04-26T14:30:23.631Z</time>
      </trkpt>
      <trkpt lat="49.378830" lon="10.182034">
        <ele>437.037209</ele>
        <time>2026-04-26T14:30:29.160Z</time>
      </trkpt>
      <trkpt lat="49.378730" lon="10.181779">
        <ele>436.841655</ele>
        <time>2026-04-26T14:30:33.009Z</time>
      </trkpt>
      <trkpt lat="49.378569" lon="10.181352">
        <ele>436.304771</ele>
        <time>2026-04-26T14:30:39.343Z</time>
      </trkpt>
      <trkpt lat="49.378451" lon="10.181043">
        <ele>435.909436</ele>
        <time>2026-04-26T14:30:43.962Z</time>
      </trkpt>
      <trkpt lat="49.378298" lon="10.180583">
        <ele>435.339383</ele>
        <time>2026-04-26T14:30:50.483Z</time>
      </trkpt>
      <trkpt lat="49.378203" lon="10.180333">
        <ele>435.019933</ele>
        <time>2026-04-26T14:30:54.061Z</time>
      </trkpt>
      <trkpt lat="49.378172" lon="10.180263">
        <ele>434.926505</ele>
        <time>2026-04-26T14:30:55.112Z</time>
      </trkpt>
      <trkpt lat="49.378151" lon="10.180211">
        <ele>434.858976</ele>
        <time>2026-04-26T14:30:55.851Z</time>
      </trkpt>
      <trkpt lat="49.378109" lon="10.180077">
        <ele>434.694851</ele>
        <time>2026-04-26T14:30:57.631Z</time>
      </trkpt>
      <trkpt lat="49.378067" lon="10.179944">
        <ele>434.531721</ele>
        <time>2026-04-26T14:30:59.341Z</time>
      </trkpt>
      <trkpt lat="49.378007" lon="10.179729">
        <ele>434.273572</ele>
        <time>2026-04-26T14:31:02.027Z</time>
      </trkpt>
      <trkpt lat="49.377924" lon="10.179434">
        <ele>433.918916</ele>
        <time>2026-04-26T14:31:05.796Z</time>
      </trkpt>
      <trkpt lat="49.377860" lon="10.179057">
        <ele>433.364237</ele>
        <time>2026-04-26T14:31:10.369Z</time>
      </trkpt>
      <trkpt lat="49.377854" lon="10.178631">
        <ele>432.693608</ele>
        <time>2026-04-26T14:31:15.512Z</time>
      </trkpt>
      <trkpt lat="49.377839" lon="10.178521">
        <ele>432.516724</ele>
        <time>2026-04-26T14:31:16.876Z</time>
      </trkpt>
      <trkpt lat="49.377791" lon="10.178226">
        <ele>432.038150</ele>
        <time>2026-04-26T14:31:20.572Z</time>
      </trkpt>
      <trkpt lat="49.377787" lon="10.178202">
        <ele>431.999158</ele>
        <time>2026-04-26T14:31:20.889Z</time>
      </trkpt>
      <trkpt lat="49.377642" lon="10.178236">
        <ele>431.644577</ele>
        <time>2026-04-26T14:31:23.519Z</time>
      </trkpt>
      <trkpt lat="49.377629" lon="10.178341">
        <ele>431.476357</ele>
        <time>2026-04-26T14:31:24.788Z</time>
      </trkpt>
      <trkpt lat="49.377476" lon="10.178458">
        <ele>431.063192</ele>
        <time>2026-04-26T14:31:27.732Z</time>
      </trkpt>
      <trkpt lat="49.377464" lon="10.178529">
        <ele>430.947742</ele>
        <time>2026-04-26T14:31:28.537Z</time>
      </trkpt>
      <trkpt lat="49.377452" lon="10.178605">
        <ele>430.824659</ele>
        <time>2026-04-26T14:31:32.078Z</time>
      </trkpt>
      <trkpt lat="49.377449" lon="10.178734">
        <ele>430.621497</ele>
        <time>2026-04-26T14:31:37.923Z</time>
      </trkpt>
      <trkpt lat="49.377452" lon="10.178605">
        <ele>430.418336</ele>
        <time>2026-04-26T14:31:43.766Z</time>
      </trkpt>
      <trkpt lat="49.377464" lon="10.178529">
        <ele>430.295253</ele>
        <time>2026-04-26T14:31:47.309Z</time>
      </trkpt>
      <trkpt lat="49.377476" lon="10.178458">
        <ele>430.179803</ele>
        <time>2026-04-26T14:31:48.135Z</time>
      </trkpt>
      <trkpt lat="49.377629" lon="10.178341">
        <ele>429.766637</ele>
        <time>2026-04-26T14:31:51.176Z</time>
      </trkpt>
      <trkpt lat="49.377642" lon="10.178236">
        <ele>429.598418</ele>
        <time>2026-04-26T14:31:52.448Z</time>
      </trkpt>
      <trkpt lat="49.377421" lon="10.178228">
        <ele>428.687057</ele>
        <time>2026-04-26T14:31:57.881Z</time>
      </trkpt>
      <trkpt lat="49.377376" lon="10.178236">
        <ele>428.465850</ele>
        <time>2026-04-26T14:31:58.796Z</time>
      </trkpt>
      <trkpt lat="49.376926" lon="10.178315">
        <ele>426.254137</ele>
        <time>2026-04-26T14:32:06.681Z</time>
      </trkpt>
      <trkpt lat="49.376942" lon="10.178548">
        <ele>425.509250</ele>
        <time>2026-04-26T14:32:09.168Z</time>
      </trkpt>
      <trkpt lat="49.376951" lon="10.178698">
        <ele>425.030334</ele>
        <time>2026-04-26T14:32:10.734Z</time>
      </trkpt>
      <trkpt lat="49.376957" lon="10.178825">
        <ele>424.625502</ele>
        <time>2026-04-26T14:32:12.045Z</time>
      </trkpt>
      <trkpt lat="49.376937" lon="10.178989">
        <ele>424.095028</ele>
        <time>2026-04-26T14:32:13.720Z</time>
      </trkpt>
      <trkpt lat="49.376871" lon="10.179290">
        <ele>423.085246</ele>
        <time>2026-04-26T14:32:16.897Z</time>
      </trkpt>
      <trkpt lat="49.375919" lon="10.179591">
        <ele>416.696504</ele>
        <time>2026-04-26T14:32:31.402Z</time>
      </trkpt>
      <trkpt lat="49.375659" lon="10.179707">
        <ele>414.434974</ele>
        <time>2026-04-26T14:32:36.600Z</time>
      </trkpt>
      <trkpt lat="49.375463" lon="10.179773">
        <ele>412.758917</ele>
        <time>2026-04-26T14:32:39.523Z</time>
      </trkpt>
      <trkpt lat="49.375196" lon="10.179861">
        <ele>410.477916</ele>
        <time>2026-04-26T14:32:43.484Z</time>
      </trkpt>
      <trkpt lat="49.375089" lon="10.179898">
        <ele>409.561782</ele>
        <time>2026-04-26T14:32:45.075Z</time>
      </trkpt>
      <trkpt lat="49.374722" lon="10.180013">
        <ele>406.433113</ele>
        <time>2026-04-26T14:32:50.428Z</time>
      </trkpt>
      <trkpt lat="49.374501" lon="10.180021">
        <ele>404.299231</ele>
        <time>2026-04-26T14:32:53.640Z</time>
      </trkpt>
      <trkpt lat="49.374403" lon="10.180002">
        <ele>403.246182</ele>
        <time>2026-04-26T14:32:55.081Z</time>
      </trkpt>
      <trkpt lat="49.374370" lon="10.179996">
        <ele>402.891919</ele>
        <time>2026-04-26T14:32:55.577Z</time>
      </trkpt>
      <trkpt lat="49.373935" lon="10.179894">
        <ele>398.200738</ele>
        <time>2026-04-26T14:33:01.890Z</time>
      </trkpt>
      <trkpt lat="49.373913" lon="10.179887">
        <ele>397.961220</ele>
        <time>2026-04-26T14:33:02.214Z</time>
      </trkpt>
      <trkpt lat="49.373905" lon="10.179884">
        <ele>397.873428</ele>
        <time>2026-04-26T14:33:02.330Z</time>
      </trkpt>
      <trkpt lat="49.373860" lon="10.179863">
        <ele>397.372035</ele>
        <time>2026-04-26T14:33:02.989Z</time>
      </trkpt>
      <trkpt lat="49.373817" lon="10.179841">
        <ele>396.888854</ele>
        <time>2026-04-26T14:33:03.621Z</time>
      </trkpt>
      <trkpt lat="49.373800" lon="10.179830">
        <ele>396.692192</ele>
        <time>2026-04-26T14:33:03.885Z</time>
      </trkpt>
      <trkpt lat="49.373730" lon="10.179777">
        <ele>395.860179</ele>
        <time>2026-04-26T14:33:04.975Z</time>
      </trkpt>
      <trkpt lat="49.373636" lon="10.179714">
        <ele>394.766801</ele>
        <time>2026-04-26T14:33:06.400Z</time>
      </trkpt>
      <trkpt lat="49.373528" lon="10.179644">
        <ele>393.517102</ele>
        <time>2026-04-26T14:33:08.029Z</time>
      </trkpt>
      <trkpt lat="49.373512" lon="10.179630">
        <ele>393.320788</ele>
        <time>2026-04-26T14:33:08.285Z</time>
      </trkpt>
      <trkpt lat="49.373485" lon="10.179596">
        <ele>392.948560</ele>
        <time>2026-04-26T14:33:08.930Z</time>
      </trkpt>
      <trkpt lat="49.372974" lon="10.178890">
        <ele>385.606329</ele>
        <time>2026-04-26T14:33:21.426Z</time>
      </trkpt>
      <trkpt lat="49.372967" lon="10.178791">
        <ele>384.902927</ele>
        <time>2026-04-26T14:33:22.615Z</time>
      </trkpt>
      <trkpt lat="49.372963" lon="10.178711">
        <ele>384.336180</ele>
        <time>2026-04-26T14:33:23.310Z</time>
      </trkpt>
      <trkpt lat="49.372829" lon="10.178412">
        <ele>381.772269</ele>
        <time>2026-04-26T14:33:26.497Z</time>
      </trkpt>
      <trkpt lat="49.372676" lon="10.177844">
        <ele>377.430399</ele>
        <time>2026-04-26T14:33:31.804Z</time>
      </trkpt>
      <trkpt lat="49.372261" lon="10.177088">
        <ele>370.445827</ele>
        <time>2026-04-26T14:33:40.419Z</time>
      </trkpt>
      <trkpt lat="49.372151" lon="10.176919">
        <ele>368.757929</ele>
        <time>2026-04-26T14:33:42.515Z</time>
      </trkpt>
      <trkpt lat="49.372162" lon="10.176872">
        <ele>368.405142</ele>
        <time>2026-04-26T14:33:42.958Z</time>
      </trkpt>
      <trkpt lat="49.372170" lon="10.176836">
        <ele>368.136449</ele>
        <time>2026-04-26T14:33:43.285Z</time>
      </trkpt>
      <trkpt lat="49.372265" lon="10.176718">
        <ele>366.905372</ele>
        <time>2026-04-26T14:33:45.012Z</time>
      </trkpt>
      <trkpt lat="49.372303" lon="10.176669">
        <ele>366.761182</ele>
        <time>2026-04-26T14:33:45.715Z</time>
      </trkpt>
      <trkpt lat="49.373200" lon="10.175885">
        <ele>363.761950</ele>
        <time>2026-04-26T14:34:01.625Z</time>
      </trkpt>
      <trkpt lat="49.373255" lon="10.175835">
        <ele>363.576219</ele>
        <time>2026-04-26T14:34:02.920Z</time>
      </trkpt>
      <trkpt lat="49.373297" lon="10.175794">
        <ele>363.431599</ele>
        <time>2026-04-26T14:34:03.956Z</time>
      </trkpt>
      <trkpt lat="49.373519" lon="10.175515">
        <ele>362.598004</ele>
        <time>2026-04-26T14:34:10.502Z</time>
      </trkpt>
      <trkpt lat="49.373753" lon="10.174804">
        <ele>363.222692</ele>
        <time>2026-04-26T14:34:23.972Z</time>
      </trkpt>
      <trkpt lat="49.373799" lon="10.174485">
        <ele>364.721953</ele>
        <time>2026-04-26T14:34:30.482Z</time>
      </trkpt>
      <trkpt lat="49.373776" lon="10.174292">
        <ele>365.622281</ele>
        <time>2026-04-26T14:34:34.588Z</time>
      </trkpt>
      <trkpt lat="49.373501" lon="10.173311">
        <ele>370.523265</ele>
        <time>2026-04-26T14:34:56.510Z</time>
      </trkpt>
      <trkpt lat="49.373340" lon="10.172531">
        <ele>374.278009</ele>
        <time>2026-04-26T14:35:13.856Z</time>
      </trkpt>
      <trkpt lat="49.373285" lon="10.172176">
        <ele>376.186997</ele>
        <time>2026-04-26T14:35:21.631Z</time>
      </trkpt>
      <trkpt lat="49.373303" lon="10.171941">
        <ele>377.435621</ele>
        <time>2026-04-26T14:35:26.665Z</time>
      </trkpt>
      <trkpt lat="49.373186" lon="10.171611">
        <ele>379.418419</ele>
        <time>2026-04-26T14:35:34.691Z</time>
      </trkpt>
      <trkpt lat="49.373109" lon="10.170927">
        <ele>383.081381</ele>
        <time>2026-04-26T14:35:49.439Z</time>
      </trkpt>
      <trkpt lat="49.373282" lon="10.169526">
        <ele>390.403008</ele>
        <time>2026-04-26T14:36:19.184Z</time>
      </trkpt>
      <trkpt lat="49.373460" lon="10.168663">
        <ele>394.588625</ele>
        <time>2026-04-26T14:36:36.485Z</time>
      </trkpt>
      <trkpt lat="49.373492" lon="10.168299">
        <ele>396.286899</ele>
        <time>2026-04-26T14:36:43.483Z</time>
      </trkpt>
      <trkpt lat="49.373418" lon="10.167617">
        <ele>399.483704</ele>
        <time>2026-04-26T14:36:56.669Z</time>
      </trkpt>
      <trkpt lat="49.373090" lon="10.166469">
        <ele>405.008324</ele>
        <time>2026-04-26T14:37:22.262Z</time>
      </trkpt>
      <trkpt lat="49.373035" lon="10.166140">
        <ele>406.458324</ele>
        <time>2026-04-26T14:37:29.479Z</time>
      </trkpt>
      <trkpt lat="49.373043" lon="10.165746">
        <ele>408.141067</ele>
        <time>2026-04-26T14:37:37.812Z</time>
      </trkpt>
      <trkpt lat="49.373049" lon="10.165663">
        <ele>408.497558</ele>
        <time>2026-04-26T14:37:39.482Z</time>
      </trkpt>
      <trkpt lat="49.373094" lon="10.165068">
        <ele>411.054597</ele>
        <time>2026-04-26T14:37:51.096Z</time>
      </trkpt>
      <trkpt lat="49.373106" lon="10.164957">
        <ele>411.534925</ele>
        <time>2026-04-26T14:37:53.153Z</time>
      </trkpt>
      <trkpt lat="49.373133" lon="10.164589">
        <ele>413.115800</ele>
        <time>2026-04-26T14:37:59.746Z</time>
      </trkpt>
      <trkpt lat="49.373166" lon="10.164277">
        <ele>413.951638</ele>
        <time>2026-04-26T14:38:05.107Z</time>
      </trkpt>
      <trkpt lat="49.373481" lon="10.162496">
        <ele>417.505768</ele>
        <time>2026-04-26T14:38:34.138Z</time>
      </trkpt>
      <trkpt lat="49.373676" lon="10.161543">
        <ele>419.708185</ele>
        <time>2026-04-26T14:38:50.095Z</time>
      </trkpt>
      <trkpt lat="49.373787" lon="10.160745">
        <ele>422.034328</ele>
        <time>2026-04-26T14:39:04.131Z</time>
      </trkpt>
      <trkpt lat="49.373813" lon="10.159959">
        <ele>424.277822</ele>
        <time>2026-04-26T14:39:18.182Z</time>
      </trkpt>
      <trkpt lat="49.373760" lon="10.158180">
        <ele>429.146866</ele>
        <time>2026-04-26T14:39:49.649Z</time>
      </trkpt>
      <trkpt lat="49.373710" lon="10.157418">
        <ele>431.157803</ele>
        <time>2026-04-26T14:40:02.658Z</time>
      </trkpt>
      <trkpt lat="49.373615" lon="10.156793">
        <ele>432.843007</ele>
        <time>2026-04-26T14:40:13.360Z</time>
      </trkpt>
      <trkpt lat="49.372479" lon="10.151135">
        <ele>443.659243</ele>
        <time>2026-04-26T14:41:48.214Z</time>
      </trkpt>
      <trkpt lat="49.372462" lon="10.151047">
        <ele>443.787421</ele>
        <time>2026-04-26T14:41:49.649Z</time>
      </trkpt>
      <trkpt lat="49.371724" lon="10.147112">
        <ele>448.720250</ele>
        <time>2026-04-26T14:42:53.141Z</time>
      </trkpt>
      <trkpt lat="49.371615" lon="10.146432">
        <ele>449.567566</ele>
        <time>2026-04-26T14:43:04.045Z</time>
      </trkpt>
      <trkpt lat="49.371495" lon="10.145265">
        <ele>451.076451</ele>
        <time>2026-04-26T14:43:22.525Z</time>
      </trkpt>
      <trkpt lat="49.371414" lon="10.143918">
        <ele>452.924474</ele>
        <time>2026-04-26T14:43:43.837Z</time>
      </trkpt>
      <trkpt lat="49.371301" lon="10.143153">
        <ele>453.996127</ele>
        <time>2026-04-26T14:43:56.179Z</time>
      </trkpt>
      <trkpt lat="49.371114" lon="10.142102">
        <ele>454.431844</ele>
        <time>2026-04-26T14:44:13.138Z</time>
      </trkpt>
      <trkpt lat="49.371011" lon="10.141366">
        <ele>454.645555</ele>
        <time>2026-04-26T14:44:24.397Z</time>
      </trkpt>
      <trkpt lat="49.370982" lon="10.140787">
        <ele>454.810412</ele>
        <time>2026-04-26T14:44:32.521Z</time>
      </trkpt>
      <trkpt lat="49.371029" lon="10.138334">
        <ele>452.418696</ele>
        <time>2026-04-26T14:45:00.736Z</time>
      </trkpt>
      <trkpt lat="49.371071" lon="10.136999">
        <ele>450.695934</ele>
        <time>2026-04-26T14:45:15.697Z</time>
      </trkpt>
      <trkpt lat="49.371577" lon="10.134657">
        <ele>447.883071</ele>
        <time>2026-04-26T14:45:43.837Z</time>
      </trkpt>
      <trkpt lat="49.371694" lon="10.134306">
        <ele>448.009581</ele>
        <time>2026-04-26T14:45:48.748Z</time>
      </trkpt>
      <trkpt lat="49.371840" lon="10.133982">
        <ele>448.135995</ele>
        <time>2026-04-26T14:45:53.918Z</time>
      </trkpt>
      <trkpt lat="49.372376" lon="10.133085">
        <ele>448.526591</ele>
        <time>2026-04-26T14:46:11.634Z</time>
      </trkpt>
      <trkpt lat="49.373298" lon="10.131701">
        <ele>451.487559</ele>
        <time>2026-04-26T14:46:43.027Z</time>
      </trkpt>
      <trkpt lat="49.373525" lon="10.131189">
        <ele>452.645865</ele>
        <time>2026-04-26T14:46:53.065Z</time>
      </trkpt>
      <trkpt lat="49.373571" lon="10.130929">
        <ele>453.149686</ele>
        <time>2026-04-26T14:46:57.386Z</time>
      </trkpt>
      <trkpt lat="49.373600" lon="10.130746">
        <ele>453.501880</ele>
        <time>2026-04-26T14:47:00.381Z</time>
      </trkpt>
      <trkpt lat="49.373599" lon="10.130534">
        <ele>453.850074</ele>
        <time>2026-04-26T14:47:03.728Z</time>
      </trkpt>
      <trkpt lat="49.373555" lon="10.130173">
        <ele>453.906839</ele>
        <time>2026-04-26T14:47:09.418Z</time>
      </trkpt>
      <trkpt lat="49.373319" lon="10.128901">
        <ele>454.111265</ele>
        <time>2026-04-26T14:47:28.184Z</time>
      </trkpt>
      <trkpt lat="49.372154" lon="10.129112">
        <ele>454.437284</ele>
        <time>2026-04-26T14:47:49.611Z</time>
      </trkpt>
      <trkpt lat="49.371852" lon="10.129133">
        <ele>454.538205</ele>
        <time>2026-04-26T14:47:55.652Z</time>
      </trkpt>
      <trkpt lat="49.371492" lon="10.128929">
        <ele>454.666305</ele>
        <time>2026-04-26T14:48:04.025Z</time>
      </trkpt>
      <trkpt lat="49.370855" lon="10.128407">
        <ele>455.150557</ele>
        <time>2026-04-26T14:48:20.945Z</time>
      </trkpt>
      <trkpt lat="49.369565" lon="10.127192">
        <ele>459.247051</ele>
        <time>2026-04-26T14:48:57.484Z</time>
      </trkpt>
      <trkpt lat="49.368491" lon="10.126815">
        <ele>461.709886</ele>
        <time>2026-04-26T14:49:23.828Z</time>
      </trkpt>
      <trkpt lat="49.368146" lon="10.123465">
        <ele>465.614023</ele>
        <time>2026-04-26T14:50:14.735Z</time>
      </trkpt>
      <trkpt lat="49.367997" lon="10.122248">
        <ele>466.785860</ele>
        <time>2026-04-26T14:50:33.134Z</time>
      </trkpt>
      <trkpt lat="49.367843" lon="10.120212">
        <ele>468.600832</ele>
        <time>2026-04-26T14:51:03.602Z</time>
      </trkpt>
      <trkpt lat="49.367710" lon="10.118526">
        <ele>469.715413</ele>
        <time>2026-04-26T14:51:28.863Z</time>
      </trkpt>
      <trkpt lat="49.367648" lon="10.117330">
        <ele>470.467029</ele>
        <time>2026-04-26T14:51:46.288Z</time>
      </trkpt>
      <trkpt lat="49.367642" lon="10.117272">
        <ele>470.503819</ele>
        <time>2026-04-26T14:51:47.124Z</time>
      </trkpt>
      <trkpt lat="49.367640" lon="10.117238">
        <ele>470.501771</ele>
        <time>2026-04-26T14:51:47.598Z</time>
      </trkpt>
      <trkpt lat="49.366849" lon="10.109240">
        <ele>469.921990</ele>
        <time>2026-04-26T14:53:36.882Z</time>
      </trkpt>
      <trkpt lat="49.366804" lon="10.108903">
        <ele>470.028398</ele>
        <time>2026-04-26T14:53:41.665Z</time>
      </trkpt>
      <trkpt lat="49.366554" lon="10.107685">
        <ele>470.852672</ele>
        <time>2026-04-26T14:53:59.880Z</time>
      </trkpt>
      <trkpt lat="49.366484" lon="10.107448">
        <ele>471.020640</ele>
        <time>2026-04-26T14:54:03.761Z</time>
      </trkpt>
      <trkpt lat="49.366400" lon="10.107280">
        <ele>471.157350</ele>
        <time>2026-04-26T14:54:06.941Z</time>
      </trkpt>
      <trkpt lat="49.366262" lon="10.107003">
        <ele>471.382457</ele>
        <time>2026-04-26T14:54:12.187Z</time>
      </trkpt>
      <trkpt lat="49.366843" lon="10.106345">
        <ele>471.939912</ele>
        <time>2026-04-26T14:54:29.069Z</time>
      </trkpt>
      <trkpt lat="49.367415" lon="10.105608">
        <ele>472.390251</ele>
        <time>2026-04-26T14:54:46.050Z</time>
      </trkpt>
      <trkpt lat="49.367455" lon="10.105557">
        <ele>472.421608</ele>
        <time>2026-04-26T14:54:47.155Z</time>
      </trkpt>
      <trkpt lat="49.366845" lon="10.103911">
        <ele>472.211309</ele>
        <time>2026-04-26T14:55:10.724Z</time>
      </trkpt>
      <trkpt lat="49.366036" lon="10.101661">
        <ele>471.316643</ele>
        <time>2026-04-26T14:55:43.708Z</time>
      </trkpt>
      <trkpt lat="49.365829" lon="10.101108">
        <ele>471.422386</ele>
        <time>2026-04-26T14:55:52.792Z</time>
      </trkpt>
      <trkpt lat="49.363616" lon="10.096049">
        <ele>473.995484</ele>
        <time>2026-04-26T14:57:21.483Z</time>
      </trkpt>
      <trkpt lat="49.363456" lon="10.095584">
        <ele>474.208839</ele>
        <time>2026-04-26T14:57:28.971Z</time>
      </trkpt>
      <trkpt lat="49.363191" lon="10.094465">
        <ele>473.726121</ele>
        <time>2026-04-26T14:57:45.175Z</time>
      </trkpt>
      <trkpt lat="49.362962" lon="10.093333">
        <ele>473.008553</ele>
        <time>2026-04-26T14:58:00.019Z</time>
      </trkpt>
      <trkpt lat="49.362793" lon="10.091996">
        <ele>471.587710</ele>
        <time>2026-04-26T14:58:15.648Z</time>
      </trkpt>
      <trkpt lat="49.362729" lon="10.091337">
        <ele>470.647934</ele>
        <time>2026-04-26T14:58:22.916Z</time>
      </trkpt>
      <trkpt lat="49.362726" lon="10.091095">
        <ele>470.306539</ele>
        <time>2026-04-26T14:58:25.596Z</time>
      </trkpt>
      <trkpt lat="49.362663" lon="10.090834">
        <ele>469.913935</ele>
        <time>2026-04-26T14:58:28.728Z</time>
      </trkpt>
      <trkpt lat="49.362552" lon="10.090598">
        <ele>469.503334</ele>
        <time>2026-04-26T14:58:32.192Z</time>
      </trkpt>
      <trkpt lat="49.362395" lon="10.090127">
        <ele>468.757042</ele>
        <time>2026-04-26T14:58:38.530Z</time>
      </trkpt>
      <trkpt lat="49.362288" lon="10.090010">
        <ele>468.545383</ele>
        <time>2026-04-26T14:58:40.959Z</time>
      </trkpt>
      <trkpt lat="49.361925" lon="10.089839">
        <ele>467.949423</ele>
        <time>2026-04-26T14:58:48.008Z</time>
      </trkpt>
      <trkpt lat="49.361770" lon="10.089690">
        <ele>467.662396</ele>
        <time>2026-04-26T14:58:51.466Z</time>
      </trkpt>
      <trkpt lat="49.361418" lon="10.089257">
        <ele>466.954474</ele>
        <time>2026-04-26T14:59:00.179Z</time>
      </trkpt>
      <trkpt lat="49.360918" lon="10.088947">
        <ele>466.108130</ele>
        <time>2026-04-26T14:59:10.515Z</time>
      </trkpt>
      <trkpt lat="49.360165" lon="10.088676">
        <ele>466.297011</ele>
        <time>2026-04-26T14:59:26.076Z</time>
      </trkpt>
      <trkpt lat="49.358920" lon="10.088286">
        <ele>467.330950</ele>
        <time>2026-04-26T14:59:55.961Z</time>
      </trkpt>
      <trkpt lat="49.358572" lon="10.088129">
        <ele>468.393810</ele>
        <time>2026-04-26T15:00:05.104Z</time>
      </trkpt>
      <trkpt lat="49.358308" lon="10.088089">
        <ele>469.171168</ele>
        <time>2026-04-26T15:00:11.810Z</time>
      </trkpt>
      <trkpt lat="49.357743" lon="10.088194">
        <ele>470.838876</ele>
        <time>2026-04-26T15:00:26.347Z</time>
      </trkpt>
      <trkpt lat="49.356125" lon="10.088824">
        <ele>475.134111</ele>
        <time>2026-04-26T15:01:07.348Z</time>
      </trkpt>
      <trkpt lat="49.355726" lon="10.088881">
        <ele>476.107530</ele>
        <time>2026-04-26T15:01:16.948Z</time>
      </trkpt>
      <trkpt lat="49.354180" lon="10.088989">
        <ele>478.710743</ele>
        <time>2026-04-26T15:01:53.826Z</time>
      </trkpt>
      <trkpt lat="49.353420" lon="10.089168">
        <ele>479.230769</ele>
        <time>2026-04-26T15:02:11.857Z</time>
      </trkpt>
      <trkpt lat="49.353011" lon="10.089378">
        <ele>478.952733</ele>
        <time>2026-04-26T15:02:21.505Z</time>
      </trkpt>
      <trkpt lat="49.352876" lon="10.089403">
        <ele>478.865068</ele>
        <time>2026-04-26T15:02:24.425Z</time>
      </trkpt>
      <trkpt lat="49.352562" lon="10.089687">
        <ele>478.630113</ele>
        <time>2026-04-26T15:02:31.655Z</time>
      </trkpt>
      <trkpt lat="49.351043" lon="10.090467">
        <ele>475.107460</ele>
        <time>2026-04-26T15:02:58.698Z</time>
      </trkpt>
      <trkpt lat="49.350263" lon="10.090900">
        <ele>472.710042</ele>
        <time>2026-04-26T15:03:11.743Z</time>
      </trkpt>
      <trkpt lat="49.349989" lon="10.091129">
        <ele>472.244673</ele>
        <time>2026-04-26T15:03:16.819Z</time>
      </trkpt>
      <trkpt lat="49.349773" lon="10.091415">
        <ele>471.819172</ele>
        <time>2026-04-26T15:03:21.545Z</time>
      </trkpt>
      <trkpt lat="49.349619" lon="10.091748">
        <ele>471.422336</ele>
        <time>2026-04-26T15:03:26.134Z</time>
      </trkpt>
      <trkpt lat="49.349314" lon="10.092529">
        <ele>470.537484</ele>
        <time>2026-04-26T15:03:38.121Z</time>
      </trkpt>
      <trkpt lat="49.349279" lon="10.092972">
        <ele>470.159750</ele>
        <time>2026-04-26T15:03:44.850Z</time>
      </trkpt>
      <trkpt lat="49.349230" lon="10.093008">
        <ele>470.208056</ele>
        <time>2026-04-26T15:03:46.132Z</time>
      </trkpt>
      <trkpt lat="49.348607" lon="10.093039">
        <ele>470.762333</ele>
        <time>2026-04-26T15:04:00.864Z</time>
      </trkpt>
      <trkpt lat="49.347087" lon="10.093065">
        <ele>471.709677</ele>
        <time>2026-04-26T15:04:36.015Z</time>
      </trkpt>
      <trkpt lat="49.346561" lon="10.093289">
        <ele>471.672745</ele>
        <time>2026-04-26T15:04:47.337Z</time>
      </trkpt>
      <trkpt lat="49.346415" lon="10.093476">
        <ele>471.659880</ele>
        <time>2026-04-26T15:04:51.296Z</time>
      </trkpt>
      <trkpt lat="49.345972" lon="10.094012">
        <ele>471.621717</ele>
        <time>2026-04-26T15:05:03.085Z</time>
      </trkpt>
      <trkpt lat="49.344900" lon="10.095310">
        <ele>471.089224</ele>
        <time>2026-04-26T15:05:33.984Z</time>
      </trkpt>
      <trkpt lat="49.344683" lon="10.095497">
        <ele>470.987445</ele>
        <time>2026-04-26T15:05:39.250Z</time>
      </trkpt>
      <trkpt lat="49.341895" lon="10.097108">
        <ele>464.208090</ele>
        <time>2026-04-26T15:06:31.505Z</time>
      </trkpt>
      <trkpt lat="49.338525" lon="10.098635">
        <ele>458.324071</ele>
        <time>2026-04-26T15:07:38.215Z</time>
      </trkpt>
      <trkpt lat="49.337878" lon="10.099393">
        <ele>457.317920</ele>
        <time>2026-04-26T15:07:55.322Z</time>
      </trkpt>
      <trkpt lat="49.337681" lon="10.099526">
        <ele>456.903970</ele>
        <time>2026-04-26T15:07:59.725Z</time>
      </trkpt>
      <trkpt lat="49.337426" lon="10.099613">
        <ele>456.005245</ele>
        <time>2026-04-26T15:08:04.798Z</time>
      </trkpt>
      <trkpt lat="49.337202" lon="10.099611">
        <ele>455.234578</ele>
        <time>2026-04-26T15:08:08.857Z</time>
      </trkpt>
      <trkpt lat="49.336905" lon="10.099666">
        <ele>454.205361</ele>
        <time>2026-04-26T15:08:13.970Z</time>
      </trkpt>
      <trkpt lat="49.336650" lon="10.099774">
        <ele>453.295258</ele>
        <time>2026-04-26T15:08:18.306Z</time>
      </trkpt>
      <trkpt lat="49.336467" lon="10.099865">
        <ele>452.633434</ele>
        <time>2026-04-26T15:08:21.382Z</time>
      </trkpt>
      <trkpt lat="49.335923" lon="10.100225">
        <ele>450.549267</ele>
        <time>2026-04-26T15:08:30.710Z</time>
      </trkpt>
      <trkpt lat="49.335167" lon="10.100072">
        <ele>447.582587</ele>
        <time>2026-04-26T15:08:42.800Z</time>
      </trkpt>
      <trkpt lat="49.335102" lon="10.100056">
        <ele>447.326472</ele>
        <time>2026-04-26T15:08:43.884Z</time>
      </trkpt>
      <trkpt lat="49.334847" lon="10.099993">
        <ele>446.321622</ele>
        <time>2026-04-26T15:08:48.178Z</time>
      </trkpt>
      <trkpt lat="49.334296" lon="10.099833">
        <ele>444.139919</ele>
        <time>2026-04-26T15:08:57.905Z</time>
      </trkpt>
      <trkpt lat="49.332352" lon="10.099285">
        <ele>440.853761</ele>
        <time>2026-04-26T15:09:35.800Z</time>
      </trkpt>
      <trkpt lat="49.332124" lon="10.099208">
        <ele>440.575531</ele>
        <time>2026-04-26T15:09:40.570Z</time>
      </trkpt>
      <trkpt lat="49.331930" lon="10.099095">
        <ele>440.328227</ele>
        <time>2026-04-26T15:09:44.820Z</time>
      </trkpt>
      <trkpt lat="49.331876" lon="10.099234">
        <ele>440.202544</ele>
        <time>2026-04-26T15:09:46.985Z</time>
      </trkpt>
      <trkpt lat="49.330011" lon="10.102471">
        <ele>436.837455</ele>
        <time>2026-04-26T15:10:42.704Z</time>
      </trkpt>
      <trkpt lat="49.329529" lon="10.101987">
        <ele>436.720600</ele>
        <time>2026-04-26T15:10:54.521Z</time>
      </trkpt>
      <trkpt lat="49.329276" lon="10.101638">
        <ele>436.728146</ele>
        <time>2026-04-26T15:11:01.796Z</time>
      </trkpt>
      <trkpt lat="49.328961" lon="10.101310">
        <ele>436.736589</ele>
        <time>2026-04-26T15:11:10.317Z</time>
      </trkpt>
      <trkpt lat="49.328809" lon="10.101234">
        <ele>436.740135</ele>
        <time>2026-04-26T15:11:13.992Z</time>
      </trkpt>
      <trkpt lat="49.328672" lon="10.101223">
        <ele>436.743178</ele>
        <time>2026-04-26T15:11:17.157Z</time>
      </trkpt>
      <trkpt lat="49.328381" lon="10.101263">
        <ele>436.749658</ele>
        <time>2026-04-26T15:11:23.960Z</time>
      </trkpt>
      <trkpt lat="49.328182" lon="10.101165">
        <ele>436.811727</ele>
        <time>2026-04-26T15:11:28.786Z</time>
      </trkpt>
      <trkpt lat="49.328020" lon="10.100982">
        <ele>436.876935</ele>
        <time>2026-04-26T15:11:33.415Z</time>
      </trkpt>
      <trkpt lat="49.327877" lon="10.100748">
        <ele>436.944702</ele>
        <time>2026-04-26T15:11:38.213Z</time>
      </trkpt>
      <trkpt lat="49.327753" lon="10.100499">
        <ele>437.010904</ele>
        <time>2026-04-26T15:11:42.865Z</time>
      </trkpt>
      <trkpt lat="49.327700" lon="10.100302">
        <ele>437.055928</ele>
        <time>2026-04-26T15:11:46.014Z</time>
      </trkpt>
      <trkpt lat="49.327650" lon="10.100046">
        <ele>437.112386</ele>
        <time>2026-04-26T15:11:49.920Z</time>
      </trkpt>
      <trkpt lat="49.327513" lon="10.099618">
        <ele>437.213121</ele>
        <time>2026-04-26T15:11:56.773Z</time>
      </trkpt>
      <trkpt lat="49.326665" lon="10.097902">
        <ele>437.156413</ele>
        <time>2026-04-26T15:12:26.610Z</time>
      </trkpt>
      <trkpt lat="49.326448" lon="10.097533">
        <ele>437.101029</ele>
        <time>2026-04-26T15:12:33.704Z</time>
      </trkpt>
      <trkpt lat="49.325981" lon="10.096854">
        <ele>437.066497</ele>
        <time>2026-04-26T15:12:47.954Z</time>
      </trkpt>
      <trkpt lat="49.325611" lon="10.096330">
        <ele>437.168491</ele>
        <time>2026-04-26T15:12:59.264Z</time>
      </trkpt>
      <trkpt lat="49.324879" lon="10.095503">
        <ele>437.352627</ele>
        <time>2026-04-26T15:13:19.432Z</time>
      </trkpt>
      <trkpt lat="49.324786" lon="10.095358">
        <ele>437.379484</ele>
        <time>2026-04-26T15:13:22.389Z</time>
      </trkpt>
      <trkpt lat="49.324687" lon="10.095045">
        <ele>437.459952</ele>
        <time>2026-04-26T15:13:27.460Z</time>
      </trkpt>
      <trkpt lat="49.324519" lon="10.094315">
        <ele>437.661559</ele>
        <time>2026-04-26T15:13:38.843Z</time>
      </trkpt>
      <trkpt lat="49.324394" lon="10.094069">
        <ele>437.742789</ele>
        <time>2026-04-26T15:13:43.422Z</time>
      </trkpt>
      <trkpt lat="49.324263" lon="10.093940">
        <ele>437.804984</ele>
        <time>2026-04-26T15:13:46.927Z</time>
      </trkpt>
      <trkpt lat="49.324167" lon="10.093896">
        <ele>437.845016</ele>
        <time>2026-04-26T15:13:49.196Z</time>
      </trkpt>
      <trkpt lat="49.323718" lon="10.093843">
        <ele>438.024944</ele>
        <time>2026-04-26T15:13:59.383Z</time>
      </trkpt>
      <trkpt lat="49.323454" lon="10.093811">
        <ele>438.140947</ele>
        <time>2026-04-26T15:14:05.406Z</time>
      </trkpt>
      <trkpt lat="49.323290" lon="10.093752">
        <ele>438.239152</ele>
        <time>2026-04-26T15:14:09.257Z</time>
      </trkpt>
      <trkpt lat="49.322025" lon="10.092965">
        <ele>439.034972</ele>
        <time>2026-04-26T15:14:40.440Z</time>
      </trkpt>
      <trkpt lat="49.321841" lon="10.092854">
        <ele>439.150239</ele>
        <time>2026-04-26T15:14:44.946Z</time>
      </trkpt>
      <trkpt lat="49.321640" lon="10.092830">
        <ele>439.279894</ele>
        <time>2026-04-26T15:14:49.574Z</time>
      </trkpt>
      <trkpt lat="49.319621" lon="10.093444">
        <ele>440.587722</ele>
        <time>2026-04-26T15:15:36.706Z</time>
      </trkpt>
      <trkpt lat="49.319213" lon="10.093606">
        <ele>440.838197</ele>
        <time>2026-04-26T15:15:46.318Z</time>
      </trkpt>
      <trkpt lat="49.318038" lon="10.094488">
        <ele>441.571740</ele>
        <time>2026-04-26T15:16:16.061Z</time>
      </trkpt>
      <trkpt lat="49.317855" lon="10.094703">
        <ele>441.682123</ele>
        <time>2026-04-26T15:16:21.293Z</time>
      </trkpt>
      <trkpt lat="49.317230" lon="10.095610">
        <ele>442.094123</ele>
        <time>2026-04-26T15:16:40.869Z</time>
      </trkpt>
      <trkpt lat="49.316773" lon="10.096221">
        <ele>442.365389</ele>
        <time>2026-04-26T15:16:54.612Z</time>
      </trkpt>
      <trkpt lat="49.315441" lon="10.098330">
        <ele>443.280571</ele>
        <time>2026-04-26T15:17:37.752Z</time>
      </trkpt>
      <trkpt lat="49.315194" lon="10.098743">
        <ele>443.550319</ele>
        <time>2026-04-26T15:17:46.170Z</time>
      </trkpt>
      <trkpt lat="49.314963" lon="10.099192">
        <ele>443.825608</ele>
        <time>2026-04-26T15:17:54.811Z</time>
      </trkpt>
      <trkpt lat="49.314507" lon="10.100255">
        <ele>444.388065</ele>
        <time>2026-04-26T15:18:13.997Z</time>
      </trkpt>
      <trkpt lat="49.314366" lon="10.100585">
        <ele>444.499312</ele>
        <time>2026-04-26T15:18:19.903Z</time>
      </trkpt>
      <trkpt lat="49.313042" lon="10.104350">
        <ele>445.630999</ele>
        <time>2026-04-26T15:19:22.403Z</time>
      </trkpt>
      <trkpt lat="49.312950" lon="10.104522">
        <ele>445.686075</ele>
        <time>2026-04-26T15:19:25.727Z</time>
      </trkpt>
      <trkpt lat="49.312878" lon="10.104590">
        <ele>445.718181</ele>
        <time>2026-04-26T15:19:27.681Z</time>
      </trkpt>
      <trkpt lat="49.311945" lon="10.104525">
        <ele>446.137524</ele>
        <time>2026-04-26T15:19:49.103Z</time>
      </trkpt>
      <trkpt lat="49.311705" lon="10.104541">
        <ele>446.248779</ele>
        <time>2026-04-26T15:19:54.608Z</time>
      </trkpt>
      <trkpt lat="49.309865" lon="10.104798">
        <ele>447.662587</ele>
        <time>2026-04-26T15:20:35.952Z</time>
      </trkpt>
      <trkpt lat="49.309553" lon="10.104802">
        <ele>447.970610</ele>
        <time>2026-04-26T15:20:43.233Z</time>
      </trkpt>
      <trkpt lat="49.309287" lon="10.104754">
        <ele>448.235021</ele>
        <time>2026-04-26T15:20:49.640Z</time>
      </trkpt>
      <trkpt lat="49.308989" lon="10.104608">
        <ele>448.712023</ele>
        <time>2026-04-26T15:20:57.261Z</time>
      </trkpt>
      <trkpt lat="49.308731" lon="10.104437">
        <ele>449.286772</ele>
        <time>2026-04-26T15:21:04.268Z</time>
      </trkpt>
      <trkpt lat="49.308253" lon="10.104021">
        <ele>450.410650</ele>
        <time>2026-04-26T15:21:17.928Z</time>
      </trkpt>
      <trkpt lat="49.308007" lon="10.103630">
        <ele>451.135105</ele>
        <time>2026-04-26T15:21:26.533Z</time>
      </trkpt>
      <trkpt lat="49.307953" lon="10.103544">
        <ele>451.294296</ele>
        <time>2026-04-26T15:21:28.417Z</time>
      </trkpt>
      <trkpt lat="49.307843" lon="10.103600">
        <ele>451.531308</ele>
        <time>2026-04-26T15:21:31.084Z</time>
      </trkpt>
      <trkpt lat="49.307475" lon="10.103600">
        <ele>451.963090</ele>
        <time>2026-04-26T15:21:39.277Z</time>
      </trkpt>
      <trkpt lat="49.307363" lon="10.103675">
        <ele>451.846670</ele>
        <time>2026-04-26T15:21:41.864Z</time>
      </trkpt>
      <trkpt lat="49.307335" lon="10.103694">
        <ele>451.817502</ele>
        <time>2026-04-26T15:21:42.507Z</time>
      </trkpt>
      <trkpt lat="49.306959" lon="10.104170">
        <ele>451.353055</ele>
        <time>2026-04-26T15:21:52.009Z</time>
      </trkpt>
      <trkpt lat="49.306886" lon="10.104307">
        <ele>451.243159</ele>
        <time>2026-04-26T15:21:54.056Z</time>
      </trkpt>
      <trkpt lat="49.306779" lon="10.104717">
        <ele>450.968856</ele>
        <time>2026-04-26T15:21:59.134Z</time>
      </trkpt>
      <trkpt lat="49.306643" lon="10.105350">
        <ele>450.554887</ele>
        <time>2026-04-26T15:22:06.924Z</time>
      </trkpt>
      <trkpt lat="49.306339" lon="10.105934">
        <ele>450.195494</ele>
        <time>2026-04-26T15:22:15.926Z</time>
      </trkpt>
      <trkpt lat="49.305922" lon="10.106659">
        <ele>449.836181</ele>
        <time>2026-04-26T15:22:28.311Z</time>
      </trkpt>
      <trkpt lat="49.305707" lon="10.106930">
        <ele>449.677549</ele>
        <time>2026-04-26T15:22:33.952Z</time>
      </trkpt>
      <trkpt lat="49.305349" lon="10.107294">
        <ele>449.432712</ele>
        <time>2026-04-26T15:22:42.986Z</time>
      </trkpt>
      <trkpt lat="49.304094" lon="10.108194">
        <ele>449.827997</ele>
        <time>2026-04-26T15:23:13.100Z</time>
      </trkpt>
      <trkpt lat="49.303921" lon="10.108289">
        <ele>449.904897</ele>
        <time>2026-04-26T15:23:17.158Z</time>
      </trkpt>
      <trkpt lat="49.303429" lon="10.108444">
        <ele>450.150341</ele>
        <time>2026-04-26T15:23:28.232Z</time>
      </trkpt>
      <trkpt lat="49.302603" lon="10.108618">
        <ele>450.840327</ele>
        <time>2026-04-26T15:23:46.683Z</time>
      </trkpt>
      <trkpt lat="49.302101" lon="10.108745">
        <ele>451.261378</ele>
        <time>2026-04-26T15:23:58.072Z</time>
      </trkpt>
      <trkpt lat="49.301556" lon="10.108946">
        <ele>451.815641</ele>
        <time>2026-04-26T15:24:10.740Z</time>
      </trkpt>
      <trkpt lat="49.300691" lon="10.109393">
        <ele>453.003865</ele>
        <time>2026-04-26T15:24:31.642Z</time>
      </trkpt>
      <trkpt lat="49.300077" lon="10.109811">
        <ele>453.878359</ele>
        <time>2026-04-26T15:24:47.033Z</time>
      </trkpt>
      <trkpt lat="49.299147" lon="10.110556">
        <ele>454.461548</ele>
        <time>2026-04-26T15:25:10.592Z</time>
      </trkpt>
      <trkpt lat="49.298612" lon="10.111062">
        <ele>454.800194</ele>
        <time>2026-04-26T15:25:23.966Z</time>
      </trkpt>
      <trkpt lat="49.298167" lon="10.111580">
        <ele>454.478573</ele>
        <time>2026-04-26T15:25:35.234Z</time>
      </trkpt>
      <trkpt lat="49.297901" lon="10.111807">
        <ele>454.185206</ele>
        <time>2026-04-26T15:25:41.179Z</time>
      </trkpt>
      <trkpt lat="49.297665" lon="10.111983">
        <ele>453.932303</ele>
        <time>2026-04-26T15:25:46.180Z</time>
      </trkpt>
      <trkpt lat="49.296856" lon="10.112399">
        <ele>453.093893</ele>
        <time>2026-04-26T15:26:02.198Z</time>
      </trkpt>
      <trkpt lat="49.296591" lon="10.112570">
        <ele>452.687741</ele>
        <time>2026-04-26T15:26:07.650Z</time>
      </trkpt>
      <trkpt lat="49.296164" lon="10.112997">
        <ele>451.967597</ele>
        <time>2026-04-26T15:26:17.270Z</time>
      </trkpt>
      <trkpt lat="49.295938" lon="10.113182">
        <ele>451.605691</ele>
        <time>2026-04-26T15:26:22.190Z</time>
      </trkpt>
      <trkpt lat="49.295169" lon="10.113497">
        <ele>450.418529</ele>
        <time>2026-04-26T15:26:37.202Z</time>
      </trkpt>
      <trkpt lat="49.295083" lon="10.113514">
        <ele>450.233277</ele>
        <time>2026-04-26T15:26:38.687Z</time>
      </trkpt>
      <trkpt lat="49.295095" lon="10.112800">
        <ele>449.238135</ele>
        <time>2026-04-26T15:26:46.432Z</time>
      </trkpt>
      <trkpt lat="49.294614" lon="10.112908">
        <ele>448.199558</ele>
        <time>2026-04-26T15:26:54.563Z</time>
      </trkpt>
      <trkpt lat="49.293950" lon="10.113151">
        <ele>446.764249</ele>
        <time>2026-04-26T15:27:06.430Z</time>
      </trkpt>
      <trkpt lat="49.293950" lon="10.112476">
        <ele>446.915703</ele>
        <time>2026-04-26T15:27:14.765Z</time>
      </trkpt>
      <trkpt lat="49.293937" lon="10.112301">
        <ele>446.955222</ele>
        <time>2026-04-26T15:27:17.170Z</time>
      </trkpt>
      <trkpt lat="49.293807" lon="10.109931">
        <ele>447.796080</ele>
        <time>2026-04-26T15:27:52.349Z</time>
      </trkpt>
      <trkpt lat="49.293449" lon="10.109563">
        <ele>448.362203</ele>
        <time>2026-04-26T15:28:02.341Z</time>
      </trkpt>
      <trkpt lat="49.293373" lon="10.109519">
        <ele>448.468907</ele>
        <time>2026-04-26T15:28:04.229Z</time>
      </trkpt>
      <trkpt lat="49.292085" lon="10.109244">
        <ele>449.277594</ele>
        <time>2026-04-26T15:28:33.939Z</time>
      </trkpt>
      <trkpt lat="49.291499" lon="10.109073">
        <ele>448.439800</ele>
        <time>2026-04-26T15:28:45.715Z</time>
      </trkpt>
      <trkpt lat="49.291318" lon="10.108945">
        <ele>448.159853</ele>
        <time>2026-04-26T15:28:49.270Z</time>
      </trkpt>
      <trkpt lat="49.290529" lon="10.108076">
        <ele>446.095688</ele>
        <time>2026-04-26T15:29:04.981Z</time>
      </trkpt>
      <trkpt lat="49.289977" lon="10.107476">
        <ele>443.564895</ele>
        <time>2026-04-26T15:29:15.500Z</time>
      </trkpt>
      <trkpt lat="49.289426" lon="10.106910">
        <ele>441.084250</ele>
        <time>2026-04-26T15:29:25.919Z</time>
      </trkpt>
      <trkpt lat="49.289069" lon="10.106505">
        <ele>439.773872</ele>
        <time>2026-04-26T15:29:33.108Z</time>
      </trkpt>
      <trkpt lat="49.287522" lon="10.104849">
        <ele>435.307392</ele>
        <time>2026-04-26T15:30:05.659Z</time>
      </trkpt>
      <trkpt lat="49.285030" lon="10.102179">
        <ele>430.133097</ele>
        <time>2026-04-26T15:31:00.752Z</time>
      </trkpt>
      <trkpt lat="49.283540" lon="10.100555">
        <ele>427.389851</ele>
        <time>2026-04-26T15:31:34.145Z</time>
      </trkpt>
      <trkpt lat="49.283318" lon="10.100345">
        <ele>427.061339</ele>
        <time>2026-04-26T15:31:39.074Z</time>
      </trkpt>
      <trkpt lat="49.282915" lon="10.099906">
        <ele>426.601797</ele>
        <time>2026-04-26T15:31:48.537Z</time>
      </trkpt>
      <trkpt lat="49.281306" lon="10.098183">
        <ele>425.398330</ele>
        <time>2026-04-26T15:32:27.358Z</time>
      </trkpt>
      <trkpt lat="49.281161" lon="10.097874">
        <ele>425.369089</ele>
        <time>2026-04-26T15:32:32.532Z</time>
      </trkpt>
      <trkpt lat="49.281048" lon="10.097465">
        <ele>425.334968</ele>
        <time>2026-04-26T15:32:38.685Z</time>
      </trkpt>
      <trkpt lat="49.280873" lon="10.094615">
        <ele>426.119210</ele>
        <time>2026-04-26T15:33:20.095Z</time>
      </trkpt>
      <trkpt lat="49.280795" lon="10.094237">
        <ele>426.278080</ele>
        <time>2026-04-26T15:33:25.744Z</time>
      </trkpt>
      <trkpt lat="49.280657" lon="10.094005">
        <ele>426.407602</ele>
        <time>2026-04-26T15:33:30.223Z</time>
      </trkpt>
      <trkpt lat="49.280507" lon="10.093874">
        <ele>426.531178</ele>
        <time>2026-04-26T15:33:33.999Z</time>
      </trkpt>
      <trkpt lat="49.280343" lon="10.093780">
        <ele>426.656509</ele>
        <time>2026-04-26T15:33:37.831Z</time>
      </trkpt>
      <trkpt lat="49.280288" lon="10.093742">
        <ele>426.699693</ele>
        <time>2026-04-26T15:33:39.134Z</time>
      </trkpt>
      <trkpt lat="49.280080" lon="10.093656">
        <ele>426.853904</ele>
        <time>2026-04-26T15:33:43.819Z</time>
      </trkpt>
      <trkpt lat="49.278962" lon="10.093431">
        <ele>427.661052</ele>
        <time>2026-04-26T15:34:08.658Z</time>
      </trkpt>
      <trkpt lat="49.278815" lon="10.093306">
        <ele>428.045390</ele>
        <time>2026-04-26T15:34:12.562Z</time>
      </trkpt>
      <trkpt lat="49.278688" lon="10.093091">
        <ele>428.498861</ele>
        <time>2026-04-26T15:34:16.960Z</time>
      </trkpt>
      <trkpt lat="49.278691" lon="10.092322">
        <ele>429.701203</ele>
        <time>2026-04-26T15:34:28.853Z</time>
      </trkpt>
      <trkpt lat="49.278692" lon="10.091611">
        <ele>430.812844</ele>
        <time>2026-04-26T15:34:40.131Z</time>
      </trkpt>
      <trkpt lat="49.278677" lon="10.090829">
        <ele>431.958961</ele>
        <time>2026-04-26T15:34:52.866Z</time>
      </trkpt>
      <trkpt lat="49.278629" lon="10.090040">
        <ele>431.507161</ele>
        <time>2026-04-26T15:35:04.918Z</time>
      </trkpt>
      <trkpt lat="49.278616" lon="10.089912">
        <ele>431.433302</ele>
        <time>2026-04-26T15:35:06.770Z</time>
      </trkpt>
      <trkpt lat="49.278549" lon="10.089302">
        <ele>431.080615</ele>
        <time>2026-04-26T15:35:14.791Z</time>
      </trkpt>
      <trkpt lat="49.278499" lon="10.089363">
        <ele>431.024766</ele>
        <time>2026-04-26T15:35:15.933Z</time>
      </trkpt>
      <trkpt lat="49.278338" lon="10.089493">
        <ele>430.865731</ele>
        <time>2026-04-26T15:35:19.072Z</time>
      </trkpt>
      <trkpt lat="49.277478" lon="10.090023">
        <ele>428.933598</ele>
        <time>2026-04-26T15:35:33.570Z</time>
      </trkpt>
      <trkpt lat="49.277197" lon="10.090241">
        <ele>427.780873</ele>
        <time>2026-04-26T15:35:38.294Z</time>
      </trkpt>
      <trkpt lat="49.277135" lon="10.090302">
        <ele>427.511220</ele>
        <time>2026-04-26T15:35:39.428Z</time>
      </trkpt>
      <trkpt lat="49.276870" lon="10.090597">
        <ele>426.312479</ele>
        <time>2026-04-26T15:35:44.552Z</time>
      </trkpt>
      <trkpt lat="49.276604" lon="10.090893">
        <ele>425.109372</ele>
        <time>2026-04-26T15:35:49.879Z</time>
      </trkpt>
      <trkpt lat="49.276573" lon="10.090927">
        <ele>424.969853</ele>
        <time>2026-04-26T15:35:50.520Z</time>
      </trkpt>
      <trkpt lat="49.276146" lon="10.091410">
        <ele>423.465840</ele>
        <time>2026-04-26T15:35:59.522Z</time>
      </trkpt>
      <trkpt lat="49.275184" lon="10.092516">
        <ele>421.485563</ele>
        <time>2026-04-26T15:36:21.303Z</time>
      </trkpt>
      <trkpt lat="49.274996" lon="10.092800">
        <ele>421.050886</ele>
        <time>2026-04-26T15:36:26.349Z</time>
      </trkpt>
      <trkpt lat="49.274832" lon="10.093165">
        <ele>420.992177</ele>
        <time>2026-04-26T15:36:31.966Z</time>
      </trkpt>
      <trkpt lat="49.274776" lon="10.093291">
        <ele>421.066009</ele>
        <time>2026-04-26T15:36:33.927Z</time>
      </trkpt>
      <trkpt lat="49.274571" lon="10.093837">
        <ele>421.371085</ele>
        <time>2026-04-26T15:36:42.358Z</time>
      </trkpt>
      <trkpt lat="49.274395" lon="10.094181">
        <ele>421.582793</ele>
        <time>2026-04-26T15:36:48.649Z</time>
      </trkpt>
      <trkpt lat="49.274236" lon="10.094425">
        <ele>421.749803</ele>
        <time>2026-04-26T15:36:53.779Z</time>
      </trkpt>
      <trkpt lat="49.273938" lon="10.094758">
        <ele>422.023546</ele>
        <time>2026-04-26T15:37:02.362Z</time>
      </trkpt>
      <trkpt lat="49.273671" lon="10.095066">
        <ele>422.373276</ele>
        <time>2026-04-26T15:37:10.286Z</time>
      </trkpt>
      <trkpt lat="49.273365" lon="10.095314">
        <ele>422.983103</ele>
        <time>2026-04-26T15:37:18.604Z</time>
      </trkpt>
      <trkpt lat="49.272572" lon="10.095864">
        <ele>424.516565</ele>
        <time>2026-04-26T15:37:39.234Z</time>
      </trkpt>
      <trkpt lat="49.272276" lon="10.096111">
        <ele>425.110328</ele>
        <time>2026-04-26T15:37:46.873Z</time>
      </trkpt>
      <trkpt lat="49.271173" lon="10.097724">
        <ele>424.832386</ele>
        <time>2026-04-26T15:38:17.795Z</time>
      </trkpt>
      <trkpt lat="49.270456" lon="10.098886">
        <ele>424.380980</ele>
        <time>2026-04-26T15:38:38.080Z</time>
      </trkpt>
      <trkpt lat="49.270131" lon="10.099514">
        <ele>424.138768</ele>
        <time>2026-04-26T15:38:48.683Z</time>
      </trkpt>
      <trkpt lat="49.269630" lon="10.100574">
        <ele>423.827533</ele>
        <time>2026-04-26T15:39:06.656Z</time>
      </trkpt>
      <trkpt lat="49.269367" lon="10.101063">
        <ele>423.808138</ele>
        <time>2026-04-26T15:39:15.505Z</time>
      </trkpt>
      <trkpt lat="49.269094" lon="10.101416">
        <ele>423.791384</ele>
        <time>2026-04-26T15:39:23.105Z</time>
      </trkpt>
      <trkpt lat="49.268692" lon="10.101925">
        <ele>423.766926</ele>
        <time>2026-04-26T15:39:33.979Z</time>
      </trkpt>
      <trkpt lat="49.268478" lon="10.102277">
        <ele>423.754893</ele>
        <time>2026-04-26T15:39:40.321Z</time>
      </trkpt>
      <trkpt lat="49.268248" lon="10.102989">
        <ele>423.871252</ele>
        <time>2026-04-26T15:39:51.077Z</time>
      </trkpt>
      <trkpt lat="49.268142" lon="10.103206">
        <ele>423.910953</ele>
        <time>2026-04-26T15:39:54.840Z</time>
      </trkpt>
      <trkpt lat="49.267956" lon="10.103480">
        <ele>423.968861</ele>
        <time>2026-04-26T15:40:00.407Z</time>
      </trkpt>
      <trkpt lat="49.267909" lon="10.103525">
        <ele>423.981300</ele>
        <time>2026-04-26T15:40:01.627Z</time>
      </trkpt>
      <trkpt lat="49.267835" lon="10.103600">
        <ele>424.001213</ele>
        <time>2026-04-26T15:40:03.558Z</time>
      </trkpt>
      <trkpt lat="49.267593" lon="10.103784">
        <ele>424.061849</ele>
        <time>2026-04-26T15:40:09.471Z</time>
      </trkpt>
      <trkpt lat="49.267391" lon="10.103854">
        <ele>424.108333</ele>
        <time>2026-04-26T15:40:14.025Z</time>
      </trkpt>
      <trkpt lat="49.266629" lon="10.103885">
        <ele>424.353733</ele>
        <time>2026-04-26T15:40:30.843Z</time>
      </trkpt>
      <trkpt lat="49.266407" lon="10.103960">
        <ele>424.435571</ele>
        <time>2026-04-26T15:40:35.754Z</time>
      </trkpt>
      <trkpt lat="49.265059" lon="10.104803">
        <ele>425.535337</ele>
        <time>2026-04-26T15:41:06.972Z</time>
      </trkpt>
      <trkpt lat="49.264913" lon="10.104795">
        <ele>425.782228</ele>
        <time>2026-04-26T15:41:10.234Z</time>
      </trkpt>
      <trkpt lat="49.264763" lon="10.104742">
        <ele>426.042373</ele>
        <time>2026-04-26T15:41:13.699Z</time>
      </trkpt>
      <trkpt lat="49.263967" lon="10.104253">
        <ele>427.491646</ele>
        <time>2026-04-26T15:41:33.651Z</time>
      </trkpt>
      <trkpt lat="49.263808" lon="10.104057">
        <ele>427.836499</ele>
        <time>2026-04-26T15:41:38.607Z</time>
      </trkpt>
      <trkpt lat="49.263708" lon="10.103833">
        <ele>428.805864</ele>
        <time>2026-04-26T15:41:42.947Z</time>
      </trkpt>
      <trkpt lat="49.262541" lon="10.104920">
        <ele>436.404496</ele>
        <time>2026-04-26T15:42:20.241Z</time>
      </trkpt>
      <trkpt lat="49.261717" lon="10.105732">
        <ele>444.373401</ele>
        <time>2026-04-26T15:42:52.742Z</time>
      </trkpt>
      <trkpt lat="49.261622" lon="10.105797">
        <ele>445.316286</ele>
        <time>2026-04-26T15:42:56.595Z</time>
      </trkpt>
      <trkpt lat="49.261064" lon="10.105922">
        <ele>450.427020</ele>
        <time>2026-04-26T15:43:17.501Z</time>
      </trkpt>
      <trkpt lat="49.260969" lon="10.105927">
        <ele>451.288483</ele>
        <time>2026-04-26T15:43:20.805Z</time>
      </trkpt>
      <trkpt lat="49.260761" lon="10.105857">
        <ele>453.218451</ele>
        <time>2026-04-26T15:43:28.181Z</time>
      </trkpt>
      <trkpt lat="49.260465" lon="10.105719">
        <ele>455.390237</ele>
        <time>2026-04-26T15:43:38.625Z</time>
      </trkpt>
      <trkpt lat="49.260325" lon="10.106122">
        <ele>457.177946</ele>
        <time>2026-04-26T15:43:48.132Z</time>
      </trkpt>
      <trkpt lat="49.260241" lon="10.106229">
        <ele>457.833366</ele>
        <time>2026-04-26T15:43:51.496Z</time>
      </trkpt>
      <trkpt lat="49.259870" lon="10.106413">
        <ele>460.173099</ele>
        <time>2026-04-26T15:44:02.974Z</time>
      </trkpt>
      <trkpt lat="49.259666" lon="10.106563">
        <ele>461.530754</ele>
        <time>2026-04-26T15:44:09.163Z</time>
      </trkpt>
      <trkpt lat="49.259500" lon="10.106733">
        <ele>462.728750</ele>
        <time>2026-04-26T15:44:14.170Z</time>
      </trkpt>
      <trkpt lat="49.259393" lon="10.106818">
        <ele>463.451912</ele>
        <time>2026-04-26T15:44:17.164Z</time>
      </trkpt>
      <trkpt lat="49.258885" lon="10.106723">
        <ele>465.443963</ele>
        <time>2026-04-26T15:44:29.587Z</time>
      </trkpt>
      <trkpt lat="49.258445" lon="10.106620">
        <ele>466.290167</ele>
        <time>2026-04-26T15:44:40.036Z</time>
      </trkpt>
      <trkpt lat="49.258005" lon="10.106641">
        <ele>467.127070</ele>
        <time>2026-04-26T15:44:50.245Z</time>
      </trkpt>
      <trkpt lat="49.257911" lon="10.106605">
        <ele>467.311275</ele>
        <time>2026-04-26T15:44:52.496Z</time>
      </trkpt>
      <trkpt lat="49.257244" lon="10.106808">
        <ele>468.250431</ele>
        <time>2026-04-26T15:45:07.940Z</time>
      </trkpt>
      <trkpt lat="49.256923" lon="10.106877">
        <ele>467.962148</ele>
        <time>2026-04-26T15:45:14.984Z</time>
      </trkpt>
      <trkpt lat="49.256580" lon="10.106944">
        <ele>467.654626</ele>
        <time>2026-04-26T15:45:22.198Z</time>
      </trkpt>
      <trkpt lat="49.256344" lon="10.107042">
        <ele>467.437163</ele>
        <time>2026-04-26T15:45:27.102Z</time>
      </trkpt>
      <trkpt lat="49.256117" lon="10.107210">
        <ele>467.212958</ele>
        <time>2026-04-26T15:45:31.953Z</time>
      </trkpt>
      <trkpt lat="49.255815" lon="10.107573">
        <ele>466.871579</ele>
        <time>2026-04-26T15:45:38.523Z</time>
      </trkpt>
      <trkpt lat="49.255610" lon="10.107751">
        <ele>466.363847</ele>
        <time>2026-04-26T15:45:42.332Z</time>
      </trkpt>
      <trkpt lat="49.255251" lon="10.107948">
        <ele>465.028234</ele>
        <time>2026-04-26T15:45:48.364Z</time>
      </trkpt>
      <trkpt lat="49.254934" lon="10.108087">
        <ele>463.873366</ele>
        <time>2026-04-26T15:45:53.516Z</time>
      </trkpt>
      <trkpt lat="49.254581" lon="10.108189">
        <ele>462.615187</ele>
        <time>2026-04-26T15:45:59.126Z</time>
      </trkpt>
      <trkpt lat="49.254347" lon="10.108193">
        <ele>461.795551</ele>
        <time>2026-04-26T15:46:02.750Z</time>
      </trkpt>
      <trkpt lat="49.253037" lon="10.107741">
        <ele>459.064716</ele>
        <time>2026-04-26T15:46:25.172Z</time>
      </trkpt>
      <trkpt lat="49.252597" lon="10.107657">
        <ele>458.420256</ele>
        <time>2026-04-26T15:46:34.303Z</time>
      </trkpt>
      <trkpt lat="49.252426" lon="10.107670">
        <ele>458.171412</ele>
        <time>2026-04-26T15:46:38.042Z</time>
      </trkpt>
      <trkpt lat="49.252288" lon="10.107704">
        <ele>457.968260</ele>
        <time>2026-04-26T15:46:41.149Z</time>
      </trkpt>
      <trkpt lat="49.251879" lon="10.108012">
        <ele>457.604532</ele>
        <time>2026-04-26T15:46:51.291Z</time>
      </trkpt>
      <trkpt lat="49.251674" lon="10.108168">
        <ele>457.454608</ele>
        <time>2026-04-26T15:46:56.236Z</time>
      </trkpt>
      <trkpt lat="49.251432" lon="10.108352">
        <ele>457.277654</ele>
        <time>2026-04-26T15:47:01.605Z</time>
      </trkpt>
      <trkpt lat="49.251256" lon="10.108485">
        <ele>457.149115</ele>
        <time>2026-04-26T15:47:05.374Z</time>
      </trkpt>
      <trkpt lat="49.251223" lon="10.108510">
        <ele>457.125002</ele>
        <time>2026-04-26T15:47:06.079Z</time>
      </trkpt>
      <trkpt lat="49.250988" lon="10.108688">
        <ele>456.953295</ele>
        <time>2026-04-26T15:47:11.021Z</time>
      </trkpt>
      <trkpt lat="49.250824" lon="10.108813">
        <ele>456.833317</ele>
        <time>2026-04-26T15:47:14.394Z</time>
      </trkpt>
      <trkpt lat="49.250453" lon="10.109094">
        <ele>456.457926</ele>
        <time>2026-04-26T15:47:21.703Z</time>
      </trkpt>
      <trkpt lat="49.249912" lon="10.106280">
        <ele>454.087268</ele>
        <time>2026-04-26T15:47:58.079Z</time>
      </trkpt>
      <trkpt lat="49.247456" lon="10.107429">
        <ele>451.923915</ele>
        <time>2026-04-26T15:48:48.162Z</time>
      </trkpt>
      <trkpt lat="49.247299" lon="10.107454">
        <ele>451.824984</ele>
        <time>2026-04-26T15:48:51.354Z</time>
      </trkpt>
      <trkpt lat="49.247030" lon="10.107380">
        <ele>451.653688</ele>
        <time>2026-04-26T15:48:56.907Z</time>
      </trkpt>
      <trkpt lat="49.245884" lon="10.106950">
        <ele>451.842751</ele>
        <time>2026-04-26T15:49:21.673Z</time>
      </trkpt>
      <trkpt lat="49.244575" lon="10.106507">
        <ele>452.540970</ele>
        <time>2026-04-26T15:49:51.722Z</time>
      </trkpt>
      <trkpt lat="49.244111" lon="10.106332">
        <ele>452.870760</ele>
        <time>2026-04-26T15:50:02.610Z</time>
      </trkpt>
      <trkpt lat="49.243877" lon="10.106278">
        <ele>453.034076</ele>
        <time>2026-04-26T15:50:07.935Z</time>
      </trkpt>
      <trkpt lat="49.243353" lon="10.106182">
        <ele>453.398288</ele>
        <time>2026-04-26T15:50:19.645Z</time>
      </trkpt>
      <trkpt lat="49.243345" lon="10.106180">
        <ele>453.403883</ele>
        <time>2026-04-26T15:50:19.819Z</time>
      </trkpt>
      <trkpt lat="49.242332" lon="10.106629">
        <ele>453.025011</ele>
        <time>2026-04-26T15:50:40.811Z</time>
      </trkpt>
      <trkpt lat="49.240760" lon="10.107319">
        <ele>452.808960</ele>
        <time>2026-04-26T15:51:13.456Z</time>
      </trkpt>
      <trkpt lat="49.240645" lon="10.107355">
        <ele>452.847564</ele>
        <time>2026-04-26T15:51:15.998Z</time>
      </trkpt>
      <trkpt lat="49.237838" lon="10.108572">
        <ele>454.924065</ele>
        <time>2026-04-26T15:52:22.044Z</time>
      </trkpt>
      <trkpt lat="49.236136" lon="10.109326">
        <ele>454.595261</ele>
        <time>2026-04-26T15:52:57.673Z</time>
      </trkpt>
      <trkpt lat="49.236072" lon="10.110415">
        <ele>454.408153</ele>
        <time>2026-04-26T15:53:12.594Z</time>
      </trkpt>
      <trkpt lat="49.236000" lon="10.111118">
        <ele>454.286382</ele>
        <time>2026-04-26T15:53:22.290Z</time>
      </trkpt>
      <trkpt lat="49.235952" lon="10.111324">
        <ele>454.248953</ele>
        <time>2026-04-26T15:53:25.275Z</time>
      </trkpt>
      <trkpt lat="49.235790" lon="10.111930">
        <ele>454.080120</ele>
        <time>2026-04-26T15:53:34.053Z</time>
      </trkpt>
      <trkpt lat="49.235722" lon="10.112692">
        <ele>453.689997</ele>
        <time>2026-04-26T15:53:44.156Z</time>
      </trkpt>
      <trkpt lat="49.235666" lon="10.113918">
        <ele>453.066579</ele>
        <time>2026-04-26T15:53:59.911Z</time>
      </trkpt>
      <trkpt lat="49.235677" lon="10.114559">
        <ele>452.740732</ele>
        <time>2026-04-26T15:54:07.968Z</time>
      </trkpt>
      <trkpt lat="49.235735" lon="10.114885">
        <ele>452.565666</ele>
        <time>2026-04-26T15:54:12.024Z</time>
      </trkpt>
      <trkpt lat="49.235869" lon="10.115130">
        <ele>452.400076</ele>
        <time>2026-04-26T15:54:15.844Z</time>
      </trkpt>
      <trkpt lat="49.235980" lon="10.115414">
        <ele>452.228582</ele>
        <time>2026-04-26T15:54:19.812Z</time>
      </trkpt>
      <trkpt lat="49.235759" lon="10.116003">
        <ele>451.876610</ele>
        <time>2026-04-26T15:54:28.123Z</time>
      </trkpt>
      <trkpt lat="49.235670" lon="10.116176">
        <ele>451.762496</ele>
        <time>2026-04-26T15:54:30.880Z</time>
      </trkpt>
      <trkpt lat="49.235628" lon="10.116292">
        <ele>451.693772</ele>
        <time>2026-04-26T15:54:32.554Z</time>
      </trkpt>
      <trkpt lat="49.235644" lon="10.117135">
        <ele>451.525000</ele>
        <time>2026-04-26T15:54:44.335Z</time>
      </trkpt>
      <trkpt lat="49.235602" lon="10.117231">
        <ele>451.655314</ele>
        <time>2026-04-26T15:54:45.974Z</time>
      </trkpt>
      <trkpt lat="49.235093" lon="10.117799">
        <ele>452.743010</ele>
        <time>2026-04-26T15:55:00.321Z</time>
      </trkpt>
      <trkpt lat="49.234885" lon="10.118221">
        <ele>453.339271</ele>
        <time>2026-04-26T15:55:08.572Z</time>
      </trkpt>
      <trkpt lat="49.235042" lon="10.118342">
        <ele>453.642822</ele>
        <time>2026-04-26T15:55:12.815Z</time>
      </trkpt>
      <trkpt lat="49.235092" lon="10.118507">
        <ele>453.847957</ele>
        <time>2026-04-26T15:55:16.230Z</time>
      </trkpt>
      <trkpt lat="49.235042" lon="10.118342">
        <ele>454.053091</ele>
        <time>2026-04-26T15:55:19.651Z</time>
      </trkpt>
      <trkpt lat="49.234885" lon="10.118221">
        <ele>454.356643</ele>
        <time>2026-04-26T15:55:23.892Z</time>
      </trkpt>
      <trkpt lat="49.234784" lon="10.118474">
        <ele>454.664917</ele>
        <time>2026-04-26T15:55:28.486Z</time>
      </trkpt>
      <trkpt lat="49.234761" lon="10.118722">
        <ele>454.917064</ele>
        <time>2026-04-26T15:55:32.292Z</time>
      </trkpt>
      <trkpt lat="49.234763" lon="10.118880">
        <ele>455.076140</ele>
        <time>2026-04-26T15:55:34.646Z</time>
      </trkpt>
      <trkpt lat="49.234732" lon="10.119081">
        <ele>455.284038</ele>
        <time>2026-04-26T15:55:37.636Z</time>
      </trkpt>
      <trkpt lat="49.234581" lon="10.119505">
        <ele>455.770200</ele>
        <time>2026-04-26T15:55:44.781Z</time>
      </trkpt>
      <trkpt lat="49.235005" lon="10.120047">
        <ele>456.621624</ele>
        <time>2026-04-26T15:55:57.300Z</time>
      </trkpt>
      <trkpt lat="49.235020" lon="10.120066">
        <ele>456.651633</ele>
        <time>2026-04-26T15:55:57.736Z</time>
      </trkpt>
      <trkpt lat="49.235270" lon="10.120451">
        <ele>457.198194</ele>
        <time>2026-04-26T15:56:05.771Z</time>
      </trkpt>
      <trkpt lat="49.235296" lon="10.120533">
        <ele>457.309579</ele>
        <time>2026-04-26T15:56:07.123Z</time>
      </trkpt>
      <trkpt lat="49.235382" lon="10.120800">
        <ele>457.693929</ele>
        <time>2026-04-26T15:56:11.568Z</time>
      </trkpt>
      <trkpt lat="49.234393" lon="10.122129">
        <ele>460.295332</ele>
        <time>2026-04-26T15:56:42.797Z</time>
      </trkpt>
      <trkpt lat="49.234251" lon="10.122427">
        <ele>460.771602</ele>
        <time>2026-04-26T15:56:48.393Z</time>
      </trkpt>
      <trkpt lat="49.234226" lon="10.122485">
        <ele>460.800534</ele>
        <time>2026-04-26T15:56:49.437Z</time>
      </trkpt>
      <trkpt lat="49.234122" lon="10.122716">
        <ele>460.902694</ele>
        <time>2026-04-26T15:56:53.623Z</time>
      </trkpt>
      <trkpt lat="49.233938" lon="10.123245">
        <ele>461.120922</ele>
        <time>2026-04-26T15:57:02.385Z</time>
      </trkpt>
      <trkpt lat="49.233814" lon="10.123655">
        <ele>461.285436</ele>
        <time>2026-04-26T15:57:08.754Z</time>
      </trkpt>
      <trkpt lat="49.233779" lon="10.123773">
        <ele>461.332624</ele>
        <time>2026-04-26T15:57:10.521Z</time>
      </trkpt>
      <trkpt lat="49.233243" lon="10.125498">
        <ele>461.786288</ele>
        <time>2026-04-26T15:57:36.905Z</time>
      </trkpt>
      <trkpt lat="49.233017" lon="10.126317">
        <ele>461.795031</ele>
        <time>2026-04-26T15:57:49.463Z</time>
      </trkpt>
      <trkpt lat="49.232610" lon="10.127342">
        <ele>461.801837</ele>
        <time>2026-04-26T15:58:05.872Z</time>
      </trkpt>
      <trkpt lat="49.232367" lon="10.127894">
        <ele>461.613576</ele>
        <time>2026-04-26T15:58:14.625Z</time>
      </trkpt>
      <trkpt lat="49.232128" lon="10.128327">
        <ele>461.453243</ele>
        <time>2026-04-26T15:58:21.948Z</time>
      </trkpt>
      <trkpt lat="49.231674" lon="10.128936">
        <ele>461.191867</ele>
        <time>2026-04-26T15:58:33.984Z</time>
      </trkpt>
      <trkpt lat="49.231532" lon="10.129081">
        <ele>461.117954</ele>
        <time>2026-04-26T15:58:37.459Z</time>
      </trkpt>
      <trkpt lat="49.231629" lon="10.129446">
        <ele>461.051123</ele>
        <time>2026-04-26T15:58:42.807Z</time>
      </trkpt>
      <trkpt lat="49.231692" lon="10.129895">
        <ele>461.194432</ele>
        <time>2026-04-26T15:58:49.150Z</time>
      </trkpt>
      <trkpt lat="49.231703" lon="10.130027">
        <ele>461.235956</ele>
        <time>2026-04-26T15:58:51.020Z</time>
      </trkpt>
      <trkpt lat="49.231766" lon="10.131888">
        <ele>461.817462</ele>
        <time>2026-04-26T15:59:18.052Z</time>
      </trkpt>
      <trkpt lat="49.231811" lon="10.132339">
        <ele>461.971546</ele>
        <time>2026-04-26T15:59:24.678Z</time>
      </trkpt>
      <trkpt lat="49.231890" lon="10.132778">
        <ele>462.136578</ele>
        <time>2026-04-26T15:59:31.265Z</time>
      </trkpt>
      <trkpt lat="49.232013" lon="10.133183">
        <ele>462.298455</ele>
        <time>2026-04-26T15:59:37.713Z</time>
      </trkpt>
      <trkpt lat="49.232393" lon="10.134132">
        <ele>462.701900</ele>
        <time>2026-04-26T15:59:53.608Z</time>
      </trkpt>
      <trkpt lat="49.232710" lon="10.134881">
        <ele>462.956160</ele>
        <time>2026-04-26T16:00:06.271Z</time>
      </trkpt>
      <trkpt lat="49.232933" lon="10.135405">
        <ele>463.070673</ele>
        <time>2026-04-26T16:00:15.139Z</time>
      </trkpt>
      <trkpt lat="49.233346" lon="10.136459">
        <ele>463.295722</ele>
        <time>2026-04-26T16:00:32.496Z</time>
      </trkpt>
      <trkpt lat="49.233440" lon="10.136912">
        <ele>463.382746</ele>
        <time>2026-04-26T16:00:39.161Z</time>
      </trkpt>
      <trkpt lat="49.233487" lon="10.137328">
        <ele>463.209375</ele>
        <time>2026-04-26T16:00:45.054Z</time>
      </trkpt>
      <trkpt lat="49.233483" lon="10.137836">
        <ele>462.970455</ele>
        <time>2026-04-26T16:00:52.014Z</time>
      </trkpt>
      <trkpt lat="49.233396" lon="10.138851">
        <ele>462.489026</ele>
        <time>2026-04-26T16:01:05.319Z</time>
      </trkpt>
      <trkpt lat="49.233343" lon="10.139173">
        <ele>462.332859</ele>
        <time>2026-04-26T16:01:09.415Z</time>
      </trkpt>
      <trkpt lat="49.233269" lon="10.139525">
        <ele>462.158953</ele>
        <time>2026-04-26T16:01:13.840Z</time>
      </trkpt>
      <trkpt lat="49.232909" lon="10.140597">
        <ele>460.854699</ele>
        <time>2026-04-26T16:01:27.766Z</time>
      </trkpt>
      <trkpt lat="49.232798" lon="10.141025">
        <ele>460.320238</ele>
        <time>2026-04-26T16:01:32.998Z</time>
      </trkpt>
      <trkpt lat="49.232719" lon="10.141468">
        <ele>459.787284</ele>
        <time>2026-04-26T16:01:38.254Z</time>
      </trkpt>
      <trkpt lat="49.232584" lon="10.142558">
        <ele>458.728372</ele>
        <time>2026-04-26T16:01:51.357Z</time>
      </trkpt>
      <trkpt lat="49.232260" lon="10.144448">
        <ele>457.763597</ele>
        <time>2026-04-26T16:02:16.563Z</time>
      </trkpt>
      <trkpt lat="49.232263" lon="10.145136">
        <ele>457.654245</ele>
        <time>2026-04-26T16:02:25.998Z</time>
      </trkpt>
      <trkpt lat="49.232343" lon="10.145717">
        <ele>457.954475</ele>
        <time>2026-04-26T16:02:34.386Z</time>
      </trkpt>
      <trkpt lat="49.232487" lon="10.146263">
        <ele>458.252214</ele>
        <time>2026-04-26T16:02:42.881Z</time>
      </trkpt>
      <trkpt lat="49.232703" lon="10.146777">
        <ele>458.561273</ele>
        <time>2026-04-26T16:02:51.842Z</time>
      </trkpt>
      <trkpt lat="49.233171" lon="10.147814">
        <ele>459.553072</ele>
        <time>2026-04-26T16:03:10.731Z</time>
      </trkpt>
      <trkpt lat="49.234089" lon="10.149902">
        <ele>462.261549</ele>
        <time>2026-04-26T16:03:49.154Z</time>
      </trkpt>
      <trkpt lat="49.234139" lon="10.150175">
        <ele>462.356313</ele>
        <time>2026-04-26T16:03:53.485Z</time>
      </trkpt>
      <trkpt lat="49.234165" lon="10.150477">
        <ele>462.458122</ele>
        <time>2026-04-26T16:03:58.089Z</time>
      </trkpt>
      <trkpt lat="49.234136" lon="10.150801">
        <ele>462.567423</ele>
        <time>2026-04-26T16:04:02.978Z</time>
      </trkpt>
      <trkpt lat="49.234102" lon="10.150977">
        <ele>462.628767</ele>
        <time>2026-04-26T16:04:05.679Z</time>
      </trkpt>
      <trkpt lat="49.234047" lon="10.151168">
        <ele>462.698535</ele>
        <time>2026-04-26T16:04:08.706Z</time>
      </trkpt>
      <trkpt lat="49.233584" lon="10.152001">
        <ele>463.064151</ele>
        <time>2026-04-26T16:04:24.028Z</time>
      </trkpt>
      <trkpt lat="49.233521" lon="10.152216">
        <ele>463.172875</ele>
        <time>2026-04-26T16:04:27.279Z</time>
      </trkpt>
      <trkpt lat="49.233496" lon="10.152629">
        <ele>463.382266</ele>
        <time>2026-04-26T16:04:33.078Z</time>
      </trkpt>
      <trkpt lat="49.233529" lon="10.153330">
        <ele>463.737075</ele>
        <time>2026-04-26T16:04:43.340Z</time>
      </trkpt>
      <trkpt lat="49.233551" lon="10.154128">
        <ele>464.140294</ele>
        <time>2026-04-26T16:04:55.068Z</time>
      </trkpt>
      <trkpt lat="49.233624" lon="10.156028">
        <ele>466.553700</ele>
        <time>2026-04-26T16:05:24.149Z</time>
      </trkpt>
      <trkpt lat="49.233646" lon="10.156625">
        <ele>467.555633</ele>
        <time>2026-04-26T16:05:33.504Z</time>
      </trkpt>
      <trkpt lat="49.233715" lon="10.157748">
        <ele>469.574749</ele>
        <time>2026-04-26T16:05:51.524Z</time>
      </trkpt>
      <trkpt lat="49.233901" lon="10.158835">
        <ele>472.141700</ele>
        <time>2026-04-26T16:06:09.637Z</time>
      </trkpt>
      <trkpt lat="49.234065" lon="10.159340">
        <ele>473.430099</ele>
        <time>2026-04-26T16:06:18.806Z</time>
      </trkpt>
      <trkpt lat="49.234478" lon="10.160274">
        <ele>476.274342</ele>
        <time>2026-04-26T16:06:37.181Z</time>
      </trkpt>
      <trkpt lat="49.234822" lon="10.160787">
        <ele>478.673942</ele>
        <time>2026-04-26T16:06:49.264Z</time>
      </trkpt>
      <trkpt lat="49.235419" lon="10.161453">
        <ele>482.365165</ele>
        <time>2026-04-26T16:07:08.946Z</time>
      </trkpt>
      <trkpt lat="49.236152" lon="10.162034">
        <ele>487.573902</ele>
        <time>2026-04-26T16:07:33.348Z</time>
      </trkpt>
      <trkpt lat="49.238298" lon="10.163708">
        <ele>503.788749</ele>
        <time>2026-04-26T16:08:50.201Z</time>
      </trkpt>
      <trkpt lat="49.239079" lon="10.164236">
        <ele>507.990538</ele>
        <time>2026-04-26T16:09:11.266Z</time>
      </trkpt>
      <trkpt lat="49.239785" lon="10.164599">
        <ele>507.040754</ele>
        <time>2026-04-26T16:09:26.571Z</time>
      </trkpt>
      <trkpt lat="49.240316" lon="10.165038">
        <ele>506.271182</ele>
        <time>2026-04-26T16:09:36.759Z</time>
      </trkpt>
      <trkpt lat="49.240751" lon="10.165532">
        <ele>505.081464</ele>
        <time>2026-04-26T16:09:45.399Z</time>
      </trkpt>
      <trkpt lat="49.241090" lon="10.166009">
        <ele>503.215178</ele>
        <time>2026-04-26T16:09:52.554Z</time>
      </trkpt>
      <trkpt lat="49.241636" lon="10.167028">
        <ele>499.725934</ele>
        <time>2026-04-26T16:10:05.793Z</time>
      </trkpt>
      <trkpt lat="49.241922" lon="10.167780">
        <ele>497.667738</ele>
        <time>2026-04-26T16:10:14.704Z</time>
      </trkpt>
      <trkpt lat="49.242761" lon="10.170888">
        <ele>491.468675</ele>
        <time>2026-04-26T16:10:51.106Z</time>
      </trkpt>
      <trkpt lat="49.242902" lon="10.171216">
        <ele>490.934341</ele>
        <time>2026-04-26T16:10:55.657Z</time>
      </trkpt>
      <trkpt lat="49.243109" lon="10.171530">
        <ele>490.327191</ele>
        <time>2026-04-26T16:11:00.881Z</time>
      </trkpt>
      <trkpt lat="49.242695" lon="10.172683">
        <ele>488.670540</ele>
        <time>2026-04-26T16:11:16.912Z</time>
      </trkpt>
      <trkpt lat="49.242660" lon="10.172926">
        <ele>488.410870</ele>
        <time>2026-04-26T16:11:20.001Z</time>
      </trkpt>
      <trkpt lat="49.242621" lon="10.173538">
        <ele>487.769206</ele>
        <time>2026-04-26T16:11:27.549Z</time>
      </trkpt>
      <trkpt lat="49.242608" lon="10.173666">
        <ele>487.634031</ele>
        <time>2026-04-26T16:11:29.101Z</time>
      </trkpt>
      <trkpt lat="49.242478" lon="10.174140">
        <ele>487.097533</ele>
        <time>2026-04-26T16:11:35.192Z</time>
      </trkpt>
      <trkpt lat="49.242411" lon="10.174427">
        <ele>486.779474</ele>
        <time>2026-04-26T16:11:38.730Z</time>
      </trkpt>
      <trkpt lat="49.242386" lon="10.174820">
        <ele>486.367430</ele>
        <time>2026-04-26T16:11:43.257Z</time>
      </trkpt>
      <trkpt lat="49.242382" lon="10.175919">
        <ele>484.921073</ele>
        <time>2026-04-26T16:11:55.807Z</time>
      </trkpt>
      <trkpt lat="49.242369" lon="10.176213">
        <ele>484.522850</ele>
        <time>2026-04-26T16:11:59.124Z</time>
      </trkpt>
      <trkpt lat="49.242314" lon="10.176617">
        <ele>483.965138</ele>
        <time>2026-04-26T16:12:03.763Z</time>
      </trkpt>
      <trkpt lat="49.241873" lon="10.178754">
        <ele>481.102276</ele>
        <time>2026-04-26T16:12:29.552Z</time>
      </trkpt>
      <trkpt lat="49.241757" lon="10.179564">
        <ele>480.099583</ele>
        <time>2026-04-26T16:12:39.211Z</time>
      </trkpt>
      <trkpt lat="49.241599" lon="10.181174">
        <ele>478.767607</ele>
        <time>2026-04-26T16:12:58.302Z</time>
      </trkpt>
      <trkpt lat="49.241506" lon="10.181648">
        <ele>478.531853</ele>
        <time>2026-04-26T16:13:04.512Z</time>
      </trkpt>
      <trkpt lat="49.241270" lon="10.182566">
        <ele>478.061905</ele>
        <time>2026-04-26T16:13:17.828Z</time>
      </trkpt>
      <trkpt lat="49.241198" lon="10.182827">
        <ele>477.926941</ele>
        <time>2026-04-26T16:13:21.819Z</time>
      </trkpt>
      <trkpt lat="49.240899" lon="10.184032">
        <ele>477.676420</ele>
        <time>2026-04-26T16:13:40.290Z</time>
      </trkpt>
      <trkpt lat="49.240647" lon="10.185923">
        <ele>477.295604</ele>
        <time>2026-04-26T16:14:05.424Z</time>
      </trkpt>
      <trkpt lat="49.240514" lon="10.186485">
        <ele>477.088304</ele>
        <time>2026-04-26T16:14:12.512Z</time>
      </trkpt>
      <trkpt lat="49.240322" lon="10.187069">
        <ele>476.861556</ele>
        <time>2026-04-26T16:14:20.759Z</time>
      </trkpt>
      <trkpt lat="49.240180" lon="10.187370">
        <ele>476.732776</ele>
        <time>2026-04-26T16:14:25.652Z</time>
      </trkpt>
      <trkpt lat="49.239994" lon="10.187662">
        <ele>476.591305</ele>
        <time>2026-04-26T16:14:31.185Z</time>
      </trkpt>
      <trkpt lat="49.239337" lon="10.188460">
        <ele>476.527697</ele>
        <time>2026-04-26T16:14:49.832Z</time>
      </trkpt>
      <trkpt lat="49.239144" lon="10.188807">
        <ele>476.562308</ele>
        <time>2026-04-26T16:14:56.528Z</time>
      </trkpt>
      <trkpt lat="49.239001" lon="10.189178">
        <ele>476.595020</ele>
        <time>2026-04-26T16:15:02.691Z</time>
      </trkpt>
      <trkpt lat="49.238320" lon="10.191415">
        <ele>475.855112</ele>
        <time>2026-04-26T16:15:34.434Z</time>
      </trkpt>
      <trkpt lat="49.238244" lon="10.191921">
        <ele>475.574227</ele>
        <time>2026-04-26T16:15:41.113Z</time>
      </trkpt>
      <trkpt lat="49.238282" lon="10.192531">
        <ele>475.242731</ele>
        <time>2026-04-26T16:15:49.064Z</time>
      </trkpt>
      <trkpt lat="49.238503" lon="10.193490">
        <ele>474.296920</ele>
        <time>2026-04-26T16:16:01.765Z</time>
      </trkpt>
      <trkpt lat="49.238538" lon="10.193747">
        <ele>474.039144</ele>
        <time>2026-04-26T16:16:04.861Z</time>
      </trkpt>
      <trkpt lat="49.238489" lon="10.194377">
        <ele>473.416183</ele>
        <time>2026-04-26T16:16:12.266Z</time>
      </trkpt>
      <trkpt lat="49.238558" lon="10.194418">
        <ele>473.304882</ele>
        <time>2026-04-26T16:16:13.565Z</time>
      </trkpt>
      <trkpt lat="49.238704" lon="10.194351">
        <ele>473.075675</ele>
        <time>2026-04-26T16:16:16.244Z</time>
      </trkpt>
      <trkpt lat="49.239033" lon="10.194316">
        <ele>472.579715</ele>
        <time>2026-04-26T16:16:22.068Z</time>
      </trkpt>
      <trkpt lat="49.239216" lon="10.194374">
        <ele>472.325597</ele>
        <time>2026-04-26T16:16:25.474Z</time>
      </trkpt>
      <trkpt lat="49.239887" lon="10.194692">
        <ele>471.432316</ele>
        <time>2026-04-26T16:16:38.572Z</time>
      </trkpt>
      <trkpt lat="49.240148" lon="10.194739">
        <ele>471.098095</ele>
        <time>2026-04-26T16:16:43.761Z</time>
      </trkpt>
      <trkpt lat="49.240167" lon="10.195427">
        <ele>470.526316</ele>
        <time>2026-04-26T16:16:52.682Z</time>
      </trkpt>
      <trkpt lat="49.239994" lon="10.197874">
        <ele>468.076890</ele>
        <time>2026-04-26T16:17:22.108Z</time>
      </trkpt>
      <trkpt lat="49.239942" lon="10.198343">
        <ele>467.587783</ele>
        <time>2026-04-26T16:17:27.580Z</time>
      </trkpt>
      <trkpt lat="49.239310" lon="10.201003">
        <ele>464.744837</ele>
        <time>2026-04-26T16:18:00.739Z</time>
      </trkpt>
      <trkpt lat="49.239076" lon="10.202423">
        <ele>464.979841</ele>
        <time>2026-04-26T16:18:20.131Z</time>
      </trkpt>
      <trkpt lat="49.239024" lon="10.202670">
        <ele>465.056526</ele>
        <time>2026-04-26T16:18:23.834Z</time>
      </trkpt>
      <trkpt lat="49.239011" lon="10.202731">
        <ele>465.075486</ele>
        <time>2026-04-26T16:18:24.765Z</time>
      </trkpt>
      <trkpt lat="49.238849" lon="10.203426">
        <ele>465.293544</ele>
        <time>2026-04-26T16:18:35.673Z</time>
      </trkpt>
      <trkpt lat="49.238717" lon="10.204397">
        <ele>466.835270</ele>
        <time>2026-04-26T16:18:50.991Z</time>
      </trkpt>
      <trkpt lat="49.238636" lon="10.204925">
        <ele>468.104320</ele>
        <time>2026-04-26T16:18:59.737Z</time>
      </trkpt>
      <trkpt lat="49.238577" lon="10.205041">
        <ele>468.448371</ele>
        <time>2026-04-26T16:19:02.156Z</time>
      </trkpt>
      <trkpt lat="49.238480" lon="10.205235">
        <ele>469.020102</ele>
        <time>2026-04-26T16:19:06.238Z</time>
      </trkpt>
      <trkpt lat="49.238462" lon="10.205360">
        <ele>469.319606</ele>
        <time>2026-04-26T16:19:08.397Z</time>
      </trkpt>
      <trkpt lat="49.238467" lon="10.205592">
        <ele>469.862734</ele>
        <time>2026-04-26T16:19:12.363Z</time>
      </trkpt>
      <trkpt lat="49.238603" lon="10.206695">
        <ele>472.521058</ele>
        <time>2026-04-26T16:19:31.430Z</time>
      </trkpt>
      <trkpt lat="49.238727" lon="10.207168">
        <ele>473.773381</ele>
        <time>2026-04-26T16:19:39.964Z</time>
      </trkpt>
      <trkpt lat="49.238954" lon="10.208019">
        <ele>476.032014</ele>
        <time>2026-04-26T16:19:55.100Z</time>
      </trkpt>
      <trkpt lat="49.239142" lon="10.208725">
        <ele>477.905339</ele>
        <time>2026-04-26T16:20:07.382Z</time>
      </trkpt>
      <trkpt lat="49.239365" lon="10.209551">
        <ele>479.081243</ele>
        <time>2026-04-26T16:20:21.517Z</time>
      </trkpt>
      <trkpt lat="49.239578" lon="10.210350">
        <ele>479.741175</ele>
        <time>2026-04-26T16:20:34.768Z</time>
      </trkpt>
      <trkpt lat="49.239749" lon="10.211199">
        <ele>480.420560</ele>
        <time>2026-04-26T16:20:47.495Z</time>
      </trkpt>
      <trkpt lat="49.239820" lon="10.211979">
        <ele>480.016161</ele>
        <time>2026-04-26T16:20:57.215Z</time>
      </trkpt>
      <trkpt lat="49.239798" lon="10.212632">
        <ele>478.815622</ele>
        <time>2026-04-26T16:21:04.443Z</time>
      </trkpt>
      <trkpt lat="49.239737" lon="10.213328">
        <ele>477.526263</ele>
        <time>2026-04-26T16:21:11.848Z</time>
      </trkpt>
      <trkpt lat="49.239598" lon="10.214205">
        <ele>475.869271</ele>
        <time>2026-04-26T16:21:21.192Z</time>
      </trkpt>
      <trkpt lat="49.239372" lon="10.215198">
        <ele>473.983978</ele>
        <time>2026-04-26T16:21:32.150Z</time>
      </trkpt>
      <trkpt lat="49.239088" lon="10.216126">
        <ele>472.151713</ele>
        <time>2026-04-26T16:21:43.119Z</time>
      </trkpt>
      <trkpt lat="49.239030" lon="10.216436">
        <ele>471.575195</ele>
        <time>2026-04-26T16:21:46.734Z</time>
      </trkpt>
      <trkpt lat="49.239030" lon="10.216769">
        <ele>470.979864</ele>
        <time>2026-04-26T16:21:50.650Z</time>
      </trkpt>
      <trkpt lat="49.239079" lon="10.217035">
        <ele>470.763461</ele>
        <time>2026-04-26T16:21:54.081Z</time>
      </trkpt>
      <trkpt lat="49.239170" lon="10.217343">
        <ele>470.809858</ele>
        <time>2026-04-26T16:21:58.450Z</time>
      </trkpt>
      <trkpt lat="49.239372" lon="10.217802">
        <ele>470.885825</ele>
        <time>2026-04-26T16:22:05.991Z</time>
      </trkpt>
      <trkpt lat="49.239603" lon="10.218143">
        <ele>470.953262</ele>
        <time>2026-04-26T16:22:13.036Z</time>
      </trkpt>
      <trkpt lat="49.239870" lon="10.218445">
        <ele>471.023030</ele>
        <time>2026-04-26T16:22:20.456Z</time>
      </trkpt>
      <trkpt lat="49.240411" lon="10.218928">
        <ele>471.300860</ele>
        <time>2026-04-26T16:22:34.693Z</time>
      </trkpt>
      <trkpt lat="49.240592" lon="10.219187">
        <ele>471.584157</ele>
        <time>2026-04-26T16:22:40.343Z</time>
      </trkpt>
      <trkpt lat="49.240789" lon="10.219642">
        <ele>471.991832</ele>
        <time>2026-04-26T16:22:48.449Z</time>
      </trkpt>
      <trkpt lat="49.241160" lon="10.221118">
        <ele>473.172832</ele>
        <time>2026-04-26T16:23:11.729Z</time>
      </trkpt>
      <trkpt lat="49.241369" lon="10.222185">
        <ele>473.515908</ele>
        <time>2026-04-26T16:23:28.111Z</time>
      </trkpt>
      <trkpt lat="49.241511" lon="10.222950">
        <ele>473.758290</ele>
        <time>2026-04-26T16:23:39.581Z</time>
      </trkpt>
      <trkpt lat="49.241628" lon="10.224055">
        <ele>473.789273</ele>
        <time>2026-04-26T16:23:54.847Z</time>
      </trkpt>
      <trkpt lat="49.241715" lon="10.224570">
        <ele>473.330358</ele>
        <time>2026-04-26T16:24:01.643Z</time>
      </trkpt>
      <trkpt lat="49.242278" lon="10.226830">
        <ele>471.237265</ele>
        <time>2026-04-26T16:24:30.001Z</time>
      </trkpt>
      <trkpt lat="49.242339" lon="10.227020">
        <ele>471.051709</ele>
        <time>2026-04-26T16:24:32.485Z</time>
      </trkpt>
      <trkpt lat="49.242485" lon="10.227334">
        <ele>470.713870</ele>
        <time>2026-04-26T16:24:37.006Z</time>
      </trkpt>
      <trkpt lat="49.242934" lon="10.228017">
        <ele>469.864432</ele>
        <time>2026-04-26T16:24:48.806Z</time>
      </trkpt>
      <trkpt lat="49.243107" lon="10.228309">
        <ele>469.518869</ele>
        <time>2026-04-26T16:24:53.834Z</time>
      </trkpt>
      <trkpt lat="49.243269" lon="10.228721">
        <ele>469.227519</ele>
        <time>2026-04-26T16:25:00.031Z</time>
      </trkpt>
      <trkpt lat="49.243398" lon="10.229333">
        <ele>469.228179</ele>
        <time>2026-04-26T16:25:08.493Z</time>
      </trkpt>
      <trkpt lat="49.243484" lon="10.229881">
        <ele>469.228757</ele>
        <time>2026-04-26T16:25:16.119Z</time>
      </trkpt>
      <trkpt lat="49.243712" lon="10.231615">
        <ele>469.249114</ele>
        <time>2026-04-26T16:25:41.435Z</time>
      </trkpt>
      <trkpt lat="49.245046" lon="10.231361">
        <ele>469.354764</ele>
        <time>2026-04-26T16:26:10.300Z</time>
      </trkpt>
      <trkpt lat="49.245468" lon="10.231385">
        <ele>469.221402</ele>
        <time>2026-04-26T16:26:18.781Z</time>
      </trkpt>
      <trkpt lat="49.245829" lon="10.231500">
        <ele>468.956087</ele>
        <time>2026-04-26T16:26:26.016Z</time>
      </trkpt>
      <trkpt lat="49.247506" lon="10.232415">
        <ele>467.715369</ele>
        <time>2026-04-26T16:27:00.979Z</time>
      </trkpt>
      <trkpt lat="49.247958" lon="10.232584">
        <ele>467.414067</ele>
        <time>2026-04-26T16:27:10.298Z</time>
      </trkpt>
      <trkpt lat="49.248540" lon="10.232676">
        <ele>467.035170</ele>
        <time>2026-04-26T16:27:22.026Z</time>
      </trkpt>
      <trkpt lat="49.249349" lon="10.232748">
        <ele>466.589138</ele>
        <time>2026-04-26T16:27:38.436Z</time>
      </trkpt>
      <trkpt lat="49.249609" lon="10.232880">
        <ele>466.446492</ele>
        <time>2026-04-26T16:27:43.982Z</time>
      </trkpt>
      <trkpt lat="49.249675" lon="10.232968">
        <ele>466.400925</ele>
        <time>2026-04-26T16:27:45.761Z</time>
      </trkpt>
      <trkpt lat="49.249735" lon="10.233073">
        <ele>466.353486</ele>
        <time>2026-04-26T16:27:47.605Z</time>
      </trkpt>
      <trkpt lat="49.249833" lon="10.233331">
        <ele>466.252010</ele>
        <time>2026-04-26T16:27:51.554Z</time>
      </trkpt>
      <trkpt lat="49.250094" lon="10.234438">
        <ele>465.775516</ele>
        <time>2026-04-26T16:28:06.972Z</time>
      </trkpt>
      <trkpt lat="49.250369" lon="10.235324">
        <ele>465.236526</ele>
        <time>2026-04-26T16:28:19.423Z</time>
      </trkpt>
      <trkpt lat="49.251057" lon="10.236963">
        <ele>464.332292</ele>
        <time>2026-04-26T16:28:44.129Z</time>
      </trkpt>
      <trkpt lat="49.251404" lon="10.237544">
        <ele>464.142713</ele>
        <time>2026-04-26T16:28:54.571Z</time>
      </trkpt>
      <trkpt lat="49.251672" lon="10.237949">
        <ele>464.003880</ele>
        <time>2026-04-26T16:29:02.409Z</time>
      </trkpt>
      <trkpt lat="49.251907" lon="10.238361">
        <ele>463.872167</ele>
        <time>2026-04-26T16:29:09.992Z</time>
      </trkpt>
      <trkpt lat="49.252006" lon="10.238654">
        <ele>463.795970</ele>
        <time>2026-04-26T16:29:14.566Z</time>
      </trkpt>
      <trkpt lat="49.252157" lon="10.239722">
        <ele>463.675863</ele>
        <time>2026-04-26T16:29:29.547Z</time>
      </trkpt>
      <trkpt lat="49.252256" lon="10.240646">
        <ele>463.572947</ele>
        <time>2026-04-26T16:29:42.168Z</time>
      </trkpt>
      <trkpt lat="49.252316" lon="10.241435">
        <ele>463.493545</ele>
        <time>2026-04-26T16:29:52.714Z</time>
      </trkpt>
      <trkpt lat="49.252374" lon="10.242370">
        <ele>463.470507</ele>
        <time>2026-04-26T16:30:05.316Z</time>
      </trkpt>
      <trkpt lat="49.252424" lon="10.242626">
        <ele>463.463953</ele>
        <time>2026-04-26T16:30:08.946Z</time>
      </trkpt>
      <trkpt lat="49.252816" lon="10.243188">
        <ele>463.443778</ele>
        <time>2026-04-26T16:30:20.058Z</time>
      </trkpt>
      <trkpt lat="49.252959" lon="10.243320">
        <ele>463.437504</ele>
        <time>2026-04-26T16:30:23.584Z</time>
      </trkpt>
      <trkpt lat="49.253110" lon="10.243366">
        <ele>463.431718</ele>
        <time>2026-04-26T16:30:26.900Z</time>
      </trkpt>
      <trkpt lat="49.253301" lon="10.243336">
        <ele>463.522980</ele>
        <time>2026-04-26T16:30:31.134Z</time>
      </trkpt>
      <trkpt lat="49.253469" lon="10.243268">
        <ele>463.689251</ele>
        <time>2026-04-26T16:30:35.042Z</time>
      </trkpt>
      <trkpt lat="49.253850" lon="10.243122">
        <ele>464.065053</ele>
        <time>2026-04-26T16:30:43.926Z</time>
      </trkpt>
      <trkpt lat="49.254313" lon="10.243038">
        <ele>464.511183</ele>
        <time>2026-04-26T16:30:54.580Z</time>
      </trkpt>
      <trkpt lat="49.254412" lon="10.243054">
        <ele>464.606440</ele>
        <time>2026-04-26T16:30:56.864Z</time>
      </trkpt>
      <trkpt lat="49.254486" lon="10.243259">
        <ele>464.752750</ele>
        <time>2026-04-26T16:31:00.350Z</time>
      </trkpt>
      <trkpt lat="49.254517" lon="10.243455">
        <ele>464.878705</ele>
        <time>2026-04-26T16:31:03.340Z</time>
      </trkpt>
      <trkpt lat="49.254572" lon="10.243695">
        <ele>465.037569</ele>
        <time>2026-04-26T16:31:07.099Z</time>
      </trkpt>
      <trkpt lat="49.254677" lon="10.243864">
        <ele>465.126230</ele>
        <time>2026-04-26T16:31:10.528Z</time>
      </trkpt>
      <trkpt lat="49.254782" lon="10.243941">
        <ele>465.050594</ele>
        <time>2026-04-26T16:31:13.136Z</time>
      </trkpt>
      <trkpt lat="49.254873" lon="10.243962">
        <ele>464.990799</ele>
        <time>2026-04-26T16:31:15.177Z</time>
      </trkpt>
      <trkpt lat="49.255214" lon="10.243959">
        <ele>464.769229</ele>
        <time>2026-04-26T16:31:22.494Z</time>
      </trkpt>
      <trkpt lat="49.255211" lon="10.245669">
        <ele>464.044035</ele>
        <time>2026-04-26T16:31:43.520Z</time>
      </trkpt>
      <trkpt lat="49.255197" lon="10.245877">
        <ele>463.958459</ele>
        <time>2026-04-26T16:31:45.946Z</time>
      </trkpt>
      <trkpt lat="49.255120" lon="10.246389">
        <ele>463.762994</ele>
        <time>2026-04-26T16:31:52.137Z</time>
      </trkpt>
      <trkpt lat="49.255037" lon="10.246683">
        <ele>463.643827</ele>
        <time>2026-04-26T16:31:56.004Z</time>
      </trkpt>
      <trkpt lat="49.254728" lon="10.247403">
        <ele>463.323254</ele>
        <time>2026-04-26T16:32:06.932Z</time>
      </trkpt>
      <trkpt lat="49.254550" lon="10.247801">
        <ele>463.143763</ele>
        <time>2026-04-26T16:32:13.383Z</time>
      </trkpt>
      <trkpt lat="49.253954" lon="10.249070">
        <ele>464.536535</ele>
        <time>2026-04-26T16:32:36.533Z</time>
      </trkpt>
      <trkpt lat="49.253869" lon="10.249181">
        <ele>464.792452</ele>
        <time>2026-04-26T16:32:39.202Z</time>
      </trkpt>
      <trkpt lat="49.253509" lon="10.249804">
        <ele>466.036891</ele>
        <time>2026-04-26T16:32:52.365Z</time>
      </trkpt>
      <trkpt lat="49.253325" lon="10.250233">
        <ele>466.804634</ele>
        <time>2026-04-26T16:33:00.718Z</time>
      </trkpt>
      <trkpt lat="49.252946" lon="10.251655">
        <ele>468.948894</ele>
        <time>2026-04-26T16:33:25.246Z</time>
      </trkpt>
      <trkpt lat="49.252884" lon="10.252239">
        <ele>469.766967</ele>
        <time>2026-04-26T16:33:34.189Z</time>
      </trkpt>
      <trkpt lat="49.252815" lon="10.253727">
        <ele>471.232674</ele>
        <time>2026-04-26T16:33:55.594Z</time>
      </trkpt>
      <trkpt lat="49.252707" lon="10.255356">
        <ele>472.063258</ele>
        <time>2026-04-26T16:34:19.127Z</time>
      </trkpt>
      <trkpt lat="49.252613" lon="10.256154">
        <ele>472.716684</ele>
        <time>2026-04-26T16:34:31.174Z</time>
      </trkpt>
      <trkpt lat="49.252524" lon="10.256749">
        <ele>473.420939</ele>
        <time>2026-04-26T16:34:40.338Z</time>
      </trkpt>
      <trkpt lat="49.252294" lon="10.257945">
        <ele>474.859428</ele>
        <time>2026-04-26T16:34:59.324Z</time>
      </trkpt>
      <trkpt lat="49.252157" lon="10.258462">
        <ele>475.510620</ele>
        <time>2026-04-26T16:35:07.888Z</time>
      </trkpt>
      <trkpt lat="49.251502" lon="10.260482">
        <ele>478.604243</ele>
        <time>2026-04-26T16:35:42.960Z</time>
      </trkpt>
      <trkpt lat="49.251151" lon="10.261245">
        <ele>479.214993</ele>
        <time>2026-04-26T16:35:56.744Z</time>
      </trkpt>
      <trkpt lat="49.251095" lon="10.261280">
        <ele>479.209393</ele>
        <time>2026-04-26T16:35:58.044Z</time>
      </trkpt>
      <trkpt lat="49.251017" lon="10.261252">
        <ele>479.201976</ele>
        <time>2026-04-26T16:35:59.747Z</time>
      </trkpt>
      <trkpt lat="49.250566" lon="10.260891">
        <ele>479.154865</ele>
        <time>2026-04-26T16:36:09.971Z</time>
      </trkpt>
      <trkpt lat="49.250420" lon="10.260829">
        <ele>479.140838</ele>
        <time>2026-04-26T16:36:12.948Z</time>
      </trkpt>
      <trkpt lat="49.250165" lon="10.260843">
        <ele>479.117214</ele>
        <time>2026-04-26T16:36:17.921Z</time>
      </trkpt>
      <trkpt lat="49.249945" lon="10.260913">
        <ele>479.096411</ele>
        <time>2026-04-26T16:36:22.260Z</time>
      </trkpt>
      <trkpt lat="49.249858" lon="10.261033">
        <ele>479.085573</ele>
        <time>2026-04-26T16:36:24.534Z</time>
      </trkpt>
      <trkpt lat="49.249801" lon="10.261227">
        <ele>479.085431</ele>
        <time>2026-04-26T16:36:27.300Z</time>
      </trkpt>
      <trkpt lat="49.249447" lon="10.262709">
        <ele>479.292543</ele>
        <time>2026-04-26T16:36:49.564Z</time>
      </trkpt>
      <trkpt lat="49.249350" lon="10.262982">
        <ele>479.333336</ele>
        <time>2026-04-26T16:36:54.095Z</time>
      </trkpt>
      <trkpt lat="49.249126" lon="10.263253">
        <ele>479.390723</ele>
        <time>2026-04-26T16:37:00.398Z</time>
      </trkpt>
      <trkpt lat="49.248691" lon="10.263516">
        <ele>479.699677</ele>
        <time>2026-04-26T16:37:10.506Z</time>
      </trkpt>
      <trkpt lat="49.248130" lon="10.264062">
        <ele>480.452336</ele>
        <time>2026-04-26T16:37:24.513Z</time>
      </trkpt>
      <trkpt lat="49.247497" lon="10.264336">
        <ele>481.197226</ele>
        <time>2026-04-26T16:37:39.631Z</time>
      </trkpt>
      <trkpt lat="49.247225" lon="10.264748">
        <ele>481.879065</ele>
        <time>2026-04-26T16:37:48.752Z</time>
      </trkpt>
      <trkpt lat="49.247004" lon="10.265542">
        <ele>483.539358</ele>
        <time>2026-04-26T16:38:02.630Z</time>
      </trkpt>
      <trkpt lat="49.247128" lon="10.265821">
        <ele>484.188587</ele>
        <time>2026-04-26T16:38:08.168Z</time>
      </trkpt>
      <trkpt lat="49.247283" lon="10.266333">
        <ele>485.274166</ele>
        <time>2026-04-26T16:38:17.380Z</time>
      </trkpt>
      <trkpt lat="49.247345" lon="10.266579">
        <ele>485.781387</ele>
        <time>2026-04-26T16:38:21.596Z</time>
      </trkpt>
      <trkpt lat="49.247394" lon="10.266773">
        <ele>486.181502</ele>
        <time>2026-04-26T16:38:26.150Z</time>
      </trkpt>
      <trkpt lat="49.247803" lon="10.268395">
        <ele>487.857952</ele>
        <time>2026-04-26T16:39:04.252Z</time>
      </trkpt>
      <trkpt lat="49.247908" lon="10.269108">
        <ele>488.411395</ele>
        <time>2026-04-26T16:39:20.560Z</time>
      </trkpt>
      <trkpt lat="49.247946" lon="10.269685">
        <ele>488.850510</ele>
        <time>2026-04-26T16:39:33.625Z</time>
      </trkpt>
      <trkpt lat="49.247919" lon="10.272928">
        <ele>486.758695</ele>
        <time>2026-04-26T16:40:44.899Z</time>
      </trkpt>
      <trkpt lat="49.247913" lon="10.275194">
        <ele>484.400054</ele>
        <time>2026-04-26T16:41:32.302Z</time>
      </trkpt>
      <trkpt lat="49.247889" lon="10.275456">
        <ele>484.099382</ele>
        <time>2026-04-26T16:41:37.737Z</time>
      </trkpt>
      <trkpt lat="49.249103" lon="10.276415">
        <ele>481.708900</ele>
        <time>2026-04-26T16:42:02.244Z</time>
      </trkpt>
      <trkpt lat="49.250239" lon="10.277476">
        <ele>478.946560</ele>
        <time>2026-04-26T16:42:26.218Z</time>
      </trkpt>
      <trkpt lat="49.250605" lon="10.277867">
        <ele>477.983072</ele>
        <time>2026-04-26T16:42:33.697Z</time>
      </trkpt>
      <trkpt lat="49.251293" lon="10.278631">
        <ele>476.563920</ele>
        <time>2026-04-26T16:42:47.739Z</time>
      </trkpt>
      <trkpt lat="49.251863" lon="10.279413">
        <ele>475.482170</ele>
        <time>2026-04-26T16:43:01.683Z</time>
      </trkpt>
      <trkpt lat="49.252132" lon="10.279852">
        <ele>474.926514</ele>
        <time>2026-04-26T16:43:09.894Z</time>
      </trkpt>
      <trkpt lat="49.252879" lon="10.281212">
        <ele>474.912300</ele>
        <time>2026-04-26T16:43:35.915Z</time>
      </trkpt>
      <trkpt lat="49.252944" lon="10.281310">
        <ele>474.921018</ele>
        <time>2026-04-26T16:43:37.859Z</time>
      </trkpt>
      <trkpt lat="49.253139" lon="10.281525">
        <ele>474.943986</ele>
        <time>2026-04-26T16:43:42.800Z</time>
      </trkpt>
      <trkpt lat="49.253427" lon="10.281768">
        <ele>474.975419</ele>
        <time>2026-04-26T16:43:49.288Z</time>
      </trkpt>
      <trkpt lat="49.253723" lon="10.281950">
        <ele>474.611614</ele>
        <time>2026-04-26T16:43:55.386Z</time>
      </trkpt>
      <trkpt lat="49.253892" lon="10.282111">
        <ele>474.326288</ele>
        <time>2026-04-26T16:43:59.102Z</time>
      </trkpt>
      <trkpt lat="49.254086" lon="10.282467">
        <ele>473.892291</ele>
        <time>2026-04-26T16:44:04.506Z</time>
      </trkpt>
      <trkpt lat="49.253964" lon="10.282684">
        <ele>473.624273</ele>
        <time>2026-04-26T16:44:07.783Z</time>
      </trkpt>
      <trkpt lat="49.253849" lon="10.283032">
        <ele>473.259250</ele>
        <time>2026-04-26T16:44:12.219Z</time>
      </trkpt>
      <trkpt lat="49.253800" lon="10.283363">
        <ele>472.941628</ele>
        <time>2026-04-26T16:44:16.149Z</time>
      </trkpt>
      <trkpt lat="49.253696" lon="10.284056">
        <ele>472.353639</ele>
        <time>2026-04-26T16:44:24.959Z</time>
      </trkpt>
      <trkpt lat="49.253633" lon="10.284250">
        <ele>472.275225</ele>
        <time>2026-04-26T16:44:28.770Z</time>
      </trkpt>
      <trkpt lat="49.253506" lon="10.284481">
        <ele>472.165928</ele>
        <time>2026-04-26T16:44:34.075Z</time>
      </trkpt>
      <trkpt lat="49.253027" lon="10.285233">
        <ele>471.785684</ele>
        <time>2026-04-26T16:44:52.671Z</time>
      </trkpt>
      <trkpt lat="49.253124" lon="10.285259">
        <ele>471.731088</ele>
        <time>2026-04-26T16:44:55.358Z</time>
      </trkpt>
      <trkpt lat="49.253487" lon="10.285500">
        <ele>471.511747</ele>
        <time>2026-04-26T16:45:06.153Z</time>
      </trkpt>
      <trkpt lat="49.253476" lon="10.286049">
        <ele>471.208254</ele>
        <time>2026-04-26T16:45:13.447Z</time>
      </trkpt>
      <trkpt lat="49.253344" lon="10.286716">
        <ele>470.669781</ele>
        <time>2026-04-26T16:45:22.472Z</time>
      </trkpt>
      <trkpt lat="49.253178" lon="10.287521">
        <ele>470.017556</ele>
        <time>2026-04-26T16:45:32.911Z</time>
      </trkpt>
      <trkpt lat="49.253089" lon="10.288111">
        <ele>469.549719</ele>
        <time>2026-04-26T16:45:40.051Z</time>
      </trkpt>
      <trkpt lat="49.252941" lon="10.289725">
        <ele>468.368938</ele>
        <time>2026-04-26T16:45:59.088Z</time>
      </trkpt>
      <trkpt lat="49.252891" lon="10.290234">
        <ele>468.002896</ele>
        <time>2026-04-26T16:46:05.514Z</time>
      </trkpt>
      <trkpt lat="49.252856" lon="10.290679">
        <ele>467.684153</ele>
        <time>2026-04-26T16:46:11.282Z</time>
      </trkpt>
      <trkpt lat="49.252743" lon="10.292006">
        <ele>467.771826</ele>
        <time>2026-04-26T16:46:29.712Z</time>
      </trkpt>
      <trkpt lat="49.252680" lon="10.292765">
        <ele>468.195657</ele>
        <time>2026-04-26T16:46:40.843Z</time>
      </trkpt>
      <trkpt lat="49.252575" lon="10.293936">
        <ele>468.856747</ele>
        <time>2026-04-26T16:46:58.535Z</time>
      </trkpt>
      <trkpt lat="49.252540" lon="10.294543">
        <ele>469.489037</ele>
        <time>2026-04-26T16:47:07.797Z</time>
      </trkpt>
      <trkpt lat="49.252580" lon="10.295196">
        <ele>470.169582</ele>
        <time>2026-04-26T16:47:17.748Z</time>
      </trkpt>
      <trkpt lat="49.252697" lon="10.295962">
        <ele>470.985871</ele>
        <time>2026-04-26T16:47:29.685Z</time>
      </trkpt>
      <trkpt lat="49.252748" lon="10.296297">
        <ele>471.342803</ele>
        <time>2026-04-26T16:47:34.826Z</time>
      </trkpt>
      <trkpt lat="49.252914" lon="10.297417">
        <ele>471.814299</ele>
        <time>2026-04-26T16:47:51.675Z</time>
      </trkpt>
      <trkpt lat="49.252960" lon="10.297792">
        <ele>471.867525</ele>
        <time>2026-04-26T16:47:57.117Z</time>
      </trkpt>
      <trkpt lat="49.253191" lon="10.299420">
        <ele>472.065558</ele>
        <time>2026-04-26T16:48:19.547Z</time>
      </trkpt>
      <trkpt lat="49.253207" lon="10.299552">
        <ele>472.035143</ele>
        <time>2026-04-26T16:48:21.318Z</time>
      </trkpt>
      <trkpt lat="49.253303" lon="10.300115">
        <ele>471.903321</ele>
        <time>2026-04-26T16:48:28.977Z</time>
      </trkpt>
      <trkpt lat="49.253367" lon="10.300295">
        <ele>471.856886</ele>
        <time>2026-04-26T16:48:31.667Z</time>
      </trkpt>
      <trkpt lat="49.253391" lon="10.300358">
        <ele>471.840361</ele>
        <time>2026-04-26T16:48:32.626Z</time>
      </trkpt>
      <trkpt lat="49.253830" lon="10.301460">
        <ele>471.547893</ele>
        <time>2026-04-26T16:48:49.578Z</time>
      </trkpt>
      <trkpt lat="49.254269" lon="10.302586">
        <ele>471.593159</ele>
        <time>2026-04-26T16:49:07.620Z</time>
      </trkpt>
      <trkpt lat="49.254286" lon="10.302632">
        <ele>471.600542</ele>
        <time>2026-04-26T16:49:08.376Z</time>
      </trkpt>
      <trkpt lat="49.254393" lon="10.303044">
        <ele>471.662477</ele>
        <time>2026-04-26T16:49:14.681Z</time>
      </trkpt>
      <trkpt lat="49.254522" lon="10.303587">
        <ele>471.743189</ele>
        <time>2026-04-26T16:49:22.954Z</time>
      </trkpt>
      <trkpt lat="49.254562" lon="10.303738">
        <ele>471.765951</ele>
        <time>2026-04-26T16:49:25.300Z</time>
      </trkpt>
      <trkpt lat="49.254684" lon="10.304061">
        <ele>471.818076</ele>
        <time>2026-04-26T16:49:30.670Z</time>
      </trkpt>
      <trkpt lat="49.254879" lon="10.304375">
        <ele>471.739591</ele>
        <time>2026-04-26T16:49:36.813Z</time>
      </trkpt>
      <trkpt lat="49.255337" lon="10.304751">
        <ele>471.354363</ele>
        <time>2026-04-26T16:49:47.742Z</time>
      </trkpt>
      <trkpt lat="49.255565" lon="10.304900">
        <ele>471.170593</ele>
        <time>2026-04-26T16:49:52.755Z</time>
      </trkpt>
      <trkpt lat="49.255963" lon="10.305249">
        <ele>470.830613</ele>
        <time>2026-04-26T16:50:01.552Z</time>
      </trkpt>
      <trkpt lat="49.256256" lon="10.305665">
        <ele>470.534458</ele>
        <time>2026-04-26T16:50:08.749Z</time>
      </trkpt>
      <trkpt lat="49.256443" lon="10.306023">
        <ele>469.995611</ele>
        <time>2026-04-26T16:50:13.938Z</time>
      </trkpt>
      <trkpt lat="49.256473" lon="10.306087">
        <ele>469.897478</ele>
        <time>2026-04-26T16:50:14.824Z</time>
      </trkpt>
      <trkpt lat="49.257554" lon="10.308683">
        <ele>466.692740</ele>
        <time>2026-04-26T16:50:50.322Z</time>
      </trkpt>
      <trkpt lat="49.258054" lon="10.308314">
        <ele>466.288492</ele>
        <time>2026-04-26T16:51:01.351Z</time>
      </trkpt>
      <trkpt lat="49.258438" lon="10.308124">
        <ele>465.994562</ele>
        <time>2026-04-26T16:51:09.675Z</time>
      </trkpt>
      <trkpt lat="49.258517" lon="10.308438">
        <ele>465.834582</ele>
        <time>2026-04-26T16:51:14.382Z</time>
      </trkpt>
      <trkpt lat="49.258620" lon="10.308698">
        <ele>465.967686</ele>
        <time>2026-04-26T16:51:18.713Z</time>
      </trkpt>
      <trkpt lat="49.258964" lon="10.309132">
        <ele>466.745586</ele>
        <time>2026-04-26T16:51:28.623Z</time>
      </trkpt>
      <trkpt lat="49.259579" lon="10.309941">
        <ele>468.160572</ele>
        <time>2026-04-26T16:51:47.662Z</time>
      </trkpt>
      <trkpt lat="49.259791" lon="10.310148">
        <ele>468.599419</ele>
        <time>2026-04-26T16:51:53.762Z</time>
      </trkpt>
      <trkpt lat="49.260019" lon="10.310315">
        <ele>469.006105</ele>
        <time>2026-04-26T16:51:59.868Z</time>
      </trkpt>
      <trkpt lat="49.260457" lon="10.310541">
        <ele>469.597174</ele>
        <time>2026-04-26T16:52:10.869Z</time>
      </trkpt>
      <trkpt lat="49.260345" lon="10.310856">
        <ele>469.896574</ele>
        <time>2026-04-26T16:52:16.358Z</time>
      </trkpt>
      <trkpt lat="49.259825" lon="10.312359">
        <ele>471.322683</ele>
        <time>2026-04-26T16:52:40.567Z</time>
      </trkpt>
      <trkpt lat="49.259683" lon="10.312943">
        <ele>471.874009</ele>
        <time>2026-04-26T16:52:49.167Z</time>
      </trkpt>
      <trkpt lat="49.259583" lon="10.313590">
        <ele>472.462208</ele>
        <time>2026-04-26T16:52:58.823Z</time>
      </trkpt>
      <trkpt lat="49.259552" lon="10.313960">
        <ele>472.792215</ele>
        <time>2026-04-26T16:53:04.401Z</time>
      </trkpt>
      <trkpt lat="49.259539" lon="10.314472">
        <ele>473.245499</ele>
        <time>2026-04-26T16:53:12.235Z</time>
      </trkpt>
      <trkpt lat="49.259561" lon="10.314911">
        <ele>473.635003</ele>
        <time>2026-04-26T16:53:19.113Z</time>
      </trkpt>
      <trkpt lat="49.259671" lon="10.315736">
        <ele>475.051849</ele>
        <time>2026-04-26T16:53:32.551Z</time>
      </trkpt>
      <trkpt lat="49.259762" lon="10.316136">
        <ele>475.771583</ele>
        <time>2026-04-26T16:53:39.270Z</time>
      </trkpt>
      <trkpt lat="49.260008" lon="10.316893">
        <ele>477.208397</ele>
        <time>2026-04-26T16:53:52.583Z</time>
      </trkpt>
      <trkpt lat="49.261618" lon="10.320438">
        <ele>482.966786</ele>
        <time>2026-04-26T16:54:58.081Z</time>
      </trkpt>
      <trkpt lat="49.262056" lon="10.321477">
        <ele>484.675294</ele>
        <time>2026-04-26T16:55:17.059Z</time>
      </trkpt>
      <trkpt lat="49.262247" lon="10.322034">
        <ele>485.537523</ele>
        <time>2026-04-26T16:55:26.764Z</time>
      </trkpt>
      <trkpt lat="49.262535" lon="10.323071">
        <ele>486.404287</ele>
        <time>2026-04-26T16:55:44.288Z</time>
      </trkpt>
      <trkpt lat="49.262812" lon="10.324265">
        <ele>487.378875</ele>
        <time>2026-04-26T16:56:03.197Z</time>
      </trkpt>
      <trkpt lat="49.262906" lon="10.324795">
        <ele>487.081017</ele>
        <time>2026-04-26T16:56:10.562Z</time>
      </trkpt>
      <trkpt lat="49.262950" lon="10.326470">
        <ele>482.287726</ele>
        <time>2026-04-26T16:56:27.843Z</time>
      </trkpt>
      <trkpt lat="49.263031" lon="10.326924">
        <ele>480.941942</ele>
        <time>2026-04-26T16:56:32.244Z</time>
      </trkpt>
      <trkpt lat="49.263209" lon="10.327507">
        <ele>478.692519</ele>
        <time>2026-04-26T16:56:38.174Z</time>
      </trkpt>
      <trkpt lat="49.263700" lon="10.328477">
        <ele>473.027569</ele>
        <time>2026-04-26T16:56:49.380Z</time>
      </trkpt>
      <trkpt lat="49.264055" lon="10.329042">
        <ele>469.408231</ele>
        <time>2026-04-26T16:56:56.692Z</time>
      </trkpt>
      <trkpt lat="49.264430" lon="10.329575">
        <ele>466.191886</ele>
        <time>2026-04-26T16:57:04.230Z</time>
      </trkpt>
      <trkpt lat="49.265198" lon="10.330515">
        <ele>461.455000</ele>
        <time>2026-04-26T16:57:19.355Z</time>
      </trkpt>
      <trkpt lat="49.265493" lon="10.330915">
        <ele>459.556678</ele>
        <time>2026-04-26T16:57:25.402Z</time>
      </trkpt>
      <trkpt lat="49.265526" lon="10.330734">
        <ele>458.965661</ele>
        <time>2026-04-26T16:57:28.837Z</time>
      </trkpt>
      <trkpt lat="49.265493" lon="10.330915">
        <ele>458.377162</ele>
        <time>2026-04-26T16:57:32.258Z</time>
      </trkpt>
      <trkpt lat="49.265949" lon="10.331658">
        <ele>456.506540</ele>
        <time>2026-04-26T16:57:42.372Z</time>
      </trkpt>
      <trkpt lat="49.266624" lon="10.332929">
        <ele>453.501176</ele>
        <time>2026-04-26T16:58:00.539Z</time>
      </trkpt>
      <trkpt lat="49.267021" lon="10.332557">
        <ele>453.866818</ele>
        <time>2026-04-26T16:58:16.455Z</time>
      </trkpt>
      <trkpt lat="49.267331" lon="10.332393">
        <ele>454.307331</ele>
        <time>2026-04-26T16:58:27.479Z</time>
      </trkpt>
      <trkpt lat="49.267647" lon="10.332325">
        <ele>454.735954</ele>
        <time>2026-04-26T16:58:38.158Z</time>
      </trkpt>
      <trkpt lat="49.268333" lon="10.332370">
        <ele>455.658251</ele>
        <time>2026-04-26T16:59:01.177Z</time>
      </trkpt>
      <trkpt lat="49.268785" lon="10.332373">
        <ele>455.830515</ele>
        <time>2026-04-26T16:59:16.457Z</time>
      </trkpt>
      <trkpt lat="49.269141" lon="10.332319">
        <ele>455.912053</ele>
        <time>2026-04-26T16:59:28.658Z</time>
      </trkpt>
      <trkpt lat="49.270694" lon="10.331787">
        <ele>454.958277</ele>
        <time>2026-04-26T17:00:23.638Z</time>
      </trkpt>
      <trkpt lat="49.270843" lon="10.331760">
        <ele>454.626923</ele>
        <time>2026-04-26T17:00:28.313Z</time>
      </trkpt>
      <trkpt lat="49.270893" lon="10.331963">
        <ele>454.314255</ele>
        <time>2026-04-26T17:00:32.671Z</time>
      </trkpt>
      <trkpt lat="49.270994" lon="10.332649">
        <ele>453.300886</ele>
        <time>2026-04-26T17:00:46.440Z</time>
      </trkpt>
      <trkpt lat="49.271056" lon="10.332816">
        <ele>453.024014</ele>
        <time>2026-04-26T17:00:50.124Z</time>
      </trkpt>
      <trkpt lat="49.271919" lon="10.333364">
        <ele>450.767091</ele>
        <time>2026-04-26T17:01:17.328Z</time>
      </trkpt>
      <trkpt lat="49.272165" lon="10.333611">
        <ele>450.014236</ele>
        <time>2026-04-26T17:01:26.142Z</time>
      </trkpt>
      <trkpt lat="49.272406" lon="10.333918">
        <ele>449.212010</ele>
        <time>2026-04-26T17:01:31.759Z</time>
      </trkpt>
      <trkpt lat="49.272478" lon="10.334102">
        <ele>448.853646</ele>
        <time>2026-04-26T17:01:34.313Z</time>
      </trkpt>
      <trkpt lat="49.272709" lon="10.334214">
        <ele>448.233412</ele>
        <time>2026-04-26T17:01:38.793Z</time>
      </trkpt>
      <trkpt lat="49.272795" lon="10.334162">
        <ele>447.996743</ele>
        <time>2026-04-26T17:01:40.519Z</time>
      </trkpt>
      <trkpt lat="49.272904" lon="10.334173">
        <ele>447.717104</ele>
        <time>2026-04-26T17:01:42.553Z</time>
      </trkpt>
      <trkpt lat="49.273267" lon="10.334575">
        <ele>447.100808</ele>
        <time>2026-04-26T17:01:51.207Z</time>
      </trkpt>
      <trkpt lat="49.273666" lon="10.334704">
        <ele>446.607994</ele>
        <time>2026-04-26T17:01:59.362Z</time>
      </trkpt>
      <trkpt lat="49.273824" lon="10.334841">
        <ele>446.388608</ele>
        <time>2026-04-26T17:02:03.019Z</time>
      </trkpt>
      <trkpt lat="49.273860" lon="10.334981">
        <ele>446.269954</ele>
        <time>2026-04-26T17:02:05.042Z</time>
      </trkpt>
      <trkpt lat="49.274589" lon="10.334860">
        <ele>445.389293</ele>
        <time>2026-04-26T17:02:19.244Z</time>
      </trkpt>
      <trkpt lat="49.275185" lon="10.334741">
        <ele>444.892597</ele>
        <time>2026-04-26T17:02:30.805Z</time>
      </trkpt>
      <trkpt lat="49.275338" lon="10.334621">
        <ele>444.750565</ele>
        <time>2026-04-26T17:02:34.145Z</time>
      </trkpt>
      <trkpt lat="49.275457" lon="10.334438">
        <ele>444.611259</ele>
        <time>2026-04-26T17:02:37.430Z</time>
      </trkpt>
      <trkpt lat="49.275529" lon="10.334219">
        <ele>444.479038</ele>
        <time>2026-04-26T17:02:40.551Z</time>
      </trkpt>
      <trkpt lat="49.275720" lon="10.332759">
        <ele>444.042213</ele>
        <time>2026-04-26T17:02:59.870Z</time>
      </trkpt>
      <trkpt lat="49.275888" lon="10.332334">
        <ele>444.185276</ele>
        <time>2026-04-26T17:03:06.827Z</time>
      </trkpt>
      <trkpt lat="49.276097" lon="10.332029">
        <ele>444.312619</ele>
        <time>2026-04-26T17:03:13.128Z</time>
      </trkpt>
      <trkpt lat="49.276125" lon="10.331989">
        <ele>444.329509</ele>
        <time>2026-04-26T17:03:13.964Z</time>
      </trkpt>
      <trkpt lat="49.276346" lon="10.331682">
        <ele>444.461124</ele>
        <time>2026-04-26T17:03:20.563Z</time>
      </trkpt>
      <trkpt lat="49.277351" lon="10.330410">
        <ele>445.750902</ele>
        <time>2026-04-26T17:03:50.195Z</time>
      </trkpt>
      <trkpt lat="49.278461" lon="10.329233">
        <ele>447.562701</ele>
        <time>2026-04-26T17:04:21.194Z</time>
      </trkpt>
      <trkpt lat="49.278540" lon="10.328950">
        <ele>447.788180</ele>
        <time>2026-04-26T17:04:25.937Z</time>
      </trkpt>
      <trkpt lat="49.278526" lon="10.328538">
        <ele>448.090382</ele>
        <time>2026-04-26T17:04:32.107Z</time>
      </trkpt>
      <trkpt lat="49.277880" lon="10.323422">
        <ele>450.323996</ele>
        <time>2026-04-26T17:05:48.064Z</time>
      </trkpt>
      <trkpt lat="49.277880" lon="10.323025">
        <ele>450.164661</ele>
        <time>2026-04-26T17:05:52.964Z</time>
      </trkpt>
      <trkpt lat="49.277900" lon="10.322808">
        <ele>450.076703</ele>
        <time>2026-04-26T17:05:55.584Z</time>
      </trkpt>
      <trkpt lat="49.277923" lon="10.322562">
        <ele>449.976963</ele>
        <time>2026-04-26T17:05:58.548Z</time>
      </trkpt>
      <trkpt lat="49.278057" lon="10.322137">
        <ele>449.787514</ele>
        <time>2026-04-26T17:06:04.155Z</time>
      </trkpt>
      <trkpt lat="49.278290" lon="10.321777">
        <ele>449.583989</ele>
        <time>2026-04-26T17:06:10.150Z</time>
      </trkpt>
      <trkpt lat="49.278493" lon="10.321551">
        <ele>449.497681</ele>
        <time>2026-04-26T17:06:14.821Z</time>
      </trkpt>
      <trkpt lat="49.279381" lon="10.320679">
        <ele>449.173346</ele>
        <time>2026-04-26T17:06:36.246Z</time>
      </trkpt>
      <trkpt lat="49.279452" lon="10.320614">
        <ele>449.147912</ele>
        <time>2026-04-26T17:06:38.062Z</time>
      </trkpt>
      <trkpt lat="49.279870" lon="10.320250">
        <ele>449.062672</ele>
        <time>2026-04-26T17:06:48.658Z</time>
      </trkpt>
      <trkpt lat="49.280081" lon="10.320113">
        <ele>449.346014</ele>
        <time>2026-04-26T17:06:53.760Z</time>
      </trkpt>
      <trkpt lat="49.280565" lon="10.319910">
        <ele>449.966481</ele>
        <time>2026-04-26T17:07:05.028Z</time>
      </trkpt>
      <trkpt lat="49.280748" lon="10.319789">
        <ele>450.212915</ele>
        <time>2026-04-26T17:07:09.562Z</time>
      </trkpt>
      <trkpt lat="49.280888" lon="10.319593">
        <ele>450.447357</ele>
        <time>2026-04-26T17:07:13.907Z</time>
      </trkpt>
      <trkpt lat="49.280996" lon="10.319354">
        <ele>450.681879</ele>
        <time>2026-04-26T17:07:18.290Z</time>
      </trkpt>
      <trkpt lat="49.281062" lon="10.319082">
        <ele>450.915969</ele>
        <time>2026-04-26T17:07:22.677Z</time>
      </trkpt>
      <trkpt lat="49.281108" lon="10.318734">
        <ele>451.202382</ele>
        <time>2026-04-26T17:07:28.094Z</time>
      </trkpt>
      <trkpt lat="49.281129" lon="10.318333">
        <ele>451.544252</ele>
        <time>2026-04-26T17:07:34.217Z</time>
      </trkpt>
      <trkpt lat="49.281123" lon="10.317990">
        <ele>451.837586</ele>
        <time>2026-04-26T17:07:39.376Z</time>
      </trkpt>
      <trkpt lat="49.281045" lon="10.316926">
        <ele>452.752920</ele>
        <time>2026-04-26T17:07:55.164Z</time>
      </trkpt>
      <trkpt lat="49.281135" lon="10.316483">
        <ele>453.149579</ele>
        <time>2026-04-26T17:08:01.983Z</time>
      </trkpt>
      <trkpt lat="49.281380" lon="10.315734">
        <ele>453.907799</ele>
        <time>2026-04-26T17:08:14.392Z</time>
      </trkpt>
      <trkpt lat="49.281445" lon="10.315337">
        <ele>454.311601</ele>
        <time>2026-04-26T17:08:20.417Z</time>
      </trkpt>
      <trkpt lat="49.281427" lon="10.314435">
        <ele>455.201872</ele>
        <time>2026-04-26T17:08:33.807Z</time>
      </trkpt>
      <trkpt lat="49.281500" lon="10.313767">
        <ele>455.870060</ele>
        <time>2026-04-26T17:08:44.083Z</time>
      </trkpt>
      <trkpt lat="49.281630" lon="10.313034">
        <ele>456.798509</ele>
        <time>2026-04-26T17:08:55.699Z</time>
      </trkpt>
      <trkpt lat="49.281757" lon="10.312603">
        <ele>457.538373</ele>
        <time>2026-04-26T17:09:02.897Z</time>
      </trkpt>
      <trkpt lat="49.281914" lon="10.312236">
        <ele>458.224960</ele>
        <time>2026-04-26T17:09:09.605Z</time>
      </trkpt>
      <trkpt lat="49.282102" lon="10.311877">
        <ele>458.945165</ele>
        <time>2026-04-26T17:09:16.680Z</time>
      </trkpt>
      <trkpt lat="49.282161" lon="10.311633">
        <ele>459.352262</ele>
        <time>2026-04-26T17:09:20.695Z</time>
      </trkpt>
      <trkpt lat="49.282362" lon="10.310389">
        <ele>462.029848</ele>
        <time>2026-04-26T17:09:40.888Z</time>
      </trkpt>
      <trkpt lat="49.282486" lon="10.310102">
        <ele>463.064613</ele>
        <time>2026-04-26T17:09:46.474Z</time>
      </trkpt>
      <trkpt lat="49.282631" lon="10.309726">
        <ele>464.377565</ele>
        <time>2026-04-26T17:09:53.690Z</time>
      </trkpt>
      <trkpt lat="49.282826" lon="10.308859">
        <ele>467.134244</ele>
        <time>2026-04-26T17:10:09.537Z</time>
      </trkpt>
      <trkpt lat="49.282924" lon="10.308533">
        <ele>468.213213</ele>
        <time>2026-04-26T17:10:16.121Z</time>
      </trkpt>
      <trkpt lat="49.283029" lon="10.308285">
        <ele>469.195113</ele>
        <time>2026-04-26T17:10:21.820Z</time>
      </trkpt>
      <trkpt lat="49.283482" lon="10.307416">
        <ele>474.208493</ele>
        <time>2026-04-26T17:10:43.860Z</time>
      </trkpt>
      <trkpt lat="49.283602" lon="10.307009">
        <ele>476.221436</ele>
        <time>2026-04-26T17:10:52.761Z</time>
      </trkpt>
      <trkpt lat="49.283612" lon="10.306516">
        <ele>478.444371</ele>
        <time>2026-04-26T17:11:02.521Z</time>
      </trkpt>
      <trkpt lat="49.283874" lon="10.303874">
        <ele>491.008853</ele>
        <time>2026-04-26T17:11:54.427Z</time>
      </trkpt>
      <trkpt lat="49.283915" lon="10.302774">
        <ele>495.922938</ele>
        <time>2026-04-26T17:12:17.948Z</time>
      </trkpt>
      <trkpt lat="49.283891" lon="10.302435">
        <ele>497.242416</ele>
        <time>2026-04-26T17:12:25.611Z</time>
      </trkpt>
      <trkpt lat="49.283823" lon="10.302055">
        <ele>498.767168</ele>
        <time>2026-04-26T17:12:34.236Z</time>
      </trkpt>
      <trkpt lat="49.283642" lon="10.301319">
        <ele>501.810833</ele>
        <time>2026-04-26T17:12:49.540Z</time>
      </trkpt>
      <trkpt lat="49.283633" lon="10.301099">
        <ele>502.663809</ele>
        <time>2026-04-26T17:12:53.366Z</time>
      </trkpt>
      <trkpt lat="49.283691" lon="10.300872">
        <ele>503.607178</ele>
        <time>2026-04-26T17:12:57.440Z</time>
      </trkpt>
      <trkpt lat="49.283769" lon="10.300844">
        <ele>504.082394</ele>
        <time>2026-04-26T17:12:59.408Z</time>
      </trkpt>
      <trkpt lat="49.283864" lon="10.300871">
        <ele>504.655542</ele>
        <time>2026-04-26T17:13:01.737Z</time>
      </trkpt>
      <trkpt lat="49.284260" lon="10.301085">
        <ele>505.051071</ele>
        <time>2026-04-26T17:13:11.344Z</time>
      </trkpt>
      <trkpt lat="49.284359" lon="10.301326">
        <ele>504.998823</ele>
        <time>2026-04-26T17:13:15.333Z</time>
      </trkpt>
      <trkpt lat="49.284449" lon="10.301581">
        <ele>504.945635</ele>
        <time>2026-04-26T17:13:19.104Z</time>
      </trkpt>
      <trkpt lat="49.284534" lon="10.301820">
        <ele>504.895698</ele>
        <time>2026-04-26T17:13:22.384Z</time>
      </trkpt>
      <trkpt lat="49.284731" lon="10.302240">
        <ele>504.800799</ele>
        <time>2026-04-26T17:13:28.473Z</time>
      </trkpt>
      <trkpt lat="49.284801" lon="10.302541">
        <ele>504.742177</ele>
        <time>2026-04-26T17:13:32.429Z</time>
      </trkpt>
      <trkpt lat="49.285006" lon="10.303754">
        <ele>504.735133</ele>
        <time>2026-04-26T17:13:49.899Z</time>
      </trkpt>
      <trkpt lat="49.285102" lon="10.303886">
        <ele>504.762116</ele>
        <time>2026-04-26T17:13:52.743Z</time>
      </trkpt>
      <trkpt lat="49.285228" lon="10.303950">
        <ele>504.789890</ele>
        <time>2026-04-26T17:13:55.675Z</time>
      </trkpt>
      <trkpt lat="49.285433" lon="10.303929">
        <ele>504.832881</ele>
        <time>2026-04-26T17:14:00.150Z</time>
      </trkpt>
      <trkpt lat="49.285807" lon="10.303754">
        <ele>504.914702</ele>
        <time>2026-04-26T17:14:08.850Z</time>
      </trkpt>
      <trkpt lat="49.285928" lon="10.303752">
        <ele>504.940022</ele>
        <time>2026-04-26T17:14:11.547Z</time>
      </trkpt>
      <trkpt lat="49.286017" lon="10.303786">
        <ele>504.959214</ele>
        <time>2026-04-26T17:14:13.587Z</time>
      </trkpt>
      <trkpt lat="49.286029" lon="10.303655">
        <ele>504.977270</ele>
        <time>2026-04-26T17:14:15.547Z</time>
      </trkpt>
      <trkpt lat="49.287944" lon="10.302724">
        <ele>505.357083</ele>
        <time>2026-04-26T17:15:02.618Z</time>
      </trkpt>
      <trkpt lat="49.288529" lon="10.302564">
        <ele>505.720845</ele>
        <time>2026-04-26T17:15:16.984Z</time>
      </trkpt>
      <trkpt lat="49.288784" lon="10.302585">
        <ele>505.877169</ele>
        <time>2026-04-26T17:15:23.219Z</time>
      </trkpt>
      <trkpt lat="49.288995" lon="10.302507">
        <ele>506.010034</ele>
        <time>2026-04-26T17:15:28.544Z</time>
      </trkpt>
      <trkpt lat="49.289442" lon="10.302184">
        <ele>506.312534</ele>
        <time>2026-04-26T17:15:40.645Z</time>
      </trkpt>
      <trkpt lat="49.290103" lon="10.301785">
        <ele>505.880668</ele>
        <time>2026-04-26T17:15:57.435Z</time>
      </trkpt>
      <trkpt lat="49.290639" lon="10.301711">
        <ele>505.269202</ele>
        <time>2026-04-26T17:16:08.439Z</time>
      </trkpt>
      <trkpt lat="49.290914" lon="10.301808">
        <ele>504.948586</ele>
        <time>2026-04-26T17:16:13.963Z</time>
      </trkpt>
      <trkpt lat="49.291145" lon="10.302033">
        <ele>504.637641</ele>
        <time>2026-04-26T17:16:19.304Z</time>
      </trkpt>
      <trkpt lat="49.291286" lon="10.302113">
        <ele>504.466820</ele>
        <time>2026-04-26T17:16:22.269Z</time>
      </trkpt>
      <trkpt lat="49.291521" lon="10.302160">
        <ele>504.387194</ele>
        <time>2026-04-26T17:16:27.063Z</time>
      </trkpt>
      <trkpt lat="49.291947" lon="10.302247">
        <ele>504.355600</ele>
        <time>2026-04-26T17:16:36.297Z</time>
      </trkpt>
      <trkpt lat="49.292181" lon="10.302229">
        <ele>504.338376</ele>
        <time>2026-04-26T17:16:41.779Z</time>
      </trkpt>
      <trkpt lat="49.292360" lon="10.302178">
        <ele>504.324991</ele>
        <time>2026-04-26T17:16:46.118Z</time>
      </trkpt>
      <trkpt lat="49.292705" lon="10.302207">
        <ele>504.299590</ele>
        <time>2026-04-26T17:16:54.555Z</time>
      </trkpt>
      <trkpt lat="49.292817" lon="10.302250">
        <ele>504.291102</ele>
        <time>2026-04-26T17:16:57.390Z</time>
      </trkpt>
      <trkpt lat="49.292950" lon="10.302350">
        <ele>504.280212</ele>
        <time>2026-04-26T17:17:01.027Z</time>
      </trkpt>
      <trkpt lat="49.293040" lon="10.302476">
        <ele>504.271252</ele>
        <time>2026-04-26T17:17:04.039Z</time>
      </trkpt>
      <trkpt lat="49.293113" lon="10.302659">
        <ele>504.278570</ele>
        <time>2026-04-26T17:17:07.476Z</time>
      </trkpt>
      <trkpt lat="49.293170" lon="10.302925">
        <ele>504.298345</ele>
        <time>2026-04-26T17:17:11.956Z</time>
      </trkpt>
      <trkpt lat="49.293266" lon="10.303603">
        <ele>504.347347</ele>
        <time>2026-04-26T17:17:22.940Z</time>
      </trkpt>
      <trkpt lat="49.293989" lon="10.305935">
        <ele>503.545287</ele>
        <time>2026-04-26T17:18:01.007Z</time>
      </trkpt>
      <trkpt lat="49.294063" lon="10.306334">
        <ele>503.143124</ele>
        <time>2026-04-26T17:18:06.548Z</time>
      </trkpt>
      <trkpt lat="49.294058" lon="10.306889">
        <ele>502.605007</ele>
        <time>2026-04-26T17:18:13.839Z</time>
      </trkpt>
      <trkpt lat="49.294096" lon="10.307140">
        <ele>502.355196</ele>
        <time>2026-04-26T17:18:17.174Z</time>
      </trkpt>
      <trkpt lat="49.294306" lon="10.307722">
        <ele>501.615698</ele>
        <time>2026-04-26T17:18:25.610Z</time>
      </trkpt>
      <trkpt lat="49.294322" lon="10.307914">
        <ele>501.202510</ele>
        <time>2026-04-26T17:18:28.047Z</time>
      </trkpt>
      <trkpt lat="49.294292" lon="10.308034">
        <ele>500.928174</ele>
        <time>2026-04-26T17:18:29.660Z</time>
      </trkpt>
      <trkpt lat="49.294560" lon="10.308185">
        <ele>499.993622</ele>
        <time>2026-04-26T17:18:34.517Z</time>
      </trkpt>
      <trkpt lat="49.294843" lon="10.308419">
        <ele>498.941223</ele>
        <time>2026-04-26T17:18:40.026Z</time>
      </trkpt>
      <trkpt lat="49.295732" lon="10.309434">
        <ele>494.476164</ele>
        <time>2026-04-26T17:18:57.624Z</time>
      </trkpt>
      <trkpt lat="49.295834" lon="10.309544">
        <ele>493.487388</ele>
        <time>2026-04-26T17:18:59.464Z</time>
      </trkpt>
      <trkpt lat="49.295925" lon="10.309659">
        <ele>492.552358</ele>
        <time>2026-04-26T17:19:01.183Z</time>
      </trkpt>
      <trkpt lat="49.296177" lon="10.309940">
        <ele>490.081723</ele>
        <time>2026-04-26T17:19:05.630Z</time>
      </trkpt>
      <trkpt lat="49.296618" lon="10.310316">
        <ele>486.080750</ele>
        <time>2026-04-26T17:19:12.609Z</time>
      </trkpt>
      <trkpt lat="49.296947" lon="10.310465">
        <ele>483.360639</ele>
        <time>2026-04-26T17:19:17.263Z</time>
      </trkpt>
      <trkpt lat="49.297122" lon="10.310507">
        <ele>481.956134</ele>
        <time>2026-04-26T17:19:19.646Z</time>
      </trkpt>
      <trkpt lat="49.297353" lon="10.310494">
        <ele>479.927334</ele>
        <time>2026-04-26T17:19:22.766Z</time>
      </trkpt>
      <trkpt lat="49.297622" lon="10.310430">
        <ele>477.490055</ele>
        <time>2026-04-26T17:19:26.437Z</time>
      </trkpt>
      <trkpt lat="49.297959" lon="10.310249">
        <ele>474.293038</ele>
        <time>2026-04-26T17:19:31.266Z</time>
      </trkpt>
      <trkpt lat="49.298926" lon="10.309464">
        <ele>465.018900</ele>
        <time>2026-04-26T17:19:46.480Z</time>
      </trkpt>
      <trkpt lat="49.303627" lon="10.305597">
        <ele>442.761845</ele>
        <time>2026-04-26T17:21:09.806Z</time>
      </trkpt>
      <trkpt lat="49.303913" lon="10.305332">
        <ele>442.723288</ele>
        <time>2026-04-26T17:21:16.127Z</time>
      </trkpt>
      <trkpt lat="49.303980" lon="10.305250">
        <ele>442.713396</ele>
        <time>2026-04-26T17:21:17.834Z</time>
      </trkpt>
      <trkpt lat="49.304186" lon="10.304971">
        <ele>442.681684</ele>
        <time>2026-04-26T17:21:23.547Z</time>
      </trkpt>
      <trkpt lat="49.304434" lon="10.304465">
        <ele>442.634056</ele>
        <time>2026-04-26T17:21:32.789Z</time>
      </trkpt>
      <trkpt lat="49.304504" lon="10.304263">
        <ele>442.616845</ele>
        <time>2026-04-26T17:21:36.218Z</time>
      </trkpt>
      <trkpt lat="49.304622" lon="10.303598">
        <ele>442.564991</ele>
        <time>2026-04-26T17:21:46.565Z</time>
      </trkpt>
      <trkpt lat="49.304608" lon="10.302870">
        <ele>442.412845</ele>
        <time>2026-04-26T17:21:57.220Z</time>
      </trkpt>
      <trkpt lat="49.304653" lon="10.302780">
        <ele>442.387837</ele>
        <time>2026-04-26T17:21:58.830Z</time>
      </trkpt>
      <trkpt lat="49.304957" lon="10.302654">
        <ele>442.281344</ele>
        <time>2026-04-26T17:22:05.399Z</time>
      </trkpt>
      <trkpt lat="49.305964" lon="10.302286">
        <ele>441.982159</ele>
        <time>2026-04-26T17:22:24.910Z</time>
      </trkpt>
      <trkpt lat="49.306393" lon="10.302092">
        <ele>442.195846</ele>
        <time>2026-04-26T17:22:33.561Z</time>
      </trkpt>
      <trkpt lat="49.306528" lon="10.302000">
        <ele>442.266425</ele>
        <time>2026-04-26T17:22:36.584Z</time>
      </trkpt>
      <trkpt lat="49.306772" lon="10.301754">
        <ele>442.405932</ele>
        <time>2026-04-26T17:22:42.813Z</time>
      </trkpt>
      <trkpt lat="49.307735" lon="10.300626">
        <ele>443.541813</ele>
        <time>2026-04-26T17:23:10.864Z</time>
      </trkpt>
      <trkpt lat="49.307979" lon="10.300429">
        <ele>444.097293</ele>
        <time>2026-04-26T17:23:17.375Z</time>
      </trkpt>
      <trkpt lat="49.308578" lon="10.300080">
        <ele>445.388107</ele>
        <time>2026-04-26T17:23:32.509Z</time>
      </trkpt>
      <trkpt lat="49.308984" lon="10.299866">
        <ele>446.252941</ele>
        <time>2026-04-26T17:23:42.604Z</time>
      </trkpt>
      <trkpt lat="49.309282" lon="10.299649">
        <ele>446.506894</ele>
        <time>2026-04-26T17:23:50.261Z</time>
      </trkpt>
      <trkpt lat="49.309483" lon="10.299534">
        <ele>446.571248</ele>
        <time>2026-04-26T17:23:55.169Z</time>
      </trkpt>
      <trkpt lat="49.309938" lon="10.299366">
        <ele>446.711637</ele>
        <time>2026-04-26T17:24:05.705Z</time>
      </trkpt>
      <trkpt lat="49.311271" lon="10.299227">
        <ele>445.998843</ele>
        <time>2026-04-26T17:24:31.930Z</time>
      </trkpt>
      <trkpt lat="49.311475" lon="10.299147">
        <ele>445.551645</ele>
        <time>2026-04-26T17:24:35.464Z</time>
      </trkpt>
      <trkpt lat="49.311658" lon="10.299012">
        <ele>445.120370</ele>
        <time>2026-04-26T17:24:38.879Z</time>
      </trkpt>
      <trkpt lat="49.311840" lon="10.298811">
        <ele>444.644065</ele>
        <time>2026-04-26T17:24:42.659Z</time>
      </trkpt>
      <trkpt lat="49.311886" lon="10.298741">
        <ele>444.506447</ele>
        <time>2026-04-26T17:24:43.727Z</time>
      </trkpt>
      <trkpt lat="49.312161" lon="10.298067">
        <ele>443.405524</ele>
        <time>2026-04-26T17:24:52.350Z</time>
      </trkpt>
      <trkpt lat="49.312251" lon="10.297932">
        <ele>443.146848</ele>
        <time>2026-04-26T17:24:54.458Z</time>
      </trkpt>
      <trkpt lat="49.312486" lon="10.297710">
        <ele>442.870306</ele>
        <time>2026-04-26T17:24:59.168Z</time>
      </trkpt>
      <trkpt lat="49.312565" lon="10.297462">
        <ele>442.690000</ele>
        <time>2026-04-26T17:25:02.313Z</time>
      </trkpt>
      <trkpt lat="49.312754" lon="10.297510">
        <ele>442.498045</ele>
        <time>2026-04-26T17:25:05.755Z</time>
      </trkpt>
      <trkpt lat="49.312858" lon="10.297491">
        <ele>442.393102</ele>
        <time>2026-04-26T17:25:07.728Z</time>
      </trkpt>
      <trkpt lat="49.312969" lon="10.297435">
        <ele>442.276019</ele>
        <time>2026-04-26T17:25:09.948Z</time>
      </trkpt>
      <trkpt lat="49.313229" lon="10.297221">
        <ele>441.980366</ele>
        <time>2026-04-26T17:25:15.805Z</time>
      </trkpt>
      <trkpt lat="49.313415" lon="10.297062">
        <ele>441.767009</ele>
        <time>2026-04-26T17:25:20.174Z</time>
      </trkpt>
      <trkpt lat="49.313510" lon="10.296977">
        <ele>441.656810</ele>
        <time>2026-04-26T17:25:22.477Z</time>
      </trkpt>
      <trkpt lat="49.313785" lon="10.296729">
        <ele>441.387166</ele>
        <time>2026-04-26T17:25:29.276Z</time>
      </trkpt>
      <trkpt lat="49.314039" lon="10.296499">
        <ele>442.063773</ele>
        <time>2026-04-26T17:25:35.815Z</time>
      </trkpt>
      <trkpt lat="49.314257" lon="10.296371">
        <ele>442.599235</ele>
        <time>2026-04-26T17:25:41.164Z</time>
      </trkpt>
      <trkpt lat="49.314483" lon="10.296377">
        <ele>443.117742</ele>
        <time>2026-04-26T17:25:46.430Z</time>
      </trkpt>
      <trkpt lat="49.314687" lon="10.296540">
        <ele>443.645384</ele>
        <time>2026-04-26T17:25:51.886Z</time>
      </trkpt>
      <trkpt lat="49.314998" lon="10.296527">
        <ele>444.359064</ele>
        <time>2026-04-26T17:25:59.443Z</time>
      </trkpt>
      <trkpt lat="49.315452" lon="10.296537">
        <ele>445.400619</ele>
        <time>2026-04-26T17:26:10.931Z</time>
      </trkpt>
      <trkpt lat="49.315846" lon="10.296438">
        <ele>446.336536</ele>
        <time>2026-04-26T17:26:20.994Z</time>
      </trkpt>
      <trkpt lat="49.316211" lon="10.296346">
        <ele>447.205360</ele>
        <time>2026-04-26T17:26:30.075Z</time>
      </trkpt>
      <trkpt lat="49.316389" lon="10.296370">
        <ele>447.625066</ele>
        <time>2026-04-26T17:26:34.355Z</time>
      </trkpt>
      <trkpt lat="49.316535" lon="10.296508">
        <ele>448.027869</ele>
        <time>2026-04-26T17:26:38.422Z</time>
      </trkpt>
      <trkpt lat="49.317015" lon="10.297213">
        <ele>449.588759</ele>
        <time>2026-04-26T17:26:53.644Z</time>
      </trkpt>
      <trkpt lat="49.317334" lon="10.297827">
        <ele>449.869136</ele>
        <time>2026-04-26T17:27:04.557Z</time>
      </trkpt>
      <trkpt lat="49.319795" lon="10.296174">
        <ele>450.374972</ele>
        <time>2026-04-26T17:28:02.444Z</time>
      </trkpt>
      <trkpt lat="49.319987" lon="10.296062">
        <ele>450.379078</ele>
        <time>2026-04-26T17:28:06.710Z</time>
      </trkpt>
      <trkpt lat="49.320111" lon="10.296034">
        <ele>450.381584</ele>
        <time>2026-04-26T17:28:09.274Z</time>
      </trkpt>
      <trkpt lat="49.320214" lon="10.296070">
        <ele>450.383695</ele>
        <time>2026-04-26T17:28:11.402Z</time>
      </trkpt>
      <trkpt lat="49.320427" lon="10.296157">
        <ele>450.083812</ele>
        <time>2026-04-26T17:28:15.980Z</time>
      </trkpt>
      <trkpt lat="49.320626" lon="10.296173">
        <ele>449.797974</ele>
        <time>2026-04-26T17:28:20.034Z</time>
      </trkpt>
      <trkpt lat="49.322082" lon="10.296084">
        <ele>447.677975</ele>
        <time>2026-04-26T17:28:47.489Z</time>
      </trkpt>
      <trkpt lat="49.323315" lon="10.296080">
        <ele>445.360027</ele>
        <time>2026-04-26T17:29:10.388Z</time>
      </trkpt>
      <trkpt lat="49.324081" lon="10.296163">
        <ele>444.037754</ele>
        <time>2026-04-26T17:29:24.577Z</time>
      </trkpt>
      <trkpt lat="49.324639" lon="10.296266">
        <ele>443.234438</ele>
        <time>2026-04-26T17:29:35.040Z</time>
      </trkpt>
      <trkpt lat="49.325727" lon="10.296565">
        <ele>441.884433</ele>
        <time>2026-04-26T17:29:56.995Z</time>
      </trkpt>
      <trkpt lat="49.326462" lon="10.296867">
        <ele>442.064491</ele>
        <time>2026-04-26T17:30:13.641Z</time>
      </trkpt>
      <trkpt lat="49.327374" lon="10.297312">
        <ele>442.399466</ele>
        <time>2026-04-26T17:30:35.658Z</time>
      </trkpt>
      <trkpt lat="49.328274" lon="10.297878">
        <ele>444.473857</ele>
        <time>2026-04-26T17:30:57.881Z</time>
      </trkpt>
      <trkpt lat="49.328800" lon="10.298264">
        <ele>445.717348</ele>
        <time>2026-04-26T17:31:11.857Z</time>
      </trkpt>
      <trkpt lat="49.329322" lon="10.298698">
        <ele>447.826428</ele>
        <time>2026-04-26T17:31:26.976Z</time>
      </trkpt>
      <trkpt lat="49.329857" lon="10.299194">
        <ele>450.450805</ele>
        <time>2026-04-26T17:31:43.891Z</time>
      </trkpt>
      <trkpt lat="49.330227" lon="10.299560">
        <ele>452.299078</ele>
        <time>2026-04-26T17:31:55.895Z</time>
      </trkpt>
      <trkpt lat="49.330905" lon="10.300251">
        <ele>453.934332</ele>
        <time>2026-04-26T17:32:15.963Z</time>
      </trkpt>
      <trkpt lat="49.331081" lon="10.300421">
        <ele>454.048963</ele>
        <time>2026-04-26T17:32:20.741Z</time>
      </trkpt>
      <trkpt lat="49.331319" lon="10.300638">
        <ele>454.201559</ele>
        <time>2026-04-26T17:32:26.727Z</time>
      </trkpt>
      <trkpt lat="49.331473" lon="10.300736">
        <ele>454.293454</ele>
        <time>2026-04-26T17:32:30.135Z</time>
      </trkpt>
      <trkpt lat="49.331657" lon="10.300801">
        <ele>454.397527</ele>
        <time>2026-04-26T17:32:33.868Z</time>
      </trkpt>
      <trkpt lat="49.332264" lon="10.300897">
        <ele>455.034610</ele>
        <time>2026-04-26T17:32:45.490Z</time>
      </trkpt>
      <trkpt lat="49.332358" lon="10.300905">
        <ele>455.288017</ele>
        <time>2026-04-26T17:32:47.453Z</time>
      </trkpt>
      <trkpt lat="49.332665" lon="10.300769">
        <ele>456.148110</ele>
        <time>2026-04-26T17:32:54.725Z</time>
      </trkpt>
      <trkpt lat="49.332990" lon="10.300546">
        <ele>457.106377</ele>
        <time>2026-04-26T17:33:03.221Z</time>
      </trkpt>
      <trkpt lat="49.334646" lon="10.299263">
        <ele>464.878495</ele>
        <time>2026-04-26T17:33:54.389Z</time>
      </trkpt>
      <trkpt lat="49.334926" lon="10.299213">
        <ele>466.447608</ele>
        <time>2026-04-26T17:34:02.727Z</time>
      </trkpt>
      <trkpt lat="49.335226" lon="10.299272">
        <ele>468.131191</ele>
        <time>2026-04-26T17:34:11.563Z</time>
      </trkpt>
      <trkpt lat="49.335530" lon="10.299457">
        <ele>469.873111</ele>
        <time>2026-04-26T17:34:20.947Z</time>
      </trkpt>
      <trkpt lat="49.335798" lon="10.299799">
        <ele>471.468676</ele>
        <time>2026-04-26T17:34:30.735Z</time>
      </trkpt>
      <trkpt lat="49.335997" lon="10.300152">
        <ele>472.861014</ele>
        <time>2026-04-26T17:34:39.044Z</time>
      </trkpt>
      <trkpt lat="49.337382" lon="10.303100">
        <ele>483.260639</ele>
        <time>2026-04-26T17:35:40.127Z</time>
      </trkpt>
      <trkpt lat="49.337555" lon="10.303399">
        <ele>484.365052</ele>
        <time>2026-04-26T17:35:47.221Z</time>
      </trkpt>
      <trkpt lat="49.337791" lon="10.303660">
        <ele>485.578834</ele>
        <time>2026-04-26T17:35:55.193Z</time>
      </trkpt>
      <trkpt lat="49.338138" lon="10.303873">
        <ele>487.030828</ele>
        <time>2026-04-26T17:36:05.517Z</time>
      </trkpt>
      <trkpt lat="49.338354" lon="10.303911">
        <ele>487.875522</ele>
        <time>2026-04-26T17:36:11.593Z</time>
      </trkpt>
      <trkpt lat="49.339774" lon="10.303831">
        <ele>491.912724</ele>
        <time>2026-04-26T17:36:47.714Z</time>
      </trkpt>
      <trkpt lat="49.339915" lon="10.303800">
        <ele>491.677291</ele>
        <time>2026-04-26T17:36:50.812Z</time>
      </trkpt>
      <trkpt lat="49.340077" lon="10.303709">
        <ele>491.392154</ele>
        <time>2026-04-26T17:36:54.361Z</time>
      </trkpt>
      <trkpt lat="49.340196" lon="10.303538">
        <ele>491.122707</ele>
        <time>2026-04-26T17:36:57.501Z</time>
      </trkpt>
      <trkpt lat="49.340303" lon="10.303229">
        <ele>490.745851</ele>
        <time>2026-04-26T17:37:01.610Z</time>
      </trkpt>
      <trkpt lat="49.340581" lon="10.301909">
        <ele>489.029503</ele>
        <time>2026-04-26T17:37:16.385Z</time>
      </trkpt>
      <trkpt lat="49.340749" lon="10.301424">
        <ele>487.431505</ele>
        <time>2026-04-26T17:37:22.137Z</time>
      </trkpt>
      <trkpt lat="49.341015" lon="10.300997">
        <ele>485.712832</ele>
        <time>2026-04-26T17:37:28.366Z</time>
      </trkpt>
      <trkpt lat="49.341757" lon="10.300012">
        <ele>481.333266</ele>
        <time>2026-04-26T17:37:44.196Z</time>
      </trkpt>
      <trkpt lat="49.342265" lon="10.299414">
        <ele>478.602518</ele>
        <time>2026-04-26T17:37:54.429Z</time>
      </trkpt>
      <trkpt lat="49.342515" lon="10.299131">
        <ele>477.277513</ele>
        <time>2026-04-26T17:37:59.222Z</time>
      </trkpt>
      <trkpt lat="49.342754" lon="10.298633">
        <ele>475.558620</ele>
        <time>2026-04-26T17:38:05.500Z</time>
      </trkpt>
      <trkpt lat="49.343405" lon="10.296656">
        <ele>469.193241</ele>
        <time>2026-04-26T17:38:28.384Z</time>
      </trkpt>
      <trkpt lat="49.343488" lon="10.296462">
        <ele>468.516685</ele>
        <time>2026-04-26T17:38:30.678Z</time>
      </trkpt>
      <trkpt lat="49.343637" lon="10.296352">
        <ele>467.776915</ele>
        <time>2026-04-26T17:38:33.178Z</time>
      </trkpt>
      <trkpt lat="49.343780" lon="10.296344">
        <ele>467.136673</ele>
        <time>2026-04-26T17:38:35.312Z</time>
      </trkpt>
      <trkpt lat="49.344248" lon="10.296440">
        <ele>464.944397</ele>
        <time>2026-04-26T17:38:42.356Z</time>
      </trkpt>
      <trkpt lat="49.344664" lon="10.296461">
        <ele>462.837901</ele>
        <time>2026-04-26T17:38:48.504Z</time>
      </trkpt>
      <trkpt lat="49.344935" lon="10.296458">
        <ele>461.466347</ele>
        <time>2026-04-26T17:38:52.496Z</time>
      </trkpt>
      <trkpt lat="49.345140" lon="10.296458">
        <ele>460.428851</ele>
        <time>2026-04-26T17:38:55.529Z</time>
      </trkpt>
      <trkpt lat="49.345498" lon="10.296355">
        <ele>458.585475</ele>
        <time>2026-04-26T17:39:01.010Z</time>
      </trkpt>
      <trkpt lat="49.346305" lon="10.295943">
        <ele>455.594465</ele>
        <time>2026-04-26T17:39:14.382Z</time>
      </trkpt>
      <trkpt lat="49.346482" lon="10.295770">
        <ele>455.152881</ele>
        <time>2026-04-26T17:39:17.833Z</time>
      </trkpt>
      <trkpt lat="49.346643" lon="10.295612">
        <ele>454.750744</ele>
        <time>2026-04-26T17:39:21.083Z</time>
      </trkpt>
      <trkpt lat="49.347013" lon="10.295232">
        <ele>453.813900</ele>
        <time>2026-04-26T17:39:29.198Z</time>
      </trkpt>
      <trkpt lat="49.347257" lon="10.295047">
        <ele>453.241201</ele>
        <time>2026-04-26T17:39:34.600Z</time>
      </trkpt>
      <trkpt lat="49.347605" lon="10.294853">
        <ele>452.701412</ele>
        <time>2026-04-26T17:39:42.346Z</time>
      </trkpt>
      <trkpt lat="49.348067" lon="10.294743">
        <ele>452.552579</ele>
        <time>2026-04-26T17:39:52.340Z</time>
      </trkpt>
      <trkpt lat="49.350784" lon="10.294624">
        <ele>451.915533</ele>
        <time>2026-04-26T17:40:47.536Z</time>
      </trkpt>
      <trkpt lat="49.351118" lon="10.294635">
        <ele>451.961285</ele>
        <time>2026-04-26T17:40:54.814Z</time>
      </trkpt>
      <trkpt lat="49.351512" lon="10.294705">
        <ele>452.611291</ele>
        <time>2026-04-26T17:41:03.763Z</time>
      </trkpt>
      <trkpt lat="49.351835" lon="10.294805">
        <ele>453.151289</ele>
        <time>2026-04-26T17:41:11.394Z</time>
      </trkpt>
      <trkpt lat="49.352202" lon="10.295003">
        <ele>453.788798</ele>
        <time>2026-04-26T17:41:20.499Z</time>
      </trkpt>
      <trkpt lat="49.352444" lon="10.295171">
        <ele>454.224060</ele>
        <time>2026-04-26T17:41:26.739Z</time>
      </trkpt>
      <trkpt lat="49.352763" lon="10.295464">
        <ele>454.839571</ele>
        <time>2026-04-26T17:41:35.476Z</time>
      </trkpt>
      <trkpt lat="49.352859" lon="10.295379">
        <ele>455.089259</ele>
        <time>2026-04-26T17:41:38.091Z</time>
      </trkpt>
      <trkpt lat="49.353074" lon="10.295266">
        <ele>455.601265</ele>
        <time>2026-04-26T17:41:43.505Z</time>
      </trkpt>
      <trkpt lat="49.353367" lon="10.295231">
        <ele>456.263401</ele>
        <time>2026-04-26T17:41:50.509Z</time>
      </trkpt>
      <trkpt lat="49.353658" lon="10.295223">
        <ele>456.919141</ele>
        <time>2026-04-26T17:41:57.385Z</time>
      </trkpt>
      <trkpt lat="49.354300" lon="10.295202">
        <ele>458.365921</ele>
        <time>2026-04-26T17:42:12.430Z</time>
      </trkpt>
      <trkpt lat="49.354697" lon="10.294684">
        <ele>459.355566</ele>
        <time>2026-04-26T17:42:24.689Z</time>
      </trkpt>
      <trkpt lat="49.355078" lon="10.294177">
        <ele>460.179630</ele>
        <time>2026-04-26T17:42:36.545Z</time>
      </trkpt>
      <trkpt lat="49.355165" lon="10.294090">
        <ele>460.349326</ele>
        <time>2026-04-26T17:42:39.018Z</time>
      </trkpt>
      <trkpt lat="49.357168" lon="10.292645">
        <ele>461.487580</ele>
        <time>2026-04-26T17:43:30.721Z</time>
      </trkpt>
      <trkpt lat="49.358791" lon="10.291440">
        <ele>456.941797</ele>
        <time>2026-04-26T17:44:00.970Z</time>
      </trkpt>
      <trkpt lat="49.358953" lon="10.291367">
        <ele>456.377152</ele>
        <time>2026-04-26T17:44:03.746Z</time>
      </trkpt>
      <trkpt lat="49.359175" lon="10.291370">
        <ele>455.634668</ele>
        <time>2026-04-26T17:44:07.451Z</time>
      </trkpt>
      <trkpt lat="49.363182" lon="10.291889">
        <ele>444.434574</ele>
        <time>2026-04-26T17:45:18.003Z</time>
      </trkpt>
      <trkpt lat="49.363709" lon="10.292037">
        <ele>443.032248</ele>
        <time>2026-04-26T17:45:27.362Z</time>
      </trkpt>
      <trkpt lat="49.364553" lon="10.292450">
        <ele>440.713577</ele>
        <time>2026-04-26T17:45:42.895Z</time>
      </trkpt>
      <trkpt lat="49.365279" lon="10.292860">
        <ele>440.436546</ele>
        <time>2026-04-26T17:45:57.702Z</time>
      </trkpt>
      <trkpt lat="49.365355" lon="10.292895">
        <ele>440.417004</ele>
        <time>2026-04-26T17:45:59.356Z</time>
      </trkpt>
      <trkpt lat="49.365966" lon="10.293211">
        <ele>440.258214</ele>
        <time>2026-04-26T17:46:13.241Z</time>
      </trkpt>
      <trkpt lat="49.366490" lon="10.293329">
        <ele>440.594182</ele>
        <time>2026-04-26T17:46:25.501Z</time>
      </trkpt>
      <trkpt lat="49.367647" lon="10.293394">
        <ele>443.120180</ele>
        <time>2026-04-26T17:46:53.086Z</time>
      </trkpt>
      <trkpt lat="49.367762" lon="10.293414">
        <ele>443.372688</ele>
        <time>2026-04-26T17:46:55.863Z</time>
      </trkpt>
      <trkpt lat="49.367939" lon="10.293444">
        <ele>443.761206</ele>
        <time>2026-04-26T17:47:00.167Z</time>
      </trkpt>
      <trkpt lat="49.368963" lon="10.293670">
        <ele>445.001957</ele>
        <time>2026-04-26T17:47:24.002Z</time>
      </trkpt>
      <trkpt lat="49.369574" lon="10.293856">
        <ele>445.641197</ele>
        <time>2026-04-26T17:47:37.704Z</time>
      </trkpt>
      <trkpt lat="49.369715" lon="10.293954">
        <ele>445.800029</ele>
        <time>2026-04-26T17:47:41.059Z</time>
      </trkpt>
      <trkpt lat="49.369934" lon="10.293891">
        <ele>445.888227</ele>
        <time>2026-04-26T17:47:45.867Z</time>
      </trkpt>
      <trkpt lat="49.370098" lon="10.293758">
        <ele>445.758435</ele>
        <time>2026-04-26T17:47:49.736Z</time>
      </trkpt>
      <trkpt lat="49.370137" lon="10.293642">
        <ele>445.698943</ele>
        <time>2026-04-26T17:47:51.464Z</time>
      </trkpt>
      <trkpt lat="49.370133" lon="10.293449">
        <ele>445.610947</ele>
        <time>2026-04-26T17:47:54.021Z</time>
      </trkpt>
      <trkpt lat="49.369984" lon="10.292371">
        <ele>445.108751</ele>
        <time>2026-04-26T17:48:08.107Z</time>
      </trkpt>
      <trkpt lat="49.370561" lon="10.292244">
        <ele>444.700825</ele>
        <time>2026-04-26T17:48:19.280Z</time>
      </trkpt>
      <trkpt lat="49.370687" lon="10.292263">
        <ele>444.597181</ele>
        <time>2026-04-26T17:48:21.664Z</time>
      </trkpt>
      <trkpt lat="49.371060" lon="10.292465">
        <ele>444.264289</ele>
        <time>2026-04-26T17:48:28.965Z</time>
      </trkpt>
      <trkpt lat="49.371178" lon="10.292498">
        <ele>444.163338</ele>
        <time>2026-04-26T17:48:31.150Z</time>
      </trkpt>
      <trkpt lat="49.371278" lon="10.292461">
        <ele>444.076763</ele>
        <time>2026-04-26T17:48:33.078Z</time>
      </trkpt>
      <trkpt lat="49.371325" lon="10.292258">
        <ele>443.958683</ele>
        <time>2026-04-26T17:48:35.841Z</time>
      </trkpt>
      <trkpt lat="49.371407" lon="10.292078">
        <ele>443.838287</ele>
        <time>2026-04-26T17:48:38.720Z</time>
      </trkpt>
      <trkpt lat="49.371702" lon="10.291820">
        <ele>443.552555</ele>
        <time>2026-04-26T17:48:45.755Z</time>
      </trkpt>
      <trkpt lat="49.371738" lon="10.291709">
        <ele>443.484592</ele>
        <time>2026-04-26T17:48:47.451Z</time>
      </trkpt>
      <trkpt lat="49.371810" lon="10.291490">
        <ele>443.350138</ele>
        <time>2026-04-26T17:48:50.872Z</time>
      </trkpt>
      <trkpt lat="49.371855" lon="10.291184">
        <ele>443.178210</ele>
        <time>2026-04-26T17:48:55.332Z</time>
      </trkpt>
      <trkpt lat="49.371851" lon="10.290886">
        <ele>443.276239</ele>
        <time>2026-04-26T17:48:59.571Z</time>
      </trkpt>
      <trkpt lat="49.371828" lon="10.288612">
        <ele>444.095516</ele>
        <time>2026-04-26T17:49:33.038Z</time>
      </trkpt>
      <trkpt lat="49.371902" lon="10.288434">
        <ele>444.180992</ele>
        <time>2026-04-26T17:49:36.300Z</time>
      </trkpt>
      <trkpt lat="49.372005" lon="10.288338">
        <ele>444.406225</ele>
        <time>2026-04-26T17:49:39.142Z</time>
      </trkpt>
      <trkpt lat="49.373388" lon="10.288165">
        <ele>447.000169</ele>
        <time>2026-04-26T17:50:12.640Z</time>
      </trkpt>
      <trkpt lat="49.374296" lon="10.287935">
        <ele>448.813702</ele>
        <time>2026-04-26T17:50:34.631Z</time>
      </trkpt>
      <trkpt lat="49.374478" lon="10.287765">
        <ele>449.243086</ele>
        <time>2026-04-26T17:50:39.689Z</time>
      </trkpt>
      <trkpt lat="49.374696" lon="10.287268">
        <ele>450.029587</ele>
        <time>2026-04-26T17:50:48.976Z</time>
      </trkpt>
      <trkpt lat="49.374838" lon="10.286846">
        <ele>450.653035</ele>
        <time>2026-04-26T17:50:56.396Z</time>
      </trkpt>
      <trkpt lat="49.374940" lon="10.286362">
        <ele>451.409449</ele>
        <time>2026-04-26T17:51:04.454Z</time>
      </trkpt>
      <trkpt lat="49.375059" lon="10.285624">
        <ele>452.943623</ele>
        <time>2026-04-26T17:51:16.688Z</time>
      </trkpt>
      <trkpt lat="49.375190" lon="10.284188">
        <ele>455.869577</ele>
        <time>2026-04-26T17:51:40.516Z</time>
      </trkpt>
      <trkpt lat="49.375351" lon="10.283023">
        <ele>457.672548</ele>
        <time>2026-04-26T17:52:00.137Z</time>
      </trkpt>
      <trkpt lat="49.375513" lon="10.282244">
        <ele>458.680766</ele>
        <time>2026-04-26T17:52:13.144Z</time>
      </trkpt>
      <trkpt lat="49.375684" lon="10.281715">
        <ele>459.408916</ele>
        <time>2026-04-26T17:52:22.202Z</time>
      </trkpt>
      <trkpt lat="49.375914" lon="10.281277">
        <ele>460.102655</ele>
        <time>2026-04-26T17:52:30.492Z</time>
      </trkpt>
      <trkpt lat="49.376129" lon="10.281052">
        <ele>459.966732</ele>
        <time>2026-04-26T17:52:35.972Z</time>
      </trkpt>
      <trkpt lat="49.376796" lon="10.280565">
        <ele>459.452737</ele>
        <time>2026-04-26T17:52:50.504Z</time>
      </trkpt>
      <trkpt lat="49.376965" lon="10.280499">
        <ele>459.331376</ele>
        <time>2026-04-26T17:52:53.972Z</time>
      </trkpt>
      <trkpt lat="49.377298" lon="10.280458">
        <ele>459.098875</ele>
        <time>2026-04-26T17:53:00.853Z</time>
      </trkpt>
      <trkpt lat="49.377538" lon="10.280276">
        <ele>458.912593</ele>
        <time>2026-04-26T17:53:06.558Z</time>
      </trkpt>
      <trkpt lat="49.377902" lon="10.279752">
        <ele>459.017296</ele>
        <time>2026-04-26T17:53:17.233Z</time>
      </trkpt>
      <trkpt lat="49.378058" lon="10.279579">
        <ele>459.073399</ele>
        <time>2026-04-26T17:53:21.403Z</time>
      </trkpt>
      <trkpt lat="49.378188" lon="10.279491">
        <ele>459.114822</ele>
        <time>2026-04-26T17:53:24.489Z</time>
      </trkpt>
      <trkpt lat="49.378305" lon="10.279459">
        <ele>459.149474</ele>
        <time>2026-04-26T17:53:27.087Z</time>
      </trkpt>
      <trkpt lat="49.378916" lon="10.279435">
        <ele>459.327687</ele>
        <time>2026-04-26T17:53:40.741Z</time>
      </trkpt>
      <trkpt lat="49.378999" lon="10.279391">
        <ele>459.353288</ele>
        <time>2026-04-26T17:53:42.768Z</time>
      </trkpt>
      <trkpt lat="49.379314" lon="10.279224">
        <ele>459.823179</ele>
        <time>2026-04-26T17:53:50.589Z</time>
      </trkpt>
      <trkpt lat="49.379568" lon="10.279045">
        <ele>460.625381</ele>
        <time>2026-04-26T17:53:57.290Z</time>
      </trkpt>
      <trkpt lat="49.379868" lon="10.278776">
        <ele>461.622547</ele>
        <time>2026-04-26T17:54:06.008Z</time>
      </trkpt>
      <trkpt lat="49.380032" lon="10.278576">
        <ele>462.223654</ele>
        <time>2026-04-26T17:54:11.363Z</time>
      </trkpt>
      <trkpt lat="49.380150" lon="10.278358">
        <ele>462.753481</ele>
        <time>2026-04-26T17:54:16.091Z</time>
      </trkpt>
      <trkpt lat="49.380476" lon="10.277491">
        <ele>464.600517</ele>
        <time>2026-04-26T17:54:32.913Z</time>
      </trkpt>
      <trkpt lat="49.380657" lon="10.276927">
        <ele>465.243582</ele>
        <time>2026-04-26T17:54:46.673Z</time>
      </trkpt>
      <trkpt lat="49.380906" lon="10.275795">
        <ele>466.465548</ele>
        <time>2026-04-26T17:55:12.952Z</time>
      </trkpt>
      <trkpt lat="49.381163" lon="10.274960">
        <ele>467.399808</ele>
        <time>2026-04-26T17:55:33.639Z</time>
      </trkpt>
      <trkpt lat="49.381222" lon="10.274871">
        <ele>467.428783</ele>
        <time>2026-04-26T17:55:36.479Z</time>
      </trkpt>
      <trkpt lat="49.381594" lon="10.274563">
        <ele>467.576859</ele>
        <time>2026-04-26T17:55:51.091Z</time>
      </trkpt>
      <trkpt lat="49.381727" lon="10.274335">
        <ele>467.646693</ele>
        <time>2026-04-26T17:55:57.973Z</time>
      </trkpt>
      <trkpt lat="49.382000" lon="10.273654">
        <ele>467.829126</ele>
        <time>2026-04-26T17:56:15.960Z</time>
      </trkpt>
      <trkpt lat="49.382098" lon="10.273352">
        <ele>467.906099</ele>
        <time>2026-04-26T17:56:23.526Z</time>
      </trkpt>
      <trkpt lat="49.382333" lon="10.272115">
        <ele>468.080260</ele>
        <time>2026-04-26T17:56:52.303Z</time>
      </trkpt>
      <trkpt lat="49.382394" lon="10.271662">
        <ele>468.112703</ele>
        <time>2026-04-26T17:57:02.649Z</time>
      </trkpt>
      <trkpt lat="49.382457" lon="10.270940">
        <ele>468.163793</ele>
        <time>2026-04-26T17:57:19.035Z</time>
      </trkpt>
      <trkpt lat="49.382541" lon="10.269502">
        <ele>468.397450</ele>
        <time>2026-04-26T17:57:51.516Z</time>
      </trkpt>
      <trkpt lat="49.382616" lon="10.269000">
        <ele>468.541784</ele>
        <time>2026-04-26T17:58:03.120Z</time>
      </trkpt>
      <trkpt lat="49.382826" lon="10.268109">
        <ele>468.807330</ele>
        <time>2026-04-26T17:58:24.207Z</time>
      </trkpt>
      <trkpt lat="49.382853" lon="10.267194">
        <ele>469.148197</ele>
        <time>2026-04-26T17:58:44.384Z</time>
      </trkpt>
      <trkpt lat="49.382863" lon="10.266855">
        <ele>469.359488</ele>
        <time>2026-04-26T17:58:51.862Z</time>
      </trkpt>
      <trkpt lat="49.383019" lon="10.266153">
        <ele>469.821343</ele>
        <time>2026-04-26T17:59:08.230Z</time>
      </trkpt>
      <trkpt lat="49.383044" lon="10.265218">
        <ele>470.403998</ele>
        <time>2026-04-26T17:59:29.174Z</time>
      </trkpt>
      <trkpt lat="49.383114" lon="10.264402">
        <ele>471.144770</ele>
        <time>2026-04-26T17:59:47.490Z</time>
      </trkpt>
      <trkpt lat="49.383091" lon="10.264017">
        <ele>471.658808</ele>
        <time>2026-04-26T17:59:56.012Z</time>
      </trkpt>
      <trkpt lat="49.383019" lon="10.263713">
        <ele>472.088918</ele>
        <time>2026-04-26T18:00:03.086Z</time>
      </trkpt>
      <trkpt lat="49.383042" lon="10.263302">
        <ele>472.637391</ele>
        <time>2026-04-26T18:00:12.102Z</time>
      </trkpt>
      <trkpt lat="49.383349" lon="10.262747">
        <ele>473.605716</ele>
        <time>2026-04-26T18:00:27.986Z</time>
      </trkpt>
      <trkpt lat="49.383571" lon="10.262112">
        <ele>474.670481</ele>
        <time>2026-04-26T18:00:43.734Z</time>
      </trkpt>
      <trkpt lat="49.384047" lon="10.260238">
        <ele>478.970261</ele>
        <time>2026-04-26T18:01:27.980Z</time>
      </trkpt>
      <trkpt lat="49.384093" lon="10.259198">
        <ele>481.179938</ele>
        <time>2026-04-26T18:01:50.949Z</time>
      </trkpt>
      <trkpt lat="49.384254" lon="10.258299">
        <ele>483.132273</ele>
        <time>2026-04-26T18:02:11.396Z</time>
      </trkpt>
      <trkpt lat="49.384434" lon="10.257826">
        <ele>484.279489</ele>
        <time>2026-04-26T18:02:23.425Z</time>
      </trkpt>
      <trkpt lat="49.384741" lon="10.257129">
        <ele>486.041592</ele>
        <time>2026-04-26T18:02:41.914Z</time>
      </trkpt>
      <trkpt lat="49.384444" lon="10.256048">
        <ele>487.629903</ele>
        <time>2026-04-26T18:03:07.518Z</time>
      </trkpt>
      <trkpt lat="49.384425" lon="10.255767">
        <ele>488.009015</ele>
        <time>2026-04-26T18:03:13.676Z</time>
      </trkpt>
      <trkpt lat="49.384222" lon="10.255406">
        <ele>488.649167</ele>
        <time>2026-04-26T18:03:21.127Z</time>
      </trkpt>
      <trkpt lat="49.383925" lon="10.254553">
        <ele>489.880475</ele>
        <time>2026-04-26T18:03:35.815Z</time>
      </trkpt>
      <trkpt lat="49.383414" lon="10.252798">
        <ele>491.380339</ele>
        <time>2026-04-26T18:04:04.982Z</time>
      </trkpt>
      <trkpt lat="49.383242" lon="10.252208">
        <ele>491.884674</ele>
        <time>2026-04-26T18:04:14.954Z</time>
      </trkpt>
      <trkpt lat="49.382768" lon="10.250935">
        <ele>492.553145</ele>
        <time>2026-04-26T18:04:37.289Z</time>
      </trkpt>
      <trkpt lat="49.382171" lon="10.249433">
        <ele>493.344428</ele>
        <time>2026-04-26T18:05:02.571Z</time>
      </trkpt>
      <trkpt lat="49.381901" lon="10.248829">
        <ele>493.703079</ele>
        <time>2026-04-26T18:05:13.228Z</time>
      </trkpt>
      <trkpt lat="49.381036" lon="10.247082">
        <ele>494.910548</ele>
        <time>2026-04-26T18:05:46.638Z</time>
      </trkpt>
      <trkpt lat="49.380540" lon="10.246109">
        <ele>495.812754</ele>
        <time>2026-04-26T18:06:05.512Z</time>
      </trkpt>
      <trkpt lat="49.380254" lon="10.245663">
        <ele>496.269792</ele>
        <time>2026-04-26T18:06:15.095Z</time>
      </trkpt>
      <trkpt lat="49.380277" lon="10.245611">
        <ele>496.315689</ele>
        <time>2026-04-26T18:06:16.056Z</time>
      </trkpt>
      <trkpt lat="49.380416" lon="10.245323">
        <ele>496.536260</ele>
        <time>2026-04-26T18:06:21.498Z</time>
      </trkpt>
      <trkpt lat="49.380952" lon="10.244144">
        <ele>496.781743</ele>
        <time>2026-04-26T18:06:42.357Z</time>
      </trkpt>
      <trkpt lat="49.381224" lon="10.243499">
        <ele>496.912932</ele>
        <time>2026-04-26T18:06:53.216Z</time>
      </trkpt>
      <trkpt lat="49.381516" lon="10.242770">
        <ele>496.204399</ele>
        <time>2026-04-26T18:07:04.832Z</time>
      </trkpt>
      <trkpt lat="49.381630" lon="10.242109">
        <ele>494.755427</ele>
        <time>2026-04-26T18:07:13.518Z</time>
      </trkpt>
      <trkpt lat="49.381612" lon="10.241494">
        <ele>493.450930</ele>
        <time>2026-04-26T18:07:20.838Z</time>
      </trkpt>
      <trkpt lat="49.381511" lon="10.240805">
        <ele>491.954388</ele>
        <time>2026-04-26T18:07:28.065Z</time>
      </trkpt>
      <trkpt lat="49.381466" lon="10.240630">
        <ele>491.555685</ele>
        <time>2026-04-26T18:07:29.834Z</time>
      </trkpt>
      <trkpt lat="49.381340" lon="10.240373">
        <ele>490.088509</ele>
        <time>2026-04-26T18:07:32.765Z</time>
      </trkpt>
      <trkpt lat="49.381222" lon="10.240229">
        <ele>488.154917</ele>
        <time>2026-04-26T18:07:34.819Z</time>
      </trkpt>
      <trkpt lat="49.381136" lon="10.240168">
        <ele>486.939563</ele>
        <time>2026-04-26T18:07:36.103Z</time>
      </trkpt>
      <trkpt lat="49.380988" lon="10.240210">
        <ele>485.008564</ele>
        <time>2026-04-26T18:07:38.112Z</time>
      </trkpt>
      <trkpt lat="49.379906" lon="10.240706">
        <ele>470.521293</ele>
        <time>2026-04-26T18:07:52.753Z</time>
      </trkpt>
      <trkpt lat="49.379723" lon="10.240666">
        <ele>468.149719</ele>
        <time>2026-04-26T18:07:55.137Z</time>
      </trkpt>
      <trkpt lat="49.379433" lon="10.240534">
        <ele>465.144409</ele>
        <time>2026-04-26T18:07:59.083Z</time>
      </trkpt>
      <trkpt lat="49.378556" lon="10.240098">
        <ele>456.045635</ele>
        <time>2026-04-26T18:08:11.502Z</time>
      </trkpt>
      <trkpt lat="49.377499" lon="10.239583">
        <ele>448.147877</ele>
        <time>2026-04-26T18:08:27.942Z</time>
      </trkpt>
      <trkpt lat="49.377261" lon="10.238909">
        <ele>446.102910</ele>
        <time>2026-04-26T18:08:35.844Z</time>
      </trkpt>
      <trkpt lat="49.376166" lon="10.235768">
        <ele>438.360103</ele>
        <time>2026-04-26T18:09:14.172Z</time>
      </trkpt>
      <trkpt lat="49.375863" lon="10.234445">
        <ele>435.522394</ele>
        <time>2026-04-26T18:09:29.170Z</time>
      </trkpt>
      <trkpt lat="49.375807" lon="10.234084">
        <ele>434.757991</ele>
        <time>2026-04-26T18:09:33.139Z</time>
      </trkpt>
      <trkpt lat="49.375809" lon="10.233926">
        <ele>434.432480</ele>
        <time>2026-04-26T18:09:34.822Z</time>
      </trkpt>
      <trkpt lat="49.375798" lon="10.233820">
        <ele>434.211384</ele>
        <time>2026-04-26T18:09:35.965Z</time>
      </trkpt>
      <trkpt lat="49.375636" lon="10.233434">
        <ele>433.265433</ele>
        <time>2026-04-26T18:09:40.867Z</time>
      </trkpt>
      <trkpt lat="49.375503" lon="10.232761">
        <ele>431.775355</ele>
        <time>2026-04-26T18:09:48.311Z</time>
      </trkpt>
      <trkpt lat="49.375407" lon="10.231990">
        <ele>429.560368</ele>
        <time>2026-04-26T18:09:56.464Z</time>
      </trkpt>
      <trkpt lat="49.375328" lon="10.230992">
        <ele>426.723528</ele>
        <time>2026-04-26T18:10:06.597Z</time>
      </trkpt>
      <trkpt lat="49.375310" lon="10.229455">
        <ele>421.817746</ele>
        <time>2026-04-26T18:10:21.627Z</time>
      </trkpt>
      <trkpt lat="49.375366" lon="10.227723">
        <ele>415.334091</ele>
        <time>2026-04-26T18:10:38.299Z</time>
      </trkpt>
      <trkpt lat="49.375521" lon="10.225354">
        <ele>405.601306</ele>
        <time>2026-04-26T18:11:00.786Z</time>
      </trkpt>
      <trkpt lat="49.375574" lon="10.224489">
        <ele>402.075043</ele>
        <time>2026-04-26T18:11:08.933Z</time>
      </trkpt>
      <trkpt lat="49.375686" lon="10.223433">
        <ele>398.828067</ele>
        <time>2026-04-26T18:11:19.179Z</time>
      </trkpt>
      <trkpt lat="49.375933" lon="10.220548">
        <ele>391.683198</ele>
        <time>2026-04-26T18:11:49.451Z</time>
      </trkpt>
      <trkpt lat="49.375981" lon="10.220393">
        <ele>391.385645</ele>
        <time>2026-04-26T18:11:51.385Z</time>
      </trkpt>
      <trkpt lat="49.376058" lon="10.220285">
        <ele>391.107999</ele>
        <time>2026-04-26T18:11:53.193Z</time>
      </trkpt>
      <trkpt lat="49.376283" lon="10.220144">
        <ele>390.460967</ele>
        <time>2026-04-26T18:11:57.404Z</time>
      </trkpt>
      <trkpt lat="49.376342" lon="10.220015">
        <ele>390.187673</ele>
        <time>2026-04-26T18:11:59.217Z</time>
      </trkpt>
      <trkpt lat="49.376386" lon="10.219827">
        <ele>389.841343</ele>
        <time>2026-04-26T18:12:01.524Z</time>
      </trkpt>
      <trkpt lat="49.375862" lon="10.219722">
        <ele>388.853839</ele>
        <time>2026-04-26T18:12:11.188Z</time>
      </trkpt>
      <trkpt lat="49.375637" lon="10.219679">
        <ele>388.608914</ele>
        <time>2026-04-26T18:12:15.376Z</time>
      </trkpt>
      <trkpt lat="49.375149" lon="10.219585">
        <ele>388.077635</ele>
        <time>2026-04-26T18:12:24.661Z</time>
      </trkpt>
      <trkpt lat="49.374944" lon="10.219549">
        <ele>387.854746</ele>
        <time>2026-04-26T18:12:28.612Z</time>
      </trkpt>
      <trkpt lat="49.375092" lon="10.218918">
        <ele>387.383021</ele>
        <time>2026-04-26T18:12:37.167Z</time>
      </trkpt>
      <trkpt lat="49.375201" lon="10.218339">
        <ele>387.425365</ele>
        <time>2026-04-26T18:12:45.144Z</time>
      </trkpt>
      <trkpt lat="49.375236" lon="10.217966">
        <ele>387.679171</ele>
        <time>2026-04-26T18:12:50.199Z</time>
      </trkpt>
      <trkpt lat="49.375269" lon="10.216725">
        <ele>388.515664</ele>
        <time>2026-04-26T18:13:08.525Z</time>
      </trkpt>
      <trkpt lat="49.375145" lon="10.216454">
        <ele>388.738740</ele>
        <time>2026-04-26T18:13:13.591Z</time>
      </trkpt>
      <trkpt lat="49.375091" lon="10.216260">
        <ele>388.880836</ele>
        <time>2026-04-26T18:13:16.826Z</time>
      </trkpt>
      <trkpt lat="49.375129" lon="10.216058">
        <ele>389.022445</ele>
        <time>2026-04-26T18:13:20.081Z</time>
      </trkpt>
      <trkpt lat="49.375249" lon="10.215823">
        <ele>389.290960</ele>
        <time>2026-04-26T18:13:24.704Z</time>
      </trkpt>
      <trkpt lat="49.375410" lon="10.215629">
        <ele>389.588644</ele>
        <time>2026-04-26T18:13:29.547Z</time>
      </trkpt>
      <trkpt lat="49.375984" lon="10.215310">
        <ele>390.476623</ele>
        <time>2026-04-26T18:13:43.888Z</time>
      </trkpt>
      <trkpt lat="49.376086" lon="10.215216">
        <ele>390.649663</ele>
        <time>2026-04-26T18:13:46.641Z</time>
      </trkpt>
      <trkpt lat="49.376131" lon="10.215047">
        <ele>390.822598</ele>
        <time>2026-04-26T18:13:49.333Z</time>
      </trkpt>
      <trkpt lat="49.376152" lon="10.214536">
        <ele>391.307549</ele>
        <time>2026-04-26T18:13:56.671Z</time>
      </trkpt>
      <trkpt lat="49.376123" lon="10.214196">
        <ele>391.632328</ele>
        <time>2026-04-26T18:14:01.510Z</time>
      </trkpt>
      <trkpt lat="49.376139" lon="10.213623">
        <ele>391.886787</ele>
        <time>2026-04-26T18:14:09.385Z</time>
      </trkpt>
      <trkpt lat="49.376121" lon="10.213248">
        <ele>392.037785</ele>
        <time>2026-04-26T18:14:14.506Z</time>
      </trkpt>
      <trkpt lat="49.376078" lon="10.213194">
        <ele>392.072042</ele>
        <time>2026-04-26T18:14:15.744Z</time>
      </trkpt>
      <trkpt lat="49.376055" lon="10.213013">
        <ele>392.146098</ele>
        <time>2026-04-26T18:14:18.435Z</time>
      </trkpt>
      <trkpt lat="49.376139" lon="10.212736">
        <ele>392.268807</ele>
        <time>2026-04-26T18:14:22.752Z</time>
      </trkpt>
      <trkpt lat="49.376230" lon="10.211902">
        <ele>392.608387</ele>
        <time>2026-04-26T18:14:34.958Z</time>
      </trkpt>
      <trkpt lat="49.376277" lon="10.211386">
        <ele>392.907168</ele>
        <time>2026-04-26T18:14:42.666Z</time>
      </trkpt>
      <trkpt lat="49.376327" lon="10.210537">
        <ele>394.150551</ele>
        <time>2026-04-26T18:14:55.471Z</time>
      </trkpt>
      <trkpt lat="49.376341" lon="10.209905">
        <ele>395.072901</ele>
        <time>2026-04-26T18:15:05.221Z</time>
      </trkpt>
      <trkpt lat="49.376435" lon="10.207223">
        <ele>399.422151</ele>
        <time>2026-04-26T18:15:47.584Z</time>
      </trkpt>
      <trkpt lat="49.376525" lon="10.204088">
        <ele>404.322918</ele>
        <time>2026-04-26T18:16:35.900Z</time>
      </trkpt>
      <trkpt lat="49.376515" lon="10.203900">
        <ele>404.593660</ele>
        <time>2026-04-26T18:16:38.767Z</time>
      </trkpt>
      <trkpt lat="49.376396" lon="10.203568">
        <ele>405.137629</ele>
        <time>2026-04-26T18:16:44.522Z</time>
      </trkpt>
      <trkpt lat="49.376399" lon="10.203469">
        <ele>405.279881</ele>
        <time>2026-04-26T18:16:46.022Z</time>
      </trkpt>
      <trkpt lat="49.376414" lon="10.203375">
        <ele>405.418796</ele>
        <time>2026-04-26T18:16:47.497Z</time>
      </trkpt>
      <trkpt lat="49.376546" lon="10.203111">
        <ele>405.878913</ele>
        <time>2026-04-26T18:16:52.547Z</time>
      </trkpt>
      <trkpt lat="49.376549" lon="10.203056">
        <ele>405.953315</ele>
        <time>2026-04-26T18:16:53.387Z</time>
      </trkpt>
      <trkpt lat="49.376585" lon="10.201019">
        <ele>408.700305</ele>
        <time>2026-04-26T18:17:24.390Z</time>
      </trkpt>
      <trkpt lat="49.376577" lon="10.199807">
        <ele>410.764368</ele>
        <time>2026-04-26T18:17:42.998Z</time>
      </trkpt>
      <trkpt lat="49.376541" lon="10.199564">
        <ele>411.244254</ele>
        <time>2026-04-26T18:17:46.881Z</time>
      </trkpt>
      <trkpt lat="49.376419" lon="10.199270">
        <ele>411.915596</ele>
        <time>2026-04-26T18:17:52.356Z</time>
      </trkpt>
      <trkpt lat="49.376413" lon="10.199134">
        <ele>412.178081</ele>
        <time>2026-04-26T18:17:54.528Z</time>
      </trkpt>
      <trkpt lat="49.376555" lon="10.199120">
        <ele>412.598919</ele>
        <time>2026-04-26T18:17:57.992Z</time>
      </trkpt>
      <trkpt lat="49.376622" lon="10.199112">
        <ele>412.797673</ele>
        <time>2026-04-26T18:17:59.634Z</time>
      </trkpt>
      <trkpt lat="49.376619" lon="10.198995">
        <ele>413.023145</ele>
        <time>2026-04-26T18:18:01.526Z</time>
      </trkpt>
      <trkpt lat="49.376649" lon="10.198934">
        <ele>413.170352</ele>
        <time>2026-04-26T18:18:02.739Z</time>
      </trkpt>
      <trkpt lat="49.376644" lon="10.198779">
        <ele>413.469189</ele>
        <time>2026-04-26T18:18:05.245Z</time>
      </trkpt>
      <trkpt lat="49.376641" lon="10.198673">
        <ele>413.673497</ele>
        <time>2026-04-26T18:18:06.944Z</time>
      </trkpt>
      <trkpt lat="49.376552" lon="10.196850">
        <ele>417.437515</ele>
        <time>2026-04-26T18:18:36.769Z</time>
      </trkpt>
      <trkpt lat="49.376534" lon="10.196655">
        <ele>417.853107</ele>
        <time>2026-04-26T18:18:39.948Z</time>
      </trkpt>
      <trkpt lat="49.376447" lon="10.195979">
        <ele>419.307162</ele>
        <time>2026-04-26T18:18:50.964Z</time>
      </trkpt>
      <trkpt lat="49.376349" lon="10.195576">
        <ele>420.214927</ele>
        <time>2026-04-26T18:18:57.718Z</time>
      </trkpt>
      <trkpt lat="49.376163" lon="10.194884">
        <ele>420.906475</ele>
        <time>2026-04-26T18:19:09.103Z</time>
      </trkpt>
      <trkpt lat="49.375939" lon="10.194347">
        <ele>421.343598</ele>
        <time>2026-04-26T18:19:18.550Z</time>
      </trkpt>
      <trkpt lat="49.375811" lon="10.194063">
        <ele>421.580343</ele>
        <time>2026-04-26T18:19:23.623Z</time>
      </trkpt>
      <trkpt lat="49.375779" lon="10.193993">
        <ele>421.638966</ele>
        <time>2026-04-26T18:19:24.872Z</time>
      </trkpt>
      <trkpt lat="49.375515" lon="10.193366">
        <ele>422.150753</ele>
        <time>2026-04-26T18:19:35.573Z</time>
      </trkpt>
      <trkpt lat="49.375382" lon="10.192937">
        <ele>422.327391</ele>
        <time>2026-04-26T18:19:41.883Z</time>
      </trkpt>
      <trkpt lat="49.375274" lon="10.192422">
        <ele>422.165788</ele>
        <time>2026-04-26T18:19:48.977Z</time>
      </trkpt>
      <trkpt lat="49.375242" lon="10.191661">
        <ele>421.938015</ele>
        <time>2026-04-26T18:19:59.090Z</time>
      </trkpt>
      <trkpt lat="49.375189" lon="10.191423">
        <ele>421.862886</ele>
        <time>2026-04-26T18:20:02.314Z</time>
      </trkpt>
      <trkpt lat="49.375215" lon="10.191407">
        <ele>421.850037</ele>
        <time>2026-04-26T18:20:02.833Z</time>
      </trkpt>
      <trkpt lat="49.375249" lon="10.191392">
        <ele>421.833809</ele>
        <time>2026-04-26T18:20:03.510Z</time>
      </trkpt>
      <trkpt lat="49.375261" lon="10.191295">
        <ele>421.804318</ele>
        <time>2026-04-26T18:20:04.785Z</time>
      </trkpt>
      <trkpt lat="49.375278" lon="10.191158">
        <ele>421.762662</ele>
        <time>2026-04-26T18:20:06.501Z</time>
      </trkpt>
      <trkpt lat="49.375287" lon="10.191079">
        <ele>421.738707</ele>
        <time>2026-04-26T18:20:07.533Z</time>
      </trkpt>
      <trkpt lat="49.375363" lon="10.190963">
        <ele>421.689555</ele>
        <time>2026-04-26T18:20:09.583Z</time>
      </trkpt>
      <trkpt lat="49.375432" lon="10.190624">
        <ele>421.583469</ele>
        <time>2026-04-26T18:20:14.163Z</time>
      </trkpt>
      <trkpt lat="49.375468" lon="10.190373">
        <ele>421.652932</ele>
        <time>2026-04-26T18:20:17.515Z</time>
      </trkpt>
      <trkpt lat="49.375473" lon="10.190104">
        <ele>421.860495</ele>
        <time>2026-04-26T18:20:21.121Z</time>
      </trkpt>
      <trkpt lat="49.375458" lon="10.189783">
        <ele>422.108717</ele>
        <time>2026-04-26T18:20:25.586Z</time>
      </trkpt>
      <trkpt lat="49.375456" lon="10.189495">
        <ele>422.330862</ele>
        <time>2026-04-26T18:20:29.743Z</time>
      </trkpt>
      <trkpt lat="49.375484" lon="10.189264">
        <ele>422.512092</ele>
        <time>2026-04-26T18:20:33.173Z</time>
      </trkpt>
      <trkpt lat="49.375746" lon="10.188555">
        <ele>423.140874</ele>
        <time>2026-04-26T18:20:45.335Z</time>
      </trkpt>
      <trkpt lat="49.375799" lon="10.188567">
        <ele>423.204336</ele>
        <time>2026-04-26T18:20:46.584Z</time>
      </trkpt>
      <trkpt lat="49.375829" lon="10.188367">
        <ele>423.362634</ele>
        <time>2026-04-26T18:20:49.758Z</time>
      </trkpt>
      <trkpt lat="49.375834" lon="10.188329">
        <ele>423.392536</ele>
        <time>2026-04-26T18:20:50.365Z</time>
      </trkpt>
      <trkpt lat="49.375870" lon="10.188058">
        <ele>423.605861</ele>
        <time>2026-04-26T18:20:54.702Z</time>
      </trkpt>
      <trkpt lat="49.375875" lon="10.188023">
        <ele>423.633498</ele>
        <time>2026-04-26T18:20:55.275Z</time>
      </trkpt>
      <trkpt lat="49.375897" lon="10.187855">
        <ele>423.860854</ele>
        <time>2026-04-26T18:20:58.007Z</time>
      </trkpt>
      <trkpt lat="49.375932" lon="10.187589">
        <ele>424.297932</ele>
        <time>2026-04-26T18:21:02.299Z</time>
      </trkpt>
      <trkpt lat="49.375974" lon="10.187276">
        <ele>424.812642</ele>
        <time>2026-04-26T18:21:07.375Z</time>
      </trkpt>
      <trkpt lat="49.375996" lon="10.187116">
        <ele>425.076021</ele>
        <time>2026-04-26T18:21:09.948Z</time>
      </trkpt>
      <trkpt lat="49.376030" lon="10.186864">
        <ele>425.490512</ele>
        <time>2026-04-26T18:21:14.012Z</time>
      </trkpt>
      <trkpt lat="49.376103" lon="10.186329">
        <ele>426.370896</ele>
        <time>2026-04-26T18:21:22.630Z</time>
      </trkpt>
      <trkpt lat="49.376119" lon="10.186214">
        <ele>426.560295</ele>
        <time>2026-04-26T18:21:24.461Z</time>
      </trkpt>
      <trkpt lat="49.376136" lon="10.186096">
        <ele>426.754941</ele>
        <time>2026-04-26T18:21:26.331Z</time>
      </trkpt>
      <trkpt lat="49.376189" lon="10.185753">
        <ele>427.322716</ele>
        <time>2026-04-26T18:21:31.732Z</time>
      </trkpt>
      <trkpt lat="49.376198" lon="10.185711">
        <ele>427.393930</ele>
        <time>2026-04-26T18:21:32.416Z</time>
      </trkpt>
      <trkpt lat="49.376207" lon="10.185665">
        <ele>427.471290</ele>
        <time>2026-04-26T18:21:33.149Z</time>
      </trkpt>
      <trkpt lat="49.376224" lon="10.185595">
        <ele>427.591618</ele>
        <time>2026-04-26T18:21:34.276Z</time>
      </trkpt>
      <trkpt lat="49.376395" lon="10.184946">
        <ele>428.564196</ele>
        <time>2026-04-26T18:21:44.765Z</time>
      </trkpt>
      <trkpt lat="49.376421" lon="10.184877">
        <ele>428.658957</ele>
        <time>2026-04-26T18:21:45.946Z</time>
      </trkpt>
      <trkpt lat="49.376438" lon="10.184838">
        <ele>428.714744</ele>
        <time>2026-04-26T18:21:46.642Z</time>
      </trkpt>
      <trkpt lat="49.376492" lon="10.184839">
        <ele>428.813334</ele>
        <time>2026-04-26T18:21:47.885Z</time>
      </trkpt>
      <trkpt lat="49.376725" lon="10.184788">
        <ele>429.243000</ele>
        <time>2026-04-26T18:21:53.210Z</time>
      </trkpt>
      <trkpt lat="49.377254" lon="10.184931">
        <ele>430.223592</ele>
        <time>2026-04-26T18:22:05.422Z</time>
      </trkpt>
      <trkpt lat="49.377804" lon="10.185002">
        <ele>431.231220</ele>
        <time>2026-04-26T18:22:18.290Z</time>
      </trkpt>
      <trkpt lat="49.378017" lon="10.185023">
        <ele>431.788944</ele>
        <time>2026-04-26T18:22:23.426Z</time>
      </trkpt>
      <trkpt lat="49.378541" lon="10.185064">
        <ele>433.514172</ele>
        <time>2026-04-26T18:22:36.464Z</time>
      </trkpt>
      <trkpt lat="49.378829" lon="10.184974">
        <ele>434.480562</ele>
        <time>2026-04-26T18:22:43.928Z</time>
      </trkpt>
      <trkpt lat="49.379663" lon="10.184553">
        <ele>437.325305</ele>
        <time>2026-04-26T18:23:05.818Z</time>
      </trkpt>
      <trkpt lat="49.379703" lon="10.184505">
        <ele>437.325305</ele>
        <time>2026-04-26T18:23:07.037Z</time>
      </trkpt>
      <trkpt lat="49.379785" lon="10.184408">
        <ele>437.325305</ele>
        <time>2026-04-26T18:23:09.993Z</time>
      </trkpt>
      <trkpt lat="49.379825" lon="10.184531">
        <ele>437.325305</ele>
        <time>2026-04-26T18:23:12.535Z</time>
      </trkpt>
      <trkpt lat="49.379763" lon="10.184610">
        <ele>437.325305</ele>
        <time>2026-04-26T18:23:14.435Z</time>
      </trkpt>
      <trkpt lat="49.379886" lon="10.185097">
        <ele>437.325305</ele>
        <time>2026-04-26T18:23:22.333Z</time>
      </trkpt>
      <trkpt lat="49.379897" lon="10.185137">
        <ele>437.325305</ele>
        <time>2026-04-26T18:23:22.976Z</time>
      </trkpt>
      <trkpt lat="49.379942" lon="10.185334">
        <ele>437.325305</ele>
        <time>2026-04-26T18:23:26.069Z</time>
      </trkpt>
      <trkpt lat="49.379962" lon="10.185431">
        <ele>437.325305</ele>
        <time>2026-04-26T18:23:27.564Z</time>
      </trkpt>
    </trkseg>
  </trk>
</gpx>